Darstellungsparameter: Aktuell verwendete Einstellungen:
Skalierung der Graphiken ... ?
xyx+y,   Skalierungsfaktor:      Skalierung: Modus: x, Faktor: 1
Darstellungszeitraum ... ?
Vom - - bis: - -   Zeitraum: 01.03.2009 - 31.08.2009
Min/Max/Avg-Anzeige ... ?
Zeige MMA aktuell
Zeige MMA Monat
Zeige MMA alles
Zeige --A aktuell
Zeige --A Monat
Zeige --A alles
Keine MMA-Anzeige
MMA:
Keine MMA-Graphiken
MMA-Basis: 01.03.2009 - 31.08.2009
Quicknavigation für Darstellung... ?
Tage:      1T, 2T, 3T, 5T -1T -2T -3T -5T +1T +2T +3T +5T
Wochen: 1W, 2W, 3W -1W -2W -3W +1W +2W +3W
Monate: 1M, 3M, 6M -1M -3M -6M +1M +3M +6M
Jahre:    1J, 3J, 5J, 10J -1J -3J -5J -10J +1J +3J +5J +10J
Nutze für die Darstellung ... ?
Originaldaten oder Mittelwerte auf ...
Stundenbasis Tagesbasis Wochenbasis
Monatsbasis Jahresbasis      Datenbasis: Original-Daten
Darstellen als:
Statistik (Auto) Statistik J:M      Darstellung:
Zur Graphik,    zurück zur Übersicht aller Sensoren.
 
Tabellarische Datenbersicht: ?
 
Sensor: Nr:Datum:Temp:Feuchte:Taupunkt:
Aussen-T/F 1 01-03-2009 00:03:45 7.1 C 75 % 2.98 C
2 01-03-2009 00:15:45 7 C 75 % 2.88 C
3 01-03-2009 00:27:45 7.4 C 77 % 3.64 C
4 01-03-2009 00:39:45 7.7 C 76 % 3.75 C
5 01-03-2009 00:51:45 7.7 C 75 % 3.56 C
6 01-03-2009 01:03:45 7.5 C 74 % 3.17 C
7 01-03-2009 01:15:45 7.6 C 74 % 3.27 C
8 01-03-2009 01:27:45 7.7 C 74 % 3.37 C
9 01-03-2009 01:39:45 7.8 C 74 % 3.46 C
10 01-03-2009 01:51:45 7.9 C 74 % 3.56 C
11 01-03-2009 02:03:45 7.8 C 73 % 3.27 C
12 01-03-2009 02:15:45 7.8 C 73 % 3.27 C
13 01-03-2009 02:27:45 7.9 C 73 % 3.37 C
14 01-03-2009 02:39:45 7.7 C 73 % 3.18 C
15 01-03-2009 02:51:45 7.6 C 73 % 3.08 C
16 01-03-2009 03:03:45 7.5 C 73 % 2.98 C
17 01-03-2009 03:15:45 7.2 C 74 % 2.89 C
18 01-03-2009 03:27:45 6.8 C 75 % 2.69 C
19 01-03-2009 03:39:46 6.7 C 77 % 2.96 C
20 01-03-2009 03:51:46 6.5 C 78 % 2.95 C
21 01-03-2009 04:03:46 6.5 C 78 % 2.95 C
22 01-03-2009 04:15:46 6.3 C 78 % 2.75 C
23 01-03-2009 04:27:46 6.2 C 78 % 2.66 C
24 01-03-2009 04:39:46 6.2 C 79 % 2.84 C
25 01-03-2009 04:51:46 6 C 78 % 2.46 C
Sensor: Nr:Datum:Temp:Feuchte:Taupunkt:
Aussen-T/F 26 01-03-2009 05:03:46 6 C 79 % 2.64 C
27 01-03-2009 05:15:46 6.4 C 80 % 3.21 C
28 01-03-2009 05:27:46 6.4 C 80 % 3.21 C
29 01-03-2009 05:39:46 6.4 C 79 % 3.03 C
30 01-03-2009 05:51:46 6.3 C 78 % 2.75 C
31 01-03-2009 06:03:46 6.3 C 79 % 2.93 C
32 01-03-2009 06:15:46 6.5 C 79 % 3.13 C
33 01-03-2009 06:27:46 6.6 C 79 % 3.23 C
34 01-03-2009 06:39:46 6.7 C 79 % 3.32 C
35 01-03-2009 06:51:46 6.8 C 79 % 3.42 C
36 01-03-2009 07:03:46 6.8 C 79 % 3.42 C
37 01-03-2009 07:15:46 6.9 C 78 % 3.34 C
38 01-03-2009 07:27:47 6.8 C 78 % 3.24 C
39 01-03-2009 07:39:47 6.9 C 78 % 3.34 C
40 01-03-2009 07:51:47 7 C 77 % 3.25 C
41 01-03-2009 08:03:47 7.2 C 77 % 3.45 C
42 01-03-2009 08:15:47 7.4 C 76 % 3.45 C
43 01-03-2009 08:27:47 7.6 C 75 % 3.46 C
44 01-03-2009 08:39:47 7.8 C 75 % 3.65 C
45 01-03-2009 08:51:47 7.9 C 73 % 3.37 C
46 01-03-2009 09:03:43 8 C 71 % 3.07 C
47 01-03-2009 09:15:44 8.1 C 69 % 2.77 C
48 01-03-2009 09:27:44 8.4 C 69 % 3.05 C
49 01-03-2009 09:39:44 8.6 C 67 % 2.83 C
50 01-03-2009 09:51:43 8.7 C 65 % 2.5 C
Sensor: Nr:Datum:Temp:Feuchte:Taupunkt:
Aussen-T/F 51 01-03-2009 10:03:43 9.1 C 64 % 2.66 C
52 01-03-2009 10:15:43 9.3 C 63 % 2.63 C
53 01-03-2009 10:27:43 9.6 C 61 % 2.46 C
54 01-03-2009 10:39:43 10 C 58 % 2.13 C
55 01-03-2009 10:51:43 10.1 C 58 % 2.22 C
56 01-03-2009 11:03:43 10.7 C 55 % 2.04 C
57 01-03-2009 11:15:42 10.5 C 56 % 2.11 C
58 01-03-2009 11:27:42 10.6 C 55 % 1.95 C
59 01-03-2009 11:39:42 10.9 C 54 % 1.97 C
60 01-03-2009 11:51:42 11.5 C 53 % 2.27 C
61 01-03-2009 12:03:42 11.7 C 51 % 1.91 C
62 01-03-2009 12:15:42 11.8 C 50 % 1.73 C
63 01-03-2009 12:27:42 11.6 C 50 % 1.54 C
64 01-03-2009 12:39:42 12.1 C 48 % 1.44 C
65 01-03-2009 12:51:42 12.8 C 46 % 1.48 C
66 01-03-2009 13:03:41 13.3 C 44 % 1.32 C
67 01-03-2009 13:15:42 13.5 C 43 % 1.18 C
68 01-03-2009 13:27:42 13.8 C 43 % 1.45 C
69 01-03-2009 13:39:41 13.3 C 43 % 1 C
70 01-03-2009 13:51:41 13.6 C 43 % 1.27 C
71 01-03-2009 14:03:41 13.9 C 43 % 1.54 C
72 01-03-2009 14:15:41 13.9 C 42 % 1.22 C
73 01-03-2009 14:27:41 13.9 C 42 % 1.22 C
74 01-03-2009 14:39:41 13.9 C 42 % 1.22 C
75 01-03-2009 14:51:41 14.2 C 41 % 1.15 C
Sensor: Nr:Datum:Temp:Feuchte:Taupunkt:
Aussen-T/F 76 01-03-2009 15:03:41 14.5 C 41 % 1.42 C
77 01-03-2009 15:15:40 14.4 C 41 % 1.33 C
78 01-03-2009 15:27:40 15.1 C 39 % 1.26 C
79 01-03-2009 15:39:40 15.2 C 39 % 1.35 C
80 01-03-2009 15:51:40 14.8 C 40 % 1.35 C
81 01-03-2009 16:03:40 14.5 C 40 % 1.08 C
82 01-03-2009 16:15:39 14.1 C 40 % 0.72 C
83 01-03-2009 16:27:39 13.7 C 41 % 0.7 C
84 01-03-2009 16:39:40 13.5 C 42 % 0.86 C
85 01-03-2009 16:51:39 13.3 C 43 % 1 C
86 01-03-2009 17:03:39 13.2 C 44 % 1.23 C
87 01-03-2009 17:15:40 13 C 44 % 1.05 C
88 01-03-2009 17:27:40 12.8 C 46 % 1.48 C
89 01-03-2009 17:39:39 12.5 C 46 % 1.21 C
90 01-03-2009 17:51:39 12.4 C 48 % 1.71 C
91 01-03-2009 18:03:38 11.8 C 53 % 2.54 C
92 01-03-2009 18:15:39 11.4 C 55 % 2.69 C
93 01-03-2009 18:27:39 11.2 C 56 % 2.76 C
94 01-03-2009 18:39:38 11.1 C 55 % 2.41 C
95 01-03-2009 18:51:38 10.9 C 57 % 2.73 C
96 01-03-2009 19:03:38 10.9 C 58 % 2.97 C
97 01-03-2009 19:15:38 11 C 56 % 2.57 C
98 01-03-2009 19:27:38 11 C 56 % 2.57 C
99 01-03-2009 19:39:38 11.2 C 55 % 2.51 C
100 01-03-2009 19:51:38 11.5 C 52 % 2 C
Sensor: Nr:Datum:Temp:Feuchte:Taupunkt:
Aussen-T/F 101 01-03-2009 20:03:38 11.9 C 50 % 1.82 C
102 01-03-2009 20:15:37 12 C 48 % 1.34 C
103 01-03-2009 20:27:37 12 C 48 % 1.34 C
104 01-03-2009 20:39:37 11.8 C 49 % 1.45 C
105 01-03-2009 20:51:37 11.8 C 49 % 1.45 C
106 01-03-2009 21:03:37 11.7 C 49 % 1.36 C
107 01-03-2009 21:15:37 11.8 C 49 % 1.45 C
108 01-03-2009 21:27:37 11.6 C 50 % 1.54 C
109 01-03-2009 21:39:37 11.4 C 51 % 1.64 C
110 01-03-2009 21:51:36 11.4 C 51 % 1.64 C
111 01-03-2009 22:03:36 11.1 C 55 % 2.41 C
112 01-03-2009 22:15:37 10.5 C 62 % 3.54 C
113 01-03-2009 22:27:37 10.1 C 67 % 4.26 C
114 01-03-2009 22:40:37 9.8 C 70 % 4.6 C
115 01-03-2009 22:52:37 9.7 C 70 % 4.5 C
116 01-03-2009 23:04:37 9.5 C 72 % 4.71 C
117 01-03-2009 23:16:37 9.5 C 73 % 4.91 C
118 01-03-2009 23:28:37 9.6 C 71 % 4.61 C
119 01-03-2009 23:40:37 9.8 C 68 % 4.18 C
120 01-03-2009 23:52:37 9.8 C 68 % 4.18 C
121 02-03-2009 00:04:37 9.8 C 67 % 3.97 C
122 02-03-2009 00:16:38 9.8 C 68 % 4.18 C
123 02-03-2009 00:28:38 9.5 C 71 % 4.51 C
124 02-03-2009 00:40:38 9.2 C 73 % 4.62 C
125 02-03-2009 00:52:38 9.1 C 74 % 4.72 C
Sensor: Nr:Datum:Temp:Feuchte:Taupunkt:
Aussen-T/F 126 02-03-2009 01:04:38 9.1 C 74 % 4.72 C
127 02-03-2009 01:16:38 9.1 C 74 % 4.72 C
128 02-03-2009 01:28:38 9.1 C 74 % 4.72 C
129 02-03-2009 01:40:38 9.1 C 73 % 4.52 C
130 02-03-2009 01:52:38 9 C 75 % 4.81 C
131 02-03-2009 02:04:38 8.9 C 76 % 4.91 C
132 02-03-2009 02:16:38 8.8 C 77 % 5 C
133 02-03-2009 02:28:38 8.7 C 78 % 5.08 C
134 02-03-2009 02:40:38 8.6 C 78 % 4.99 C
135 02-03-2009 02:52:38 8.6 C 79 % 5.17 C
136 02-03-2009 03:04:38 8.7 C 80 % 5.45 C
137 02-03-2009 03:16:38 8.5 C 82 % 5.61 C
138 02-03-2009 03:28:38 8.5 C 82 % 5.61 C
139 02-03-2009 03:40:38 8.5 C 83 % 5.78 C
140 02-03-2009 03:52:38 8.4 C 83 % 5.69 C
141 02-03-2009 04:04:39 8.4 C 84 % 5.86 C
142 02-03-2009 04:16:39 8.4 C 85 % 6.03 C
143 02-03-2009 04:28:39 8.3 C 86 % 6.1 C
144 02-03-2009 04:40:39 8.3 C 86 % 6.1 C
145 02-03-2009 04:52:39 8.3 C 87 % 6.27 C
146 02-03-2009 05:04:39 8.2 C 87 % 6.17 C
147 02-03-2009 05:16:39 8.2 C 87 % 6.17 C
148 02-03-2009 05:28:39 8.2 C 87 % 6.17 C
149 02-03-2009 05:40:39 8.1 C 87 % 6.07 C
150 02-03-2009 05:52:39 8.1 C 86 % 5.9 C
Sensor: Nr:Datum:Temp:Feuchte:Taupunkt:
Aussen-T/F 151 02-03-2009 06:04:39 8.2 C 86 % 6 C
152 02-03-2009 06:16:39 8.2 C 85 % 5.83 C
153 02-03-2009 06:28:39 8.2 C 85 % 5.83 C
154 02-03-2009 06:40:39 8.1 C 85 % 5.73 C
155 02-03-2009 06:52:39 8.2 C 85 % 5.83 C
156 02-03-2009 07:04:37 8.2 C 86 % 6 C
157 02-03-2009 07:16:37 8.4 C 85 % 6.03 C
158 02-03-2009 07:28:37 8.4 C 84 % 5.86 C
159 02-03-2009 07:40:37 8.4 C 83 % 5.69 C
160 02-03-2009 07:52:38 8.3 C 82 % 5.41 C
161 02-03-2009 08:04:37 8.3 C 83 % 5.59 C
162 02-03-2009 08:16:36 8.3 C 83 % 5.59 C
163 02-03-2009 08:28:37 8.2 C 84 % 5.66 C
164 02-03-2009 08:40:36 8.2 C 84 % 5.66 C
165 02-03-2009 08:52:36 8.1 C 84 % 5.56 C
166 02-03-2009 09:04:36 8.1 C 85 % 5.73 C
167 02-03-2009 09:16:35 8.1 C 85 % 5.73 C
168 02-03-2009 09:28:35 8.1 C 85 % 5.73 C
169 02-03-2009 09:40:36 8.1 C 86 % 5.9 C
170 02-03-2009 09:52:35 8.1 C 86 % 5.9 C
171 02-03-2009 10:04:35 8.1 C 87 % 6.07 C
172 02-03-2009 10:16:36 8.2 C 87 % 6.17 C
173 02-03-2009 10:28:36 8 C 87 % 5.97 C
174 02-03-2009 10:40:35 8.1 C 85 % 5.73 C
175 02-03-2009 10:52:35 8.2 C 84 % 5.66 C
Sensor: Nr:Datum:Temp:Feuchte:Taupunkt:
Aussen-T/F 176 02-03-2009 11:04:35 8.2 C 83 % 5.49 C
177 02-03-2009 11:16:35 8.1 C 82 % 5.22 C
178 02-03-2009 11:28:35 8 C 81 % 4.94 C
179 02-03-2009 11:40:34 8 C 81 % 4.94 C
180 02-03-2009 11:52:35 8.2 C 82 % 5.32 C
181 02-03-2009 12:04:34 8.6 C 81 % 5.53 C
182 02-03-2009 12:16:34 8.8 C 77 % 5 C
183 02-03-2009 12:28:34 8.9 C 72 % 4.14 C
184 02-03-2009 12:40:34 8.7 C 70 % 3.54 C
185 02-03-2009 12:52:34 9.5 C 67 % 3.69 C
186 02-03-2009 13:04:34 9.2 C 61 % 2.08 C
187 02-03-2009 13:16:33 9 C 59 % 1.43 C
188 02-03-2009 13:28:33 9.3 C 59 % 1.71 C
189 02-03-2009 13:40:34 9.8 C 58 % 1.94 C
190 02-03-2009 13:52:33 10.6 C 52 % 1.17 C
191 02-03-2009 14:04:33 10.1 C 48 % -0.4 C
192 02-03-2009 14:16:33 10.2 C 48 % -0.31 C
193 02-03-2009 14:28:33 10.7 C 47 % -0.14 C
194 02-03-2009 14:40:33 10.4 C 46 % -0.7 C
195 02-03-2009 14:52:32 10.4 C 47 % -0.41 C
196 02-03-2009 15:04:33 10.3 C 45 % -1.1 C
197 02-03-2009 15:16:33 10.3 C 45 % -1.1 C
198 02-03-2009 15:28:33 10.2 C 45 % -1.19 C
199 02-03-2009 15:40:32 10.8 C 45 % -0.64 C
200 02-03-2009 15:52:32 10.7 C 45 % -0.73 C
Sensor: Nr:Datum:Temp:Feuchte:Taupunkt:
Aussen-T/F 201 02-03-2009 16:04:32 10.5 C 44 % -1.22 C
202 02-03-2009 16:16:32 10.3 C 45 % -1.1 C
203 02-03-2009 16:28:33 10 C 46 % -1.07 C
204 02-03-2009 16:40:31 10 C 46 % -1.07 C
205 02-03-2009 16:52:32 9.8 C 47 % -0.96 C
206 02-03-2009 17:04:31 9.7 C 50 % -0.21 C
207 02-03-2009 17:16:31 9.5 C 50 % -0.39 C
208 02-03-2009 17:28:31 9.2 C 50 % -0.67 C
209 02-03-2009 17:40:32 8.9 C 52 % -0.41 C
210 02-03-2009 17:52:31 8.5 C 53 % -0.52 C
211 02-03-2009 18:04:31 8.3 C 54 % -0.45 C
212 02-03-2009 18:16:31 8.1 C 56 % -0.13 C
213 02-03-2009 18:28:31 7.8 C 57 % -0.17 C
214 02-03-2009 18:40:30 7.8 C 57 % -0.17 C
215 02-03-2009 18:52:31 7.5 C 58 % -0.21 C
216 02-03-2009 19:04:30 7.6 C 57 % -0.36 C
217 02-03-2009 19:16:30 7.5 C 56 % -0.7 C
218 02-03-2009 19:28:30 7.3 C 57 % -0.64 C
219 02-03-2009 19:40:30 7.1 C 58 % -0.59 C
220 02-03-2009 19:52:30 6.8 C 59 % -0.64 C
221 02-03-2009 20:04:29 6.4 C 60 % -0.78 C
222 02-03-2009 20:16:30 6 C 61 % -0.94 C
223 02-03-2009 20:28:30 5.8 C 63 % -0.69 C
224 02-03-2009 20:40:30 5.4 C 63 % -1.06 C
225 02-03-2009 20:52:29 5.1 C 65 % -0.92 C
Sensor: Nr:Datum:Temp:Feuchte:Taupunkt:
Aussen-T/F 226 02-03-2009 21:04:29 4.8 C 67 % -0.8 C
227 02-03-2009 21:16:29 4.6 C 68 % -0.78 C
228 02-03-2009 21:28:29 4.4 C 69 % -0.78 C
229 02-03-2009 21:40:29 4.1 C 70 % -0.87 C
230 02-03-2009 21:52:29 3.9 C 72 % -0.68 C
231 02-03-2009 22:04:29 3.7 C 73 % -0.68 C
232 02-03-2009 22:16:28 3.7 C 73 % -0.68 C
233 02-03-2009 22:28:28 3.5 C 74 % -0.69 C
234 02-03-2009 22:40:29 3.4 C 74 % -0.78 C
235 02-03-2009 22:53:29 3 C 76 % -0.81 C
236 02-03-2009 23:05:29 2.8 C 78 % -0.65 C
237 02-03-2009 23:17:29 2.7 C 78 % -0.74 C
238 02-03-2009 23:29:29 2.9 C 80 % -0.2 C
239 02-03-2009 23:41:29 3.1 C 79 % -0.18 C
240 02-03-2009 23:53:29 2.8 C 79 % -0.47 C
241 03-03-2009 00:05:29 2.6 C 79 % -0.67 C
242 03-03-2009 00:17:30 2.9 C 79 % -0.37 C
243 03-03-2009 00:29:30 3.1 C 77 % -0.53 C
244 03-03-2009 00:41:30 3 C 76 % -0.81 C
245 03-03-2009 00:53:30 2.9 C 77 % -0.72 C
246 03-03-2009 01:05:30 3 C 76 % -0.81 C
247 03-03-2009 01:17:30 3 C 75 % -0.99 C
248 03-03-2009 01:29:30 3.1 C 74 % -1.07 C
249 03-03-2009 01:41:30 3 C 74 % -1.17 C
250 03-03-2009 01:53:30 2.8 C 75 % -1.18 C
Sensor: Nr:Datum:Temp:Feuchte:Taupunkt:
Aussen-T/F 251 03-03-2009 02:05:30 2.6 C 75 % -1.37 C
252 03-03-2009 02:17:30 2.4 C 75 % -1.57 C
253 03-03-2009 02:29:30 2.3 C 76 % -1.48 C
254 03-03-2009 02:41:30 2.2 C 76 % -1.58 C
255 03-03-2009 02:53:30 2.1 C 78 % -1.33 C
256 03-03-2009 03:05:30 1.9 C 80 % -1.18 C
257 03-03-2009 03:17:30 1.6 C 79 % -1.64 C
258 03-03-2009 03:29:30 1.5 C 80 % -1.57 C
259 03-03-2009 03:41:30 1.5 C 81 % -1.4 C
260 03-03-2009 03:53:30 1.2 C 82 % -1.52 C
261 03-03-2009 04:05:31 1.2 C 82 % -1.52 C
262 03-03-2009 04:17:31 1.5 C 83 % -1.06 C
263 03-03-2009 04:29:31 1.4 C 83 % -1.16 C
264 03-03-2009 04:41:31 1.3 C 83 % -1.26 C
265 03-03-2009 04:53:31 1 C 82 % -1.72 C
266 03-03-2009 05:05:31 0.7 C 83 % -1.85 C
267 03-03-2009 05:17:31 0.5 C 83 % -2.04 C
268 03-03-2009 05:29:31 0.3 C 83 % -2.24 C
269 03-03-2009 05:41:31 0.3 C 83 % -2.24 C
270 03-03-2009 05:53:31 0.1 C 84 % -2.27 C
271 03-03-2009 06:05:31 0 C 84 % -2.37 C
272 03-03-2009 06:17:31 -0.1 C 84 % -2.47 C
273 03-03-2009 06:29:31 0 C 84 % -2.37 C
274 03-03-2009 06:41:31 -0.1 C 84 % -2.47 C
275 03-03-2009 06:53:31 -0.2 C 84 % -2.57 C
Sensor: Nr:Datum:Temp:Feuchte:Taupunkt:
Aussen-T/F 276 03-03-2009 07:05:29 -0.3 C 84 % -2.67 C
277 03-03-2009 07:17:28 -0.4 C 84 % -2.77 C
278 03-03-2009 07:29:28 -0.4 C 84 % -2.77 C
279 03-03-2009 07:41:29 -0.4 C 85 % -2.61 C
280 03-03-2009 07:53:28 -0.4 C 85 % -2.61 C
281 03-03-2009 08:05:28 -0.3 C 85 % -2.51 C
282 03-03-2009 08:17:28 -0.2 C 86 % -2.25 C
283 03-03-2009 08:29:28 -0.1 C 86 % -2.16 C
284 03-03-2009 08:41:28 0.1 C 87 % -1.8 C
285 03-03-2009 08:53:27 0.4 C 87 % -1.5 C
286 03-03-2009 09:05:28 0.9 C 87 % -1.01 C
287 03-03-2009 09:17:27 1.2 C 85 % -1.03 C
288 03-03-2009 09:29:27 1.2 C 84 % -1.2 C
289 03-03-2009 09:41:28 1.3 C 83 % -1.26 C
290 03-03-2009 09:53:27 1.7 C 83 % -0.87 C
291 03-03-2009 10:05:27 2.1 C 82 % -0.64 C
292 03-03-2009 10:17:27 2.6 C 81 % -0.32 C
293 03-03-2009 10:29:27 3.1 C 80 % -0.01 C
294 03-03-2009 10:41:27 3.7 C 77 % 0.05 C
295 03-03-2009 10:53:27 4.3 C 74 % 0.09 C
296 03-03-2009 11:05:26 5 C 68 % -0.4 C
297 03-03-2009 11:17:27 5.3 C 68 % -0.12 C
298 03-03-2009 11:29:27 6.4 C 59 % -1.01 C
299 03-03-2009 11:41:26 6.7 C 58 % -0.97 C
300 03-03-2009 11:53:26 7.2 C 55 % -1.22 C
Sensor: Nr:Datum:Temp:Feuchte:Taupunkt:
Aussen-T/F 301 03-03-2009 12:05:26 7.6 C 53 % -1.35 C
302 03-03-2009 12:17:27 8 C 50 % -1.77 C
303 03-03-2009 12:29:27 8.2 C 46 % -2.71 C
304 03-03-2009 12:41:26 8.7 C 45 % -2.55 C
305 03-03-2009 12:53:26 9 C 41 % -3.53 C
306 03-03-2009 13:05:26 9.3 C 39 % -3.92 C
307 03-03-2009 13:17:25 9.6 C 35 % -5.09 C
308 03-03-2009 13:29:25 9.8 C 33 % -5.68 C
309 03-03-2009 13:41:25 10.5 C 31 % -5.89 C
310 03-03-2009 13:53:25 10.8 C 30 % -6.06 C
311 03-03-2009 14:05:25 11.1 C 28 % -6.69 C
312 03-03-2009 14:17:24 11 C 27 % -7.25 C
313 03-03-2009 14:29:24 10.7 C 26 % -7.99 C
314 03-03-2009 14:41:25 11 C 25 % -8.24 C
315 03-03-2009 14:53:24 11.8 C 24 % -8.08 C
316 03-03-2009 15:05:24 11.3 C 22 % -9.61 C
317 03-03-2009 15:17:24 11 C 26 % -7.74 C
318 03-03-2009 15:29:24 11.5 C 27 % -6.82 C
319 03-03-2009 15:41:24 11.6 C 25 % -7.73 C
320 03-03-2009 15:53:24 11.2 C 23 % -9.13 C
321 03-03-2009 16:05:23 10.6 C 25 % -8.58 C
322 03-03-2009 16:17:24 10.4 C 26 % -8.25 C
323 03-03-2009 16:29:24 10.5 C 26 % -8.16 C
324 03-03-2009 16:41:23 10.6 C 26 % -8.08 C
325 03-03-2009 16:53:23 10.1 C 25 % -9.01 C
Sensor: Nr:Datum:Temp:Feuchte:Taupunkt:
Aussen-T/F 326 03-03-2009 17:05:24 9.9 C 28 % -7.73 C
327 03-03-2009 17:17:23 10.2 C 28 % -7.47 C
328 03-03-2009 17:29:23 10.5 C 27 % -7.68 C
329 03-03-2009 17:41:23 10.2 C 26 % -8.42 C
330 03-03-2009 17:53:23 9.7 C 28 % -7.9 C
331 03-03-2009 18:05:23 9.1 C 31 % -7.11 C
332 03-03-2009 18:17:22 8.2 C 35 % -6.33 C
333 03-03-2009 18:29:22 7.5 C 38 % -5.88 C
334 03-03-2009 18:41:23 6.9 C 41 % -5.42 C
335 03-03-2009 18:53:22 6.6 C 43 % -5.07 C
336 03-03-2009 19:05:22 6.4 C 43 % -5.25 C
337 03-03-2009 19:17:22 6.5 C 45 % -4.56 C
338 03-03-2009 19:29:22 6.8 C 42 % -5.19 C
339 03-03-2009 19:41:22 6.7 C 43 % -4.97 C
340 03-03-2009 19:53:22 6.5 C 44 % -4.85 C
341 03-03-2009 20:05:21 6.4 C 44 % -4.94 C
342 03-03-2009 20:17:22 6.4 C 43 % -5.25 C
343 03-03-2009 20:29:22 6.3 C 42 % -5.65 C
344 03-03-2009 20:41:21 6.1 C 43 % -5.52 C
345 03-03-2009 20:53:21 6.2 C 42 % -5.74 C
346 03-03-2009 21:05:21 6.4 C 41 % -5.87 C
347 03-03-2009 21:17:21 6 C 40 % -6.55 C
348 03-03-2009 21:29:21 5.9 C 41 % -6.32 C
349 03-03-2009 21:41:20 5.8 C 41 % -6.41 C
350 03-03-2009 21:53:21 5.8 C 40 % -6.73 C
Sensor: Nr:Datum:Temp:Feuchte:Taupunkt:
Aussen-T/F 351 03-03-2009 22:05:20 5.7 C 44 % -5.58 C
352 03-03-2009 22:17:20 5.8 C 42 % -6.1 C
353 03-03-2009 22:29:20 6 C 41 % -6.23 C
354 03-03-2009 22:41:20 5.9 C 42 % -6.01 C
355 03-03-2009 22:54:21 6 C 41 % -6.23 C
356 03-03-2009 23:06:22 6.2 C 40 % -6.37 C
357 03-03-2009 23:18:22 6.4 C 41 % -5.87 C
358 03-03-2009 23:30:22 6.2 C 42 % -5.74 C
359 03-03-2009 23:42:22 6.4 C 42 % -5.56 C
360 03-03-2009 23:54:22 5.9 C 45 % -5.1 C
361 04-03-2009 00:06:22 5.5 C 46 % -5.18 C
362 04-03-2009 00:18:22 5 C 48 % -5.08 C
363 04-03-2009 00:30:22 4.5 C 53 % -4.23 C
364 04-03-2009 00:42:22 4.4 C 54 % -4.08 C
365 04-03-2009 00:54:22 4.2 C 56 % -3.78 C
366 04-03-2009 01:06:22 4.3 C 56 % -3.69 C
367 04-03-2009 01:18:22 4.1 C 58 % -3.41 C
368 04-03-2009 01:30:22 3.9 C 60 % -3.14 C
369 04-03-2009 01:42:22 3.7 C 61 % -3.11 C
370 04-03-2009 01:54:22 3.6 C 61 % -3.2 C
371 04-03-2009 02:06:22 3.4 C 62 % -3.17 C
372 04-03-2009 02:18:22 3.3 C 64 % -2.84 C
373 04-03-2009 02:30:22 3.2 C 64 % -2.94 C
374 04-03-2009 02:42:22 3.2 C 65 % -2.73 C
375 04-03-2009 02:54:22 3.1 C 66 % -2.62 C
Sensor: Nr:Datum:Temp:Feuchte:Taupunkt:
Aussen-T/F 376 04-03-2009 03:06:23 2.9 C 66 % -2.81 C
377 04-03-2009 03:18:23 2.7 C 67 % -2.8 C
378 04-03-2009 03:30:23 2.7 C 68 % -2.6 C
379 04-03-2009 03:42:23 2.8 C 69 % -2.31 C
380 04-03-2009 03:54:23 2.8 C 69 % -2.31 C
381 04-03-2009 04:06:23 2.8 C 70 % -2.11 C
382 04-03-2009 04:18:23 2.6 C 70 % -2.31 C
383 04-03-2009 04:30:23 2.5 C 70 % -2.4 C
384 04-03-2009 04:42:23 2.5 C 71 % -2.21 C
385 04-03-2009 04:54:23 2.4 C 71 % -2.31 C
386 04-03-2009 05:06:23 2.5 C 72 % -2.02 C
387 04-03-2009 05:18:23 2.7 C 71 % -2.02 C
388 04-03-2009 05:30:23 3 C 69 % -2.12 C
389 04-03-2009 05:42:23 3.1 C 68 % -2.22 C
390 04-03-2009 05:54:23 3.2 C 67 % -2.32 C
391 04-03-2009 06:06:23 3.4 C 66 % -2.33 C
392 04-03-2009 06:18:23 3.5 C 66 % -2.24 C
393 04-03-2009 06:30:23 3.5 C 65 % -2.44 C
394 04-03-2009 06:42:23 3.4 C 66 % -2.33 C
395 04-03-2009 06:54:23 3.5 C 65 % -2.44 C
396 04-03-2009 07:06:20 3.6 C 65 % -2.35 C
397 04-03-2009 07:18:21 3.7 C 65 % -2.25 C
398 04-03-2009 07:30:21 3.8 C 64 % -2.37 C
399 04-03-2009 07:42:21 3.7 C 65 % -2.25 C
400 04-03-2009 07:54:20 3.8 C 65 % -2.16 C
Sensor: Nr:Datum:Temp:Feuchte:Taupunkt:
Aussen-T/F 401 04-03-2009 08:06:21 3.9 C 64 % -2.27 C
402 04-03-2009 08:18:20 4 C 64 % -2.18 C
403 04-03-2009 08:30:20 4.1 C 63 % -2.3 C
404 04-03-2009 08:42:20 4.2 C 63 % -2.2 C
405 04-03-2009 08:54:19 4.2 C 63 % -2.2 C
406 04-03-2009 09:06:20 4.2 C 63 % -2.2 C
407 04-03-2009 09:18:19 4 C 62 % -2.61 C
408 04-03-2009 09:30:20 4.1 C 62 % -2.51 C
409 04-03-2009 09:42:21 4.3 C 61 % -2.54 C
410 04-03-2009 09:54:19 4.9 C 59 % -2.42 C
411 04-03-2009 10:06:19 5.4 C 56 % -2.66 C
412 04-03-2009 10:18:18 5.9 C 54 % -2.68 C
413 04-03-2009 10:30:19 6.1 C 53 % -2.74 C
414 04-03-2009 10:42:19 6.8 C 50 % -2.88 C
415 04-03-2009 10:54:18 7.5 C 47 % -3.06 C
416 04-03-2009 11:06:18 8 C 44 % -3.49 C
417 04-03-2009 11:18:19 8.3 C 43 % -3.52 C
418 04-03-2009 11:30:18 8.6 C 42 % -3.57 C
419 04-03-2009 11:42:18 8.8 C 42 % -3.39 C
420 04-03-2009 11:54:18 9.1 C 42 % -3.12 C
421 04-03-2009 12:06:18 9.4 C 41 % -3.17 C
422 04-03-2009 12:18:18 9.9 C 40 % -3.05 C
423 04-03-2009 12:30:18 10.3 C 37 % -3.73 C
424 04-03-2009 12:42:18 10.7 C 37 % -3.38 C
425 04-03-2009 12:54:18 11.1 C 36 % -3.39 C
Sensor: Nr:Datum:Temp:Feuchte:Taupunkt:
Aussen-T/F 426 04-03-2009 13:06:18 11.8 C 32 % -4.34 C
427 04-03-2009 13:18:17 12.2 C 28 % -5.75 C
428 04-03-2009 13:30:17 12.2 C 30 % -4.84 C
429 04-03-2009 13:42:17 11.5 C 33 % -4.19 C
430 04-03-2009 13:54:17 11.7 C 33 % -4.01 C
431 04-03-2009 14:06:17 12 C 32 % -4.16 C
432 04-03-2009 14:18:16 12.4 C 31 % -4.23 C
433 04-03-2009 14:30:17 12.3 C 30 % -4.75 C
434 04-03-2009 14:42:17 12.7 C 30 % -4.41 C
435 04-03-2009 14:54:16 12.9 C 30 % -4.23 C
436 04-03-2009 15:06:16 13 C 28 % -5.06 C
437 04-03-2009 15:18:17 13.3 C 28 % -4.8 C
438 04-03-2009 15:30:16 12.9 C 28 % -5.14 C
439 04-03-2009 15:42:16 12.3 C 30 % -4.75 C
440 04-03-2009 15:54:16 11.9 C 32 % -4.25 C
441 04-03-2009 16:06:16 11.9 C 32 % -4.25 C
442 04-03-2009 16:18:16 12.7 C 29 % -4.85 C
443 04-03-2009 16:30:15 12.3 C 31 % -4.32 C
444 04-03-2009 16:42:15 12.2 C 30 % -4.84 C
445 04-03-2009 16:54:15 11.9 C 32 % -4.25 C
446 04-03-2009 17:06:15 11.7 C 31 % -4.84 C
447 04-03-2009 17:18:15 11.6 C 31 % -4.93 C
448 04-03-2009 17:30:15 11.4 C 31 % -5.1 C
449 04-03-2009 17:42:15 11.3 C 31 % -5.19 C
450 04-03-2009 17:54:15 11.1 C 31 % -5.37 C
Sensor: Nr:Datum:Temp:Feuchte:Taupunkt:
Aussen-T/F 451 04-03-2009 18:06:15 11 C 32 % -5.04 C
452 04-03-2009 18:18:14 10.8 C 33 % -4.81 C
453 04-03-2009 18:30:14 10.3 C 35 % -4.47 C
454 04-03-2009 18:42:15 9.7 C 39 % -3.57 C
455 04-03-2009 18:54:14 9 C 42 % -3.21 C
456 04-03-2009 19:06:14 8.9 C 43 % -2.98 C
457 04-03-2009 19:18:13 8.7 C 45 % -2.55 C
458 04-03-2009 19:30:14 8.8 C 43 % -3.07 C
459 04-03-2009 19:42:14 8.6 C 45 % -2.64 C
460 04-03-2009 19:54:13 8.9 C 44 % -2.67 C
461 04-03-2009 20:06:13 8.9 C 45 % -2.37 C
462 04-03-2009 20:18:14 9 C 45 % -2.28 C
463 04-03-2009 20:30:13 9 C 46 % -1.98 C
464 04-03-2009 20:42:13 8.9 C 48 % -1.5 C
465 04-03-2009 20:54:13 8.8 C 49 % -1.31 C
466 04-03-2009 21:06:13 8.6 C 51 % -0.95 C
467 04-03-2009 21:18:13 8.5 C 52 % -0.78 C
468 04-03-2009 21:30:13 8.4 C 52 % -0.87 C
469 04-03-2009 21:42:13 8.4 C 51 % -1.13 C
470 04-03-2009 21:54:13 8.5 C 51 % -1.04 C
471 04-03-2009 22:06:12 8.5 C 50 % -1.31 C
472 04-03-2009 22:19:15 8.6 C 50 % -1.22 C
473 04-03-2009 22:31:15 8.4 C 51 % -1.13 C
474 04-03-2009 22:43:15 8.7 C 48 % -1.68 C
475 04-03-2009 22:55:15 8.7 C 50 % -1.13 C
Sensor: Nr:Datum:Temp:Feuchte:Taupunkt:
Aussen-T/F 476 04-03-2009 23:07:15 8.6 C 50 % -1.22 C
477 04-03-2009 23:19:15 8.4 C 51 % -1.13 C
478 04-03-2009 23:31:15 8.3 C 52 % -0.96 C
479 04-03-2009 23:43:15 8.1 C 53 % -0.89 C
480 04-03-2009 23:55:15 8 C 55 % -0.47 C
481 05-03-2009 00:07:15 7.9 C 56 % -0.32 C
482 05-03-2009 00:19:15 7.9 C 57 % -0.08 C
483 05-03-2009 00:31:15 7.8 C 60 % 0.53 C
484 05-03-2009 00:43:15 7.6 C 62 % 0.8 C
485 05-03-2009 00:55:15 7.5 C 64 % 1.14 C
486 05-03-2009 01:07:15 7.6 C 63 % 1.02 C
487 05-03-2009 01:19:15 7.6 C 62 % 0.8 C
488 05-03-2009 01:31:16 7.6 C 61 % 0.57 C
489 05-03-2009 01:43:16 7.6 C 61 % 0.57 C
490 05-03-2009 01:55:16 7.6 C 61 % 0.57 C
491 05-03-2009 02:07:16 7.6 C 61 % 0.57 C
492 05-03-2009 02:19:16 7.6 C 61 % 0.57 C
493 05-03-2009 02:31:16 7.6 C 61 % 0.57 C
494 05-03-2009 02:43:16 7.6 C 61 % 0.57 C
495 05-03-2009 02:55:16 7.5 C 62 % 0.7 C
496 05-03-2009 03:07:16 7.5 C 61 % 0.48 C
497 05-03-2009 03:19:16 7.6 C 61 % 0.57 C
498 05-03-2009 03:31:16 7.6 C 61 % 0.57 C
499 05-03-2009 03:43:16 7.5 C 61 % 0.48 C
500 05-03-2009 03:55:16 7.4 C 62 % 0.61 C
Sensor: Nr:Datum:Temp:Feuchte:Taupunkt:
Aussen-T/F 501 05-03-2009 04:07:16 7.3 C 63 % 0.74 C
502 05-03-2009 04:19:16 7.1 C 65 % 0.98 C
503 05-03-2009 04:31:16 7.1 C 66 % 1.19 C
504 05-03-2009 04:43:16 7 C 66 % 1.09 C
505 05-03-2009 04:55:16 6.7 C 69 % 1.43 C
506 05-03-2009 05:07:16 6.4 C 71 % 1.54 C
507 05-03-2009 05:19:16 6.1 C 73 % 1.63 C
508 05-03-2009 05:31:17 6 C 74 % 1.73 C
509 05-03-2009 05:43:17 5.7 C 77 % 1.99 C
510 05-03-2009 05:55:17 5.5 C 80 % 2.33 C
511 05-03-2009 06:07:17 5.4 C 81 % 2.41 C
512 05-03-2009 06:19:17 5.2 C 81 % 2.21 C
513 05-03-2009 06:31:17 5.1 C 81 % 2.12 C
514 05-03-2009 06:43:17 5 C 82 % 2.19 C
515 05-03-2009 06:55:17 4.9 C 84 % 2.43 C
516 05-03-2009 07:07:14 4.9 C 85 % 2.6 C
517 05-03-2009 07:19:14 4.8 C 85 % 2.5 C
518 05-03-2009 07:31:14 4.7 C 86 % 2.56 C
519 05-03-2009 07:43:14 4.7 C 86 % 2.56 C
520 05-03-2009 07:55:14 4.6 C 86 % 2.47 C
521 05-03-2009 08:07:13 4.6 C 86 % 2.47 C
522 05-03-2009 08:19:14 4.4 C 86 % 2.27 C
523 05-03-2009 08:31:14 4.2 C 85 % 1.91 C
524 05-03-2009 08:43:14 3.9 C 85 % 1.61 C
525 05-03-2009 08:55:13 3.6 C 85 % 1.32 C
Sensor: Nr:Datum:Temp:Feuchte:Taupunkt:
Aussen-T/F 526 05-03-2009 09:07:14 3.4 C 85 % 1.12 C
527 05-03-2009 09:19:13 3.4 C 85 % 1.12 C
528 05-03-2009 09:31:13 3.5 C 86 % 1.38 C
529 05-03-2009 09:43:13 3.2 C 86 % 1.09 C
530 05-03-2009 09:55:13 3.2 C 86 % 1.09 C
531 05-03-2009 10:07:13 3.1 C 86 % 0.99 C
532 05-03-2009 10:19:12 3 C 86 % 0.89 C
533 05-03-2009 10:31:12 3.1 C 86 % 0.99 C
534 05-03-2009 10:43:12 3.1 C 87 % 1.15 C
535 05-03-2009 10:55:12 2.7 C 87 % 0.76 C
536 05-03-2009 11:07:12 2.7 C 87 % 0.76 C
537 05-03-2009 11:19:12 2.6 C 87 % 0.66 C
538 05-03-2009 11:31:12 2.6 C 87 % 0.66 C
539 05-03-2009 11:43:12 2.5 C 87 % 0.56 C
540 05-03-2009 11:55:12 2.6 C 87 % 0.66 C
541 05-03-2009 12:07:11 2.6 C 88 % 0.82 C
542 05-03-2009 12:19:12 2.8 C 88 % 1.02 C
543 05-03-2009 12:31:11 2.6 C 88 % 0.82 C
544 05-03-2009 12:43:11 2.8 C 88 % 1.02 C
545 05-03-2009 12:55:11 3.1 C 88 % 1.31 C
546 05-03-2009 13:07:11 2.9 C 88 % 1.11 C
547 05-03-2009 13:19:11 2.9 C 88 % 1.11 C
548 05-03-2009 13:31:11 2.9 C 88 % 1.11 C
549 05-03-2009 13:43:11 3 C 87 % 1.05 C
550 05-03-2009 13:55:10 3 C 87 % 1.05 C
Sensor: Nr:Datum:Temp:Feuchte:Taupunkt:
Aussen-T/F 551 05-03-2009 14:07:11 3 C 87 % 1.05 C
552 05-03-2009 14:19:10 2.9 C 88 % 1.11 C
553 05-03-2009 14:31:10 3 C 88 % 1.21 C
554 05-03-2009 14:43:10 3 C 88 % 1.21 C
555 05-03-2009 14:55:10 3.1 C 88 % 1.31 C
556 05-03-2009 15:07:10 3 C 88 % 1.21 C
557 05-03-2009 15:19:10 3.1 C 88 % 1.31 C
558 05-03-2009 15:31:09 3 C 88 % 1.21 C
559 05-03-2009 15:43:09 3.1 C 88 % 1.31 C
560 05-03-2009 15:55:09 3.2 C 89 % 1.57 C
561 05-03-2009 16:07:09 3.3 C 89 % 1.67 C
562 05-03-2009 16:19:10 3.2 C 89 % 1.57 C
563 05-03-2009 16:31:09 3.3 C 89 % 1.67 C
564 05-03-2009 16:43:09 3.4 C 89 % 1.76 C
565 05-03-2009 16:55:09 3.5 C 89 % 1.86 C
566 05-03-2009 17:07:08 3.6 C 89 % 1.96 C
567 05-03-2009 17:19:09 3.6 C 89 % 1.96 C
568 05-03-2009 17:31:09 3.6 C 89 % 1.96 C
569 05-03-2009 17:43:09 3.7 C 89 % 2.06 C
570 05-03-2009 17:55:08 3.7 C 89 % 2.06 C
571 05-03-2009 18:07:08 4 C 87 % 2.04 C
572 05-03-2009 18:19:09 4 C 87 % 2.04 C
573 05-03-2009 18:31:08 4 C 87 % 2.04 C
574 05-03-2009 18:43:08 3.9 C 88 % 2.1 C
575 05-03-2009 18:55:08 4 C 88 % 2.2 C
Sensor: Nr:Datum:Temp:Feuchte:Taupunkt:
Aussen-T/F 576 05-03-2009 19:07:08 4 C 88 % 2.2 C
577 05-03-2009 19:19:07 4 C 89 % 2.36 C
578 05-03-2009 19:31:08 4 C 89 % 2.36 C
579 05-03-2009 19:43:08 3.8 C 90 % 2.31 C
580 05-03-2009 19:55:07 3.8 C 90 % 2.31 C
581 05-03-2009 20:07:07 3.7 C 90 % 2.22 C
582 05-03-2009 20:19:07 3.7 C 89 % 2.06 C
583 05-03-2009 20:31:07 3.6 C 89 % 1.96 C
584 05-03-2009 20:43:07 3.6 C 90 % 2.12 C
585 05-03-2009 20:55:06 3.6 C 90 % 2.12 C
586 05-03-2009 21:07:07 3.5 C 90 % 2.02 C
587 05-03-2009 21:19:06 3.5 C 90 % 2.02 C
588 05-03-2009 21:31:06 3.5 C 90 % 2.02 C
589 05-03-2009 21:43:07 3.4 C 90 % 1.92 C
590 05-03-2009 21:55:06 3.4 C 91 % 2.07 C
591 05-03-2009 22:07:06 3.4 C 91 % 2.07 C
592 05-03-2009 22:19:05 3.4 C 91 % 2.07 C
593 05-03-2009 22:32:06 3.3 C 90 % 1.82 C
594 05-03-2009 22:44:06 3.2 C 90 % 1.72 C
595 05-03-2009 22:56:07 3.1 C 90 % 1.62 C
596 05-03-2009 23:08:07 3 C 90 % 1.52 C
597 05-03-2009 23:20:07 3 C 90 % 1.52 C
598 05-03-2009 23:32:07 2.8 C 90 % 1.33 C
599 05-03-2009 23:44:07 2.8 C 90 % 1.33 C
600 05-03-2009 23:56:07 2.8 C 90 % 1.33 C
Sensor: Nr:Datum:Temp:Feuchte:Taupunkt:
Aussen-T/F 601 06-03-2009 00:08:07 2.9 C 91 % 1.58 C
602 06-03-2009 00:20:07 3 C 90 % 1.52 C
603 06-03-2009 00:32:07 3 C 90 % 1.52 C
604 06-03-2009 00:44:07 3 C 90 % 1.52 C
605 06-03-2009 00:56:07 3 C 91 % 1.68 C
606 06-03-2009 01:08:07 3.1 C 91 % 1.78 C
607 06-03-2009 01:20:07 3.1 C 91 % 1.78 C
608 06-03-2009 01:32:07 3.2 C 91 % 1.88 C
609 06-03-2009 01:44:07 3.2 C 91 % 1.88 C
610 06-03-2009 01:56:07 3.2 C 91 % 1.88 C
611 06-03-2009 02:08:07 3.2 C 91 % 1.88 C
612 06-03-2009 02:20:07 3.3 C 91 % 1.98 C
613 06-03-2009 02:32:07 3.3 C 91 % 1.98 C
614 06-03-2009 02:44:07 3.3 C 91 % 1.98 C
615 06-03-2009 02:56:08 3.4 C 91 % 2.07 C
616 06-03-2009 03:08:08 3.4 C 91 % 2.07 C
617 06-03-2009 03:20:08 3.4 C 91 % 2.07 C
618 06-03-2009 03:32:08 3.4 C 91 % 2.07 C
619 06-03-2009 03:44:08 3.5 C 91 % 2.17 C
620 06-03-2009 03:56:08 3.5 C 91 % 2.17 C
621 06-03-2009 04:08:08 3.5 C 91 % 2.17 C
622 06-03-2009 04:20:08 3.4 C 91 % 2.07 C
623 06-03-2009 04:32:08 3.4 C 91 % 2.07 C
624 06-03-2009 04:44:08 3.3 C 90 % 1.82 C
625 06-03-2009 04:56:08 3.3 C 90 % 1.82 C
Sensor: Nr:Datum:Temp:Feuchte:Taupunkt:
Aussen-T/F 626 06-03-2009 05:08:08 3.3 C 90 % 1.82 C
627 06-03-2009 05:20:08 3.3 C 91 % 1.98 C
628 06-03-2009 05:32:08 3.3 C 91 % 1.98 C
629 06-03-2009 05:44:08 3.3 C 91 % 1.98 C
630 06-03-2009 05:56:08 3.4 C 92 % 2.23 C
631 06-03-2009 06:08:08 3.5 C 92 % 2.33 C
632 06-03-2009 06:20:08 3.6 C 92 % 2.42 C
633 06-03-2009 06:32:08 3.5 C 92 % 2.33 C
634 06-03-2009 06:44:08 3.6 C 92 % 2.42 C
635 06-03-2009 06:56:08 3.6 C 92 % 2.42 C
636 06-03-2009 07:08:06 3.5 C 92 % 2.33 C
637 06-03-2009 07:20:06 3.5 C 92 % 2.33 C
638 06-03-2009 07:32:06 3.3 C 91 % 1.98 C
639 06-03-2009 07:44:06 3.3 C 92 % 2.13 C
640 06-03-2009 07:56:06 3.3 C 92 % 2.13 C
641 06-03-2009 08:08:05 3.3 C 91 % 1.98 C
642 06-03-2009 08:20:05 3.3 C 91 % 1.98 C
643 06-03-2009 08:32:05 3.3 C 91 % 1.98 C
644 06-03-2009 08:44:05 3.2 C 90 % 1.72 C
645 06-03-2009 08:56:05 3.3 C 90 % 1.82 C
646 06-03-2009 09:08:05 3.3 C 90 % 1.82 C
647 06-03-2009 09:20:05 3.4 C 90 % 1.92 C
648 06-03-2009 09:32:05 3.4 C 89 % 1.76 C
649 06-03-2009 09:44:05 3.5 C 89 % 1.86 C
650 06-03-2009 09:56:05 3.6 C 89 % 1.96 C
Sensor: Nr:Datum:Temp:Feuchte:Taupunkt:
Aussen-T/F 651 06-03-2009 10:08:05 3.6 C 89 % 1.96 C
652 06-03-2009 10:20:04 3.7 C 88 % 1.9 C
653 06-03-2009 10:32:04 3.9 C 88 % 2.1 C
654 06-03-2009 10:44:04 3.8 C 88 % 2 C
655 06-03-2009 10:56:04 3.8 C 88 % 2 C
656 06-03-2009 11:08:04 3.9 C 89 % 2.26 C
657 06-03-2009 11:20:03 4 C 88 % 2.2 C
658 06-03-2009 11:32:04 4.1 C 88 % 2.3 C
659 06-03-2009 11:44:03 4.1 C 88 % 2.3 C
660 06-03-2009 11:56:03 4.2 C 88 % 2.39 C
661 06-03-2009 12:08:03 4.2 C 87 % 2.23 C
662 06-03-2009 12:20:04 4.3 C 88 % 2.49 C
663 06-03-2009 12:32:03 4.3 C 88 % 2.49 C
664 06-03-2009 12:44:03 4.4 C 87 % 2.43 C
665 06-03-2009 12:56:03 4.4 C 87 % 2.43 C
666 06-03-2009 13:08:03 4.5 C 86 % 2.37 C
667 06-03-2009 13:20:03 4.6 C 85 % 2.3 C
668 06-03-2009 13:32:02 5 C 82 % 2.19 C
669 06-03-2009 13:44:02 5 C 82 % 2.19 C
670 06-03-2009 13:56:03 4.8 C 83 % 2.16 C
671 06-03-2009 14:08:02 4.7 C 84 % 2.23 C
672 06-03-2009 14:20:02 4.7 C 84 % 2.23 C
673 06-03-2009 14:32:02 4.8 C 83 % 2.16 C
674 06-03-2009 14:44:02 4.9 C 82 % 2.09 C
675 06-03-2009 14:56:02 4.9 C 83 % 2.26 C
Sensor: Nr:Datum:Temp:Feuchte:Taupunkt:
Aussen-T/F 676 06-03-2009 15:08:02 4.8 C 82 % 1.99 C
677 06-03-2009 15:20:01 4.8 C 82 % 1.99 C
678 06-03-2009 15:32:01 4.9 C 82 % 2.09 C
679 06-03-2009 15:44:01 4.9 C 82 % 2.09 C
680 06-03-2009 15:56:01 4.7 C 82 % 1.9 C
681 06-03-2009 16:08:01 4.7 C 82 % 1.9 C
682 06-03-2009 16:20:00 4.6 C 82 % 1.8 C
683 06-03-2009 16:32:01 4.6 C 82 % 1.8 C
684 06-03-2009 16:44:00 4.5 C 83 % 1.87 C
685 06-03-2009 16:56:00 4.4 C 84 % 1.94 C
686 06-03-2009 17:08:00 4.4 C 84 % 1.94 C
687 06-03-2009 17:20:01 4.3 C 84 % 1.84 C
688 06-03-2009 17:32:00 4.2 C 83 % 1.58 C
689 06-03-2009 17:44:00 4.2 C 83 % 1.58 C
690 06-03-2009 17:56:00 4.2 C 84 % 1.74 C
691 06-03-2009 18:08:00 4.2 C 83 % 1.58 C
692 06-03-2009 18:20:00 4.1 C 82 % 1.31 C
693 06-03-2009 18:32:00 4 C 83 % 1.38 C
694 06-03-2009 18:44:00 4 C 84 % 1.55 C
695 06-03-2009 18:56:00 3.9 C 85 % 1.61 C
696 06-03-2009 19:08:00 3.9 C 84 % 1.45 C
697 06-03-2009 19:20:59 4 C 82 % 1.21 C
698 06-03-2009 19:32:59 4 C 82 % 1.21 C
699 06-03-2009 19:44:59 4 C 83 % 1.38 C
700 06-03-2009 19:56:59 3.9 C 84 % 1.45 C
Sensor: Nr:Datum:Temp:Feuchte:Taupunkt:
Aussen-T/F 701 06-03-2009 20:08:59 3.8 C 84 % 1.35 C
702 06-03-2009 20:20:58 3.8 C 84 % 1.35 C
703 06-03-2009 20:32:59 3.8 C 83 % 1.19 C
704 06-03-2009 20:44:58 4 C 80 % 0.87 C
705 06-03-2009 20:56:58 3.9 C 81 % 0.95 C
706 06-03-2009 21:08:59 3.8 C 80 % 0.68 C
707 06-03-2009 21:20:58 3.7 C 78 % 0.23 C
708 06-03-2009 21:32:58 3.7 C 76 % -0.13 C
709 06-03-2009 21:44:58 3.8 C 72 % -0.77 C
710 06-03-2009 21:56:58 3.8 C 70 % -1.16 C
711 06-03-2009 22:08:58 3.8 C 68 % -1.55 C
712 06-03-2009 22:21:57 3.7 C 68 % -1.64 C
713 06-03-2009 22:33:57 3.8 C 67 % -1.75 C
714 06-03-2009 22:45:57 3.8 C 68 % -1.55 C
715 06-03-2009 22:57:57 3.8 C 67 % -1.75 C
716 06-03-2009 23:09:57 3.8 C 66 % -1.95 C
717 06-03-2009 23:21:57 3.7 C 66 % -2.05 C
718 06-03-2009 23:33:57 3.8 C 65 % -2.16 C
719 06-03-2009 23:45:57 3.8 C 65 % -2.16 C
720 06-03-2009 23:57:57 3.8 C 64 % -2.37 C
721 07-03-2009 00:09:58 3.7 C 64 % -2.46 C
722 07-03-2009 00:21:58 3.8 C 62 % -2.8 C
723 07-03-2009 00:33:58 3.8 C 61 % -3.01 C
724 07-03-2009 00:45:58 3.8 C 60 % -3.23 C
725 07-03-2009 00:57:58 3.7 C 61 % -3.11 C
Sensor: Nr:Datum:Temp:Feuchte:Taupunkt:
Aussen-T/F 726 07-03-2009 01:09:58 3.6 C 63 % -2.77 C
727 07-03-2009 01:21:58 3.6 C 62 % -2.98 C
728 07-03-2009 01:33:58 3.6 C 62 % -2.98 C
729 07-03-2009 01:45:58 3.5 C 62 % -3.08 C
730 07-03-2009 01:57:58 3.4 C 63 % -2.96 C
731 07-03-2009 02:09:58 3.4 C 63 % -2.96 C
732 07-03-2009 02:21:58 3.4 C 63 % -2.96 C
733 07-03-2009 02:33:58 3.3 C 63 % -3.05 C
734 07-03-2009 02:45:58 3.3 C 64 % -2.84 C
735 07-03-2009 02:57:58 3.2 C 64 % -2.94 C
736 07-03-2009 03:09:58 3.1 C 65 % -2.83 C
737 07-03-2009 03:21:58 3.2 C 64 % -2.94 C
738 07-03-2009 03:33:58 3.2 C 64 % -2.94 C
739 07-03-2009 03:45:58 3.2 C 64 % -2.94 C
740 07-03-2009 03:57:58 3.2 C 64 % -2.94 C
741 07-03-2009 04:09:59 3.2 C 64 % -2.94 C
742 07-03-2009 04:21:59 3.2 C 64 % -2.94 C
743 07-03-2009 04:33:59 3.1 C 64 % -3.03 C
744 07-03-2009 04:45:59 3.1 C 64 % -3.03 C
745 07-03-2009 04:57:59 3.2 C 63 % -3.15 C
746 07-03-2009 05:09:59 3.2 C 63 % -3.15 C
747 07-03-2009 05:21:59 3.2 C 62 % -3.36 C
748 07-03-2009 05:33:59 3.1 C 63 % -3.24 C
749 07-03-2009 05:45:59 3 C 63 % -3.34 C
750 07-03-2009 05:57:59 3 C 62 % -3.55 C
Sensor: Nr:Datum:Temp:Feuchte:Taupunkt:
Aussen-T/F 751 07-03-2009 06:09:59 3 C 61 % -3.77 C
752 07-03-2009 06:21:58 3 C 60 % -3.99 C
753 07-03-2009 06:33:57 3 C 61 % -3.77 C
754 07-03-2009 06:45:57 3 C 61 % -3.77 C
755 07-03-2009 06:57:57 3 C 61 % -3.77 C
756 07-03-2009 07:09:57 2.9 C 62 % -3.65 C
757 07-03-2009 07:21:57 2.9 C 63 % -3.43 C
758 07-03-2009 07:33:57 2.7 C 64 % -3.41 C
759 07-03-2009 07:45:57 2.6 C 65 % -3.3 C
760 07-03-2009 07:57:57 2.7 C 65 % -3.21 C
761 07-03-2009 08:09:57 2.7 C 64 % -3.41 C
762 07-03-2009 08:21:56 2.7 C 64 % -3.41 C
763 07-03-2009 08:33:56 2.6 C 63 % -3.72 C
764 07-03-2009 08:45:56 2.6 C 63 % -3.72 C
765 07-03-2009 08:57:56 2.7 C 63 % -3.62 C
766 07-03-2009 09:09:56 2.7 C 63 % -3.62 C
767 07-03-2009 09:21:56 3 C 62 % -3.55 C
768 07-03-2009 09:33:56 3.3 C 61 % -3.49 C
769 07-03-2009 09:45:56 3.2 C 60 % -3.8 C
770 07-03-2009 09:57:56 3.1 C 62 % -3.46 C
771 07-03-2009 10:09:56 3.2 C 63 % -3.15 C
772 07-03-2009 10:21:55 3.5 C 63 % -2.86 C
773 07-03-2009 10:33:55 3.9 C 61 % -2.92 C
774 07-03-2009 10:45:55 4.5 C 60 % -2.57 C
775 07-03-2009 10:57:55 5 C 57 % -2.79 C
Sensor: Nr:Datum:Temp:Feuchte:Taupunkt:
Aussen-T/F 776 07-03-2009 11:09:55 5.1 C 58 % -2.47 C
777 07-03-2009 11:21:54 5.9 C 55 % -2.43 C
778 07-03-2009 11:33:55 6.6 C 51 % -2.8 C
779 07-03-2009 11:45:54 7.2 C 48 % -3.06 C
780 07-03-2009 11:57:54 7.4 C 49 % -2.6 C
781 07-03-2009 12:09:54 7.5 C 47 % -3.06 C
782 07-03-2009 12:21:55 7.6 C 45 % -3.55 C
783 07-03-2009 12:33:54 7.8 C 44 % -3.67 C
784 07-03-2009 12:45:54 8.2 C 41 % -4.25 C
785 07-03-2009 12:57:54 7.9 C 41 % -4.52 C
786 07-03-2009 13:09:54 8.5 C 38 % -4.98 C
787 07-03-2009 13:21:54 8.4 C 38 % -5.07 C
788 07-03-2009 13:33:54 9 C 37 % -4.89 C
789 07-03-2009 13:45:53 8.5 C 36 % -5.69 C
790 07-03-2009 13:57:53 9.4 C 36 % -4.89 C
791 07-03-2009 14:09:54 10 C 32 % -5.91 C
792 07-03-2009 14:21:53 10.8 C 31 % -5.63 C
793 07-03-2009 14:33:53 11.3 C 29 % -6.06 C
794 07-03-2009 14:45:53 11.4 C 27 % -6.91 C
795 07-03-2009 14:57:53 11.3 C 28 % -6.52 C
796 07-03-2009 15:09:53 11.8 C 26 % -7.05 C
797 07-03-2009 15:21:52 11.9 C 25 % -7.47 C
798 07-03-2009 15:33:52 11 C 32 % -5.04 C
799 07-03-2009 15:45:52 10.8 C 34 % -4.41 C
800 07-03-2009 15:57:52 11 C 30 % -5.88 C
Sensor: Nr:Datum:Temp:Feuchte:Taupunkt:
Aussen-T/F 801 07-03-2009 16:09:52 10.7 C 28 % -7.04 C
802 07-03-2009 16:21:52 10.2 C 30 % -6.58 C
803 07-03-2009 16:33:52 10.4 C 30 % -6.4 C
804 07-03-2009 16:45:52 10.6 C 28 % -7.12 C
805 07-03-2009 16:57:52 10.4 C 27 % -7.77 C
806 07-03-2009 17:09:51 9.6 C 39 % -3.65 C
807 07-03-2009 17:21:52 9.2 C 42 % -3.02 C
808 07-03-2009 17:33:51 8.7 C 45 % -2.55 C
809 07-03-2009 17:45:51 8.4 C 47 % -2.24 C
810 07-03-2009 17:57:51 8 C 49 % -2.05 C
811 07-03-2009 18:09:51 7.8 C 50 % -1.96 C
812 07-03-2009 18:21:51 7.5 C 52 % -1.7 C
813 07-03-2009 18:33:51 7.2 C 53 % -1.72 C
814 07-03-2009 18:45:50 6.8 C 55 % -1.59 C
815 07-03-2009 18:57:50 6.4 C 56 % -1.72 C
816 07-03-2009 19:09:51 6.2 C 58 % -1.43 C
817 07-03-2009 19:21:50 5.8 C 60 % -1.35 C
818 07-03-2009 19:33:50 5.6 C 61 % -1.31 C
819 07-03-2009 19:45:50 5.3 C 61 % -1.6 C
820 07-03-2009 19:57:50 5.3 C 62 % -1.38 C
821 07-03-2009 20:09:50 5.2 C 62 % -1.47 C
822 07-03-2009 20:21:49 5.6 C 62 % -1.09 C
823 07-03-2009 20:33:50 6 C 59 % -1.39 C
824 07-03-2009 20:45:50 6 C 58 % -1.62 C
825 07-03-2009 20:57:50 5.9 C 59 % -1.48 C
Sensor: Nr:Datum:Temp:Feuchte:Taupunkt:
Aussen-T/F 826 07-03-2009 21:09:50 5.9 C 59 % -1.48 C
827 07-03-2009 21:21:49 5.9 C 59 % -1.48 C
828 07-03-2009 21:33:49 6 C 57 % -1.86 C
829 07-03-2009 21:45:49 6.1 C 56 % -2 C
830 07-03-2009 21:57:49 6.2 C 55 % -2.15 C
831 07-03-2009 22:09:49 6.4 C 55 % -1.97 C
832 07-03-2009 22:21:48 6.2 C 55 % -2.15 C
833 07-03-2009 22:33:49 6.4 C 55 % -1.97 C
834 07-03-2009 22:46:50 6.4 C 56 % -1.72 C
835 07-03-2009 22:58:50 6.2 C 57 % -1.67 C
836 07-03-2009 23:10:50 6.3 C 57 % -1.58 C
837 07-03-2009 23:22:50 6.3 C 58 % -1.34 C
838 07-03-2009 23:34:50 6.5 C 55 % -1.87 C
839 07-03-2009 23:46:50 6.5 C 56 % -1.63 C
840 07-03-2009 23:58:50 6.4 C 57 % -1.48 C
841 08-03-2009 00:10:50 6.3 C 57 % -1.58 C
842 08-03-2009 00:22:50 6.4 C 57 % -1.48 C
843 08-03-2009 00:34:50 6.3 C 57 % -1.58 C
844 08-03-2009 00:46:50 6.3 C 58 % -1.34 C
845 08-03-2009 00:58:51 6.1 C 59 % -1.3 C
846 08-03-2009 01:10:51 5.9 C 61 % -1.03 C
847 08-03-2009 01:22:51 6.1 C 60 % -1.07 C
848 08-03-2009 01:34:51 6.3 C 60 % -0.88 C
849 08-03-2009 01:46:51 6.3 C 60 % -0.88 C
850 08-03-2009 01:58:51 6.5 C 58 % -1.15 C
Sensor: Nr:Datum:Temp:Feuchte:Taupunkt:
Aussen-T/F 851 08-03-2009 02:10:51 6.4 C 59 % -1.01 C
852 08-03-2009 02:22:51 6.4 C 59 % -1.01 C
853 08-03-2009 02:34:51 6.4 C 59 % -1.01 C
854 08-03-2009 02:46:51 6.5 C 61 % -0.46 C
855 08-03-2009 02:58:51 6.7 C 61 % -0.28 C
856 08-03-2009 03:10:51 6.6 C 61 % -0.37 C
857 08-03-2009 03:22:51 6.6 C 62 % -0.15 C
858 08-03-2009 03:34:51 6.7 C 62 % -0.05 C
859 08-03-2009 03:46:51 6.9 C 62 % 0.14 C
860 08-03-2009 03:58:51 7 C 60 % -0.22 C
861 08-03-2009 04:10:51 7.1 C 61 % 0.1 C
862 08-03-2009 04:22:51 7.1 C 61 % 0.1 C
863 08-03-2009 04:34:51 7.1 C 61 % 0.1 C
864 08-03-2009 04:46:52 7.2 C 61 % 0.2 C
865 08-03-2009 04:58:52 7.2 C 61 % 0.2 C
866 08-03-2009 05:10:52 7.2 C 60 % -0.03 C
867 08-03-2009 05:22:52 7.3 C 60 % 0.06 C
868 08-03-2009 05:34:52 7.2 C 60 % -0.03 C
869 08-03-2009 05:46:52 7.3 C 60 % 0.06 C
870 08-03-2009 05:58:52 7.3 C 60 % 0.06 C
871 08-03-2009 06:10:52 7.2 C 61 % 0.2 C
872 08-03-2009 06:22:52 7.2 C 60 % -0.03 C
873 08-03-2009 06:34:52 7.3 C 61 % 0.29 C
874 08-03-2009 06:46:52 7.3 C 61 % 0.29 C
875 08-03-2009 06:58:52 7.3 C 62 % 0.51 C
Sensor: Nr:Datum:Temp:Feuchte:Taupunkt:
Aussen-T/F 876 08-03-2009 07:10:52 7.3 C 62 % 0.51 C
877 08-03-2009 07:22:52 7.3 C 63 % 0.74 C
878 08-03-2009 07:34:52 7.3 C 63 % 0.74 C
879 08-03-2009 07:46:49 7.3 C 64 % 0.95 C
880 08-03-2009 07:58:49 7.4 C 65 % 1.26 C
881 08-03-2009 08:10:50 7.5 C 65 % 1.36 C
882 08-03-2009 08:22:50 7.8 C 65 % 1.64 C
883 08-03-2009 08:34:49 8 C 63 % 1.4 C
884 08-03-2009 08:46:49 8.1 C 62 % 1.27 C
885 08-03-2009 08:58:49 8 C 63 % 1.4 C
886 08-03-2009 09:10:49 8 C 63 % 1.4 C
887 08-03-2009 09:22:49 8.2 C 63 % 1.59 C
888 08-03-2009 09:34:48 8.2 C 63 % 1.59 C
889 08-03-2009 09:46:49 8.2 C 63 % 1.59 C
890 08-03-2009 09:58:49 8.2 C 63 % 1.59 C
891 08-03-2009 10:10:48 8.3 C 63 % 1.68 C
892 08-03-2009 10:22:48 8.3 C 63 % 1.68 C
893 08-03-2009 10:34:48 8.3 C 64 % 1.9 C
894 08-03-2009 10:46:48 8.5 C 64 % 2.09 C
895 08-03-2009 10:58:48 8.5 C 65 % 2.31 C
896 08-03-2009 11:10:47 8.5 C 66 % 2.52 C
897 08-03-2009 11:22:48 8.5 C 66 % 2.52 C
898 08-03-2009 11:34:48 8.7 C 66 % 2.71 C
899 08-03-2009 11:46:47 8.6 C 66 % 2.62 C
900 08-03-2009 11:58:47 8.6 C 67 % 2.83 C
Sensor: Nr:Datum:Temp:Feuchte:Taupunkt:
Aussen-T/F 901 08-03-2009 12:10:48 8.8 C 67 % 3.02 C
902 08-03-2009 12:22:47 9.1 C 64 % 2.66 C
903 08-03-2009 12:34:47 9.3 C 63 % 2.63 C
904 08-03-2009 12:46:46 9.3 C 62 % 2.4 C
905 08-03-2009 12:58:46 9.1 C 65 % 2.88 C
906 08-03-2009 13:10:47 8.9 C 70 % 3.74 C
907 08-03-2009 13:22:46 8.7 C 73 % 4.14 C
908 08-03-2009 13:34:46 8.9 C 74 % 4.53 C
909 08-03-2009 13:46:47 9.6 C 69 % 4.2 C
910 08-03-2009 13:58:47 10.2 C 64 % 3.7 C
911 08-03-2009 14:10:46 10.2 C 63 % 3.48 C
912 08-03-2009 14:22:46 10.1 C 63 % 3.39 C
913 08-03-2009 14:34:46 10.4 C 62 % 3.44 C
914 08-03-2009 14:46:46 10.5 C 61 % 3.31 C
915 08-03-2009 14:58:46 10.3 C 62 % 3.35 C
916 08-03-2009 15:10:45 10.2 C 62 % 3.25 C
917 08-03-2009 15:22:46 9.9 C 66 % 3.86 C
918 08-03-2009 15:34:45 9.7 C 69 % 4.3 C
919 08-03-2009 15:46:45 10.1 C 66 % 4.05 C
920 08-03-2009 15:58:45 9.8 C 68 % 4.18 C
921 08-03-2009 16:10:45 9.3 C 73 % 4.72 C
922 08-03-2009 16:22:45 9 C 78 % 5.38 C
923 08-03-2009 16:34:45 8.7 C 82 % 5.8 C
924 08-03-2009 16:46:44 8.5 C 81 % 5.43 C
925 08-03-2009 16:58:44 8.5 C 81 % 5.43 C
Sensor: Nr:Datum:Temp:Feuchte:Taupunkt:
Aussen-T/F 926 08-03-2009 17:10:45 8.5 C 80 % 5.25 C
927 08-03-2009 17:22:44 8.4 C 81 % 5.33 C
928 08-03-2009 17:34:45 8.3 C 82 % 5.41 C
929 08-03-2009 17:46:44 8.4 C 83 % 5.69 C
930 08-03-2009 17:58:44 8.3 C 84 % 5.76 C
931 08-03-2009 18:10:44 8.2 C 84 % 5.66 C
932 08-03-2009 18:22:44 8.1 C 84 % 5.56 C
933 08-03-2009 18:34:44 8.1 C 85 % 5.73 C
934 08-03-2009 18:46:43 8.2 C 77 % 4.42 C
935 08-03-2009 18:58:43 8.1 C 75 % 3.94 C
936 08-03-2009 19:10:44 8.1 C 76 % 4.13 C
937 08-03-2009 19:22:43 7.7 C 77 % 3.93 C
938 08-03-2009 19:34:43 7.1 C 79 % 3.71 C
939 08-03-2009 19:46:43 6.9 C 82 % 4.05 C
940 08-03-2009 19:58:43 7 C 83 % 4.32 C
941 08-03-2009 20:10:43 6.9 C 84 % 4.39 C
942 08-03-2009 20:22:43 6.9 C 85 % 4.56 C
943 08-03-2009 20:34:42 6.6 C 84 % 4.1 C
944 08-03-2009 20:46:43 6.2 C 83 % 3.53 C
945 08-03-2009 20:58:43 5.8 C 84 % 3.31 C
946 08-03-2009 21:10:43 5.4 C 84 % 2.92 C
947 08-03-2009 21:22:42 5.2 C 84 % 2.72 C
948 08-03-2009 21:34:42 5.1 C 84 % 2.63 C
949 08-03-2009 21:46:42 5.1 C 84 % 2.63 C
950 08-03-2009 21:58:42 5 C 84 % 2.53 C
Sensor: Nr:Datum:Temp:Feuchte:Taupunkt:
Aussen-T/F 951 08-03-2009 22:10:42 4.8 C 84 % 2.33 C
952 08-03-2009 22:22:41 4.7 C 84 % 2.23 C
953 08-03-2009 22:34:41 4.6 C 84 % 2.14 C
954 08-03-2009 22:46:41 4.8 C 82 % 1.99 C
955 08-03-2009 22:58:41 5.3 C 71 % 0.48 C
956 08-03-2009 23:10:41 5.3 C 68 % -0.12 C
957 08-03-2009 23:23:43 4.7 C 72 % 0.09 C
958 08-03-2009 23:35:43 4.6 C 73 % 0.19 C
959 08-03-2009 23:47:43 4.5 C 73 % 0.09 C
960 08-03-2009 23:59:43 4.4 C 73 % 0 C
961 09-03-2009 00:11:43 4.4 C 74 % 0.18 C
962 09-03-2009 00:23:43 4.8 C 74 % 0.57 C
963 09-03-2009 00:35:43 5.1 C 70 % 0.09 C
964 09-03-2009 00:47:43 5 C 69 % -0.2 C
965 09-03-2009 00:59:43 5 C 69 % -0.2 C
966 09-03-2009 01:11:43 4.7 C 71 % -0.1 C
967 09-03-2009 01:23:43 4.7 C 63 % -1.73 C
968 09-03-2009 01:35:43 4.7 C 67 % -0.89 C
969 09-03-2009 01:47:43 4.7 C 67 % -0.89 C
970 09-03-2009 01:59:44 4.7 C 61 % -2.16 C
971 09-03-2009 02:11:44 4.7 C 56 % -3.31 C
972 09-03-2009 02:23:44 4.7 C 55 % -3.55 C
973 09-03-2009 02:35:44 4.3 C 56 % -3.69 C
974 09-03-2009 02:47:44 3.9 C 60 % -3.14 C
975 09-03-2009 02:59:44 3.7 C 60 % -3.33 C
Sensor: Nr:Datum:Temp:Feuchte:Taupunkt:
Aussen-T/F 976 09-03-2009 03:11:44 3.6 C 60 % -3.42 C
977 09-03-2009 03:23:44 3.5 C 61 % -3.3 C
978 09-03-2009 03:35:44 3.3 C 62 % -3.27 C
979 09-03-2009 03:47:44 3.3 C 65 % -2.64 C
980 09-03-2009 03:59:44 3.4 C 66 % -2.33 C
981 09-03-2009 04:11:44 3.4 C 67 % -2.13 C
982 09-03-2009 04:23:44 3.6 C 67 % -1.94 C
983 09-03-2009 04:35:44 3.7 C 69 % -1.45 C
984 09-03-2009 04:47:44 3.3 C 74 % -0.88 C
985 09-03-2009 04:59:44 3.2 C 77 % -0.43 C
986 09-03-2009 05:11:44 3.1 C 78 % -0.35 C
987 09-03-2009 05:23:44 3.1 C 79 % -0.18 C
988 09-03-2009 05:35:44 3 C 78 % -0.45 C
989 09-03-2009 05:47:45 3.2 C 77 % -0.43 C
990 09-03-2009 05:59:45 3.3 C 76 % -0.52 C
991 09-03-2009 06:11:45 3.1 C 78 % -0.35 C
992 09-03-2009 06:23:45 2.5 C 81 % -0.42 C
993 09-03-2009 06:35:45 2.3 C 83 % -0.28 C
994 09-03-2009 06:47:45 2.1 C 84 % -0.31 C
995 09-03-2009 06:59:42 2.2 C 85 % -0.05 C
996 09-03-2009 07:11:42 2.2 C 84 % -0.22 C
997 09-03-2009 07:23:42 2.1 C 79 % -1.15 C
998 09-03-2009 07:35:41 2.1 C 75 % -1.86 C
999 09-03-2009 07:47:42 2 C 71 % -2.69 C
1000 09-03-2009 07:59:41 2.1 C 70 % -2.79 C
Sensor: Nr:Datum:Temp:Feuchte:Taupunkt:
Aussen-T/F 1001 09-03-2009 08:11:41 2.2 C 69 % -2.88 C
1002 09-03-2009 08:23:41 2.6 C 66 % -3.1 C
1003 09-03-2009 08:35:42 2.5 C 68 % -2.79 C
1004 09-03-2009 08:47:41 3 C 66 % -2.72 C
1005 09-03-2009 08:59:41 3.4 C 65 % -2.54 C
1006 09-03-2009 09:11:41 3.5 C 65 % -2.44 C
1007 09-03-2009 09:23:40 3.3 C 66 % -2.43 C
1008 09-03-2009 09:35:41 3.7 C 66 % -2.05 C
1009 09-03-2009 09:47:40 4.2 C 62 % -2.42 C
1010 09-03-2009 09:59:40 4.5 C 61 % -2.35 C
1011 09-03-2009 10:11:41 4.7 C 62 % -1.94 C
1012 09-03-2009 10:23:40 5.1 C 58 % -2.47 C
1013 09-03-2009 10:35:40 5.3 C 58 % -2.28 C
1014 09-03-2009 10:47:39 5.6 C 57 % -2.23 C
1015 09-03-2009 10:59:40 5.6 C 56 % -2.47 C
1016 09-03-2009 11:11:40 6 C 54 % -2.59 C
1017 09-03-2009 11:23:40 5.8 C 55 % -2.53 C
1018 09-03-2009 11:35:39 6.4 C 53 % -2.47 C
1019 09-03-2009 11:47:40 6.1 C 52 % -3 C
1020 09-03-2009 11:59:39 6.5 C 53 % -2.37 C
1021 09-03-2009 12:11:39 7.2 C 50 % -2.51 C
1022 09-03-2009 12:23:39 7 C 46 % -3.81 C
1023 09-03-2009 12:35:38 7 C 47 % -3.52 C
1024 09-03-2009 12:47:39 7.2 C 47 % -3.34 C
1025 09-03-2009 12:59:39 7.7 C 43 % -4.07 C
Sensor: Nr:Datum:Temp:Feuchte:Taupunkt:
Aussen-T/F 1026 09-03-2009 13:11:39 7.7 C 43 % -4.07 C
1027 09-03-2009 13:23:38 7.4 C 43 % -4.34 C
1028 09-03-2009 13:35:39 7.5 C 44 % -3.94 C
1029 09-03-2009 13:47:38 7.7 C 40 % -5.02 C
1030 09-03-2009 13:59:38 8 C 39 % -5.09 C
1031 09-03-2009 14:11:38 7.7 C 40 % -5.02 C
1032 09-03-2009 14:23:38 8.2 C 40 % -4.57 C
1033 09-03-2009 14:35:38 8.4 C 41 % -4.07 C
1034 09-03-2009 14:47:37 8.3 C 41 % -4.16 C
1035 09-03-2009 14:59:38 7.2 C 47 % -3.34 C
1036 09-03-2009 15:11:38 6.3 C 54 % -2.31 C
1037 09-03-2009 15:23:37 6.9 C 54 % -1.75 C
1038 09-03-2009 15:35:37 8.1 C 46 % -2.8 C
1039 09-03-2009 15:47:38 8.7 C 42 % -3.48 C
1040 09-03-2009 15:59:37 8.6 C 41 % -3.89 C
1041 09-03-2009 16:11:37 9.5 C 39 % -3.74 C
1042 09-03-2009 16:23:37 8.7 C 41 % -3.8 C
1043 09-03-2009 16:35:36 8.7 C 43 % -3.16 C
1044 09-03-2009 16:47:37 8.8 C 43 % -3.07 C
1045 09-03-2009 16:59:36 9.1 C 38 % -4.45 C
1046 09-03-2009 17:11:36 8.3 C 40 % -4.48 C
1047 09-03-2009 17:23:36 8 C 42 % -4.11 C
1048 09-03-2009 17:35:37 7.9 C 44 % -3.58 C
1049 09-03-2009 17:47:36 7.5 C 46 % -3.35 C
1050 09-03-2009 17:59:36 7.4 C 46 % -3.44 C
Sensor: Nr:Datum:Temp:Feuchte:Taupunkt:
Aussen-T/F 1051 09-03-2009 18:11:36 7.4 C 47 % -3.16 C
1052 09-03-2009 18:23:36 7.3 C 47 % -3.25 C
1053 09-03-2009 18:35:36 7 C 50 % -2.69 C
1054 09-03-2009 18:47:35 6.7 C 54 % -1.94 C
1055 09-03-2009 18:59:35 6.4 C 56 % -1.72 C
1056 09-03-2009 19:11:35 6.4 C 55 % -1.97 C
1057 09-03-2009 19:23:35 6.2 C 52 % -2.91 C
1058 09-03-2009 19:35:35 6 C 53 % -2.84 C
1059 09-03-2009 19:47:34 5.8 C 56 % -2.28 C
1060 09-03-2009 19:59:35 5.8 C 57 % -2.04 C
1061 09-03-2009 20:11:35 5.8 C 59 % -1.58 C
1062 09-03-2009 20:23:35 5.5 C 61 % -1.41 C
1063 09-03-2009 20:35:34 5.2 C 63 % -1.25 C
1064 09-03-2009 20:47:35 4.9 C 66 % -0.91 C
1065 09-03-2009 20:59:34 4.8 C 68 % -0.59 C
1066 09-03-2009 21:11:34 4.6 C 69 % -0.58 C
1067 09-03-2009 21:23:34 4.4 C 71 % -0.39 C
1068 09-03-2009 21:35:34 4 C 75 % -0.02 C
1069 09-03-2009 21:48:35 3.8 C 78 % 0.33 C
1070 09-03-2009 22:00:35 3.8 C 78 % 0.33 C
1071 09-03-2009 22:12:35 4.1 C 76 % 0.26 C
1072 09-03-2009 22:24:35 3.7 C 77 % 0.05 C
1073 09-03-2009 22:36:35 4 C 72 % -0.58 C
1074 09-03-2009 22:48:35 3.9 C 73 % -0.49 C
1075 09-03-2009 23:00:35 3.7 C 74 % -0.49 C
Sensor: Nr:Datum:Temp:Feuchte:Taupunkt:
Aussen-T/F 1076 09-03-2009 23:12:35 3.5 C 75 % -0.5 C
1077 09-03-2009 23:24:35 3.3 C 77 % -0.34 C
1078 09-03-2009 23:36:35 3.2 C 78 % -0.26 C
1079 09-03-2009 23:48:35 3.4 C 79 % 0.11 C
1080 10-03-2009 00:00:35 3.4 C 79 % 0.11 C
1081 10-03-2009 00:12:35 3.3 C 79 % 0.02 C
1082 10-03-2009 00:24:35 3.4 C 80 % 0.29 C
1083 10-03-2009 00:36:35 3.7 C 79 % 0.4 C
1084 10-03-2009 00:48:35 3.9 C 77 % 0.25 C
1085 10-03-2009 01:00:35 4.1 C 75 % 0.08 C
1086 10-03-2009 01:12:35 4.2 C 74 % -0.01 C
1087 10-03-2009 01:24:36 4.3 C 72 % -0.29 C
1088 10-03-2009 01:36:36 4.3 C 72 % -0.29 C
1089 10-03-2009 01:48:36 4.4 C 71 % -0.39 C
1090 10-03-2009 02:00:36 4.5 C 70 % -0.48 C
1091 10-03-2009 02:12:36 4.4 C 71 % -0.39 C
1092 10-03-2009 02:24:36 4.6 C 69 % -0.58 C
1093 10-03-2009 02:36:36 4.7 C 67 % -0.89 C
1094 10-03-2009 02:48:36 4.7 C 66 % -1.1 C
1095 10-03-2009 03:00:36 4.7 C 66 % -1.1 C
1096 10-03-2009 03:12:36 4.5 C 67 % -1.08 C
1097 10-03-2009 03:24:36 4.5 C 67 % -1.08 C
1098 10-03-2009 03:36:36 4.5 C 67 % -1.08 C
1099 10-03-2009 03:48:36 4.5 C 68 % -0.88 C
1100 10-03-2009 04:00:36 4.6 C 67 % -0.99 C
Sensor: Nr:Datum:Temp:Feuchte:Taupunkt:
Aussen-T/F 1101 10-03-2009 04:12:36 4.5 C 67 % -1.08 C
1102 10-03-2009 04:24:36 4.6 C 67 % -0.99 C
1103 10-03-2009 04:36:36 4.5 C 67 % -1.08 C
1104 10-03-2009 04:48:36 4.4 C 68 % -0.98 C
1105 10-03-2009 05:00:36 4.4 C 67 % -1.18 C
1106 10-03-2009 05:12:37 4.4 C 68 % -0.98 C
1107 10-03-2009 05:24:37 4.4 C 68 % -0.98 C
1108 10-03-2009 05:36:37 4.3 C 69 % -0.87 C
1109 10-03-2009 05:48:37 4.3 C 70 % -0.68 C
1110 10-03-2009 06:00:37 4.3 C 71 % -0.48 C
1111 10-03-2009 06:12:37 4.1 C 72 % -0.48 C
1112 10-03-2009 06:24:37 4.2 C 72 % -0.39 C
1113 10-03-2009 06:36:37 4.2 C 72 % -0.39 C
1114 10-03-2009 06:48:37 4.3 C 72 % -0.29 C
1115 10-03-2009 07:00:35 4.3 C 71 % -0.48 C
1116 10-03-2009 07:12:35 4.3 C 71 % -0.48 C
1117 10-03-2009 07:24:34 4.2 C 72 % -0.39 C
1118 10-03-2009 07:36:35 4.2 C 72 % -0.39 C
1119 10-03-2009 07:48:34 4.3 C 73 % -0.1 C
1120 10-03-2009 08:00:34 4.5 C 72 % -0.1 C
1121 10-03-2009 08:12:34 4.7 C 71 % -0.1 C
1122 10-03-2009 08:24:35 4.8 C 71 % 0 C
1123 10-03-2009 08:36:34 4.9 C 70 % -0.1 C
1124 10-03-2009 08:48:34 5 C 69 % -0.2 C
1125 10-03-2009 09:00:33 5 C 69 % -0.2 C
Sensor: Nr:Datum:Temp:Feuchte:Taupunkt:
Aussen-T/F 1126 10-03-2009 09:12:33 5.2 C 69 % -0.01 C
1127 10-03-2009 09:24:34 5.2 C 68 % -0.21 C
1128 10-03-2009 09:36:34 5.3 C 67 % -0.32 C
1129 10-03-2009 09:48:33 5.3 C 67 % -0.32 C
1130 10-03-2009 10:00:34 5.4 C 66 % -0.43 C
1131 10-03-2009 10:12:34 5.5 C 66 % -0.33 C
1132 10-03-2009 10:24:33 5.6 C 66 % -0.24 C
1133 10-03-2009 10:36:33 5.7 C 65 % -0.35 C
1134 10-03-2009 10:48:33 5.9 C 65 % -0.16 C
1135 10-03-2009 11:00:33 6.1 C 63 % -0.4 C
1136 10-03-2009 11:12:33 6.3 C 62 % -0.43 C
1137 10-03-2009 11:24:32 6.4 C 62 % -0.34 C
1138 10-03-2009 11:36:33 6.3 C 63 % -0.21 C
1139 10-03-2009 11:48:32 6.3 C 63 % -0.21 C
1140 10-03-2009 12:00:32 6.4 C 63 % -0.12 C
1141 10-03-2009 12:12:32 6.5 C 62 % -0.24 C
1142 10-03-2009 12:24:32 6.6 C 61 % -0.37 C
1143 10-03-2009 12:36:32 6.5 C 61 % -0.46 C
1144 10-03-2009 12:48:32 6.5 C 61 % -0.46 C
1145 10-03-2009 13:00:31 6.6 C 61 % -0.37 C
1146 10-03-2009 13:12:31 6.7 C 61 % -0.28 C
1147 10-03-2009 13:24:32 6.8 C 61 % -0.18 C
1148 10-03-2009 13:36:31 6.8 C 61 % -0.18 C
1149 10-03-2009 13:48:31 7 C 60 % -0.22 C
1150 10-03-2009 14:00:31 7.1 C 59 % -0.36 C
Sensor: Nr:Datum:Temp:Feuchte:Taupunkt:
Aussen-T/F 1151 10-03-2009 14:12:31 7.1 C 58 % -0.59 C
1152 10-03-2009 14:24:31 7.1 C 59 % -0.36 C
1153 10-03-2009 14:36:31 6.9 C 61 % -0.09 C
1154 10-03-2009 14:48:31 6.8 C 62 % 0.04 C
1155 10-03-2009 15:00:31 6.8 C 61 % -0.18 C
1156 10-03-2009 15:12:31 6.8 C 61 % -0.18 C
1157 10-03-2009 15:24:30 6.6 C 61 % -0.37 C
1158 10-03-2009 15:36:30 6.4 C 62 % -0.34 C
1159 10-03-2009 15:48:30 6.4 C 61 % -0.56 C
1160 10-03-2009 16:00:30 6.4 C 58 % -1.25 C
1161 10-03-2009 16:12:30 6.4 C 60 % -0.78 C
1162 10-03-2009 16:24:29 5.9 C 62 % -0.81 C
1163 10-03-2009 16:36:30 5.7 C 66 % -0.14 C
1164 10-03-2009 16:48:30 5.4 C 68 % -0.02 C
1165 10-03-2009 17:00:29 5.6 C 69 % 0.37 C
1166 10-03-2009 17:12:29 5.6 C 68 % 0.17 C
1167 10-03-2009 17:24:30 5.8 C 68 % 0.36 C
1168 10-03-2009 17:36:29 5.7 C 69 % 0.47 C
1169 10-03-2009 17:48:29 5.7 C 69 % 0.47 C
1170 10-03-2009 18:00:28 5.8 C 70 % 0.76 C
1171 10-03-2009 18:12:28 5.7 C 71 % 0.86 C
1172 10-03-2009 18:24:29 5.8 C 71 % 0.96 C
1173 10-03-2009 18:36:29 5.8 C 71 % 0.96 C
1174 10-03-2009 18:48:28 5.9 C 72 % 1.25 C
1175 10-03-2009 19:00:29 6 C 71 % 1.15 C
Sensor: Nr:Datum:Temp:Feuchte:Taupunkt:
Aussen-T/F 1176 10-03-2009 19:12:29 6 C 72 % 1.35 C
1177 10-03-2009 19:24:28 6 C 73 % 1.54 C
1178 10-03-2009 19:36:28 6 C 74 % 1.73 C
1179 10-03-2009 19:48:28 5.8 C 80 % 2.62 C
1180 10-03-2009 20:00:28 5.8 C 82 % 2.97 C
1181 10-03-2009 20:12:28 5.8 C 83 % 3.14 C
1182 10-03-2009 20:24:27 5.9 C 83 % 3.24 C
1183 10-03-2009 20:36:27 6.5 C 79 % 3.13 C
1184 10-03-2009 20:48:27 6.9 C 73 % 2.4 C
1185 10-03-2009 21:00:27 7.2 C 68 % 1.7 C
1186 10-03-2009 21:12:27 7.3 C 66 % 1.38 C
1187 10-03-2009 21:24:27 7.3 C 66 % 1.38 C
1188 10-03-2009 21:36:27 6.8 C 72 % 2.12 C
1189 10-03-2009 21:49:28 6.2 C 74 % 1.92 C
1190 10-03-2009 22:01:28 5.7 C 75 % 1.62 C
1191 10-03-2009 22:13:28 5.6 C 75 % 1.53 C
1192 10-03-2009 22:25:28 5.4 C 77 % 1.7 C
1193 10-03-2009 22:37:28 5.3 C 77 % 1.6 C
1194 10-03-2009 22:49:28 5.2 C 80 % 2.04 C
1195 10-03-2009 23:01:28 5.1 C 80 % 1.94 C
1196 10-03-2009 23:13:28 5.1 C 80 % 1.94 C
1197 10-03-2009 23:25:28 5.2 C 78 % 1.69 C
1198 10-03-2009 23:37:28 5.4 C 72 % 0.77 C
1199 10-03-2009 23:49:28 5.4 C 69 % 0.18 C
1200 11-03-2009 00:01:28 5.5 C 66 % -0.33 C
Sensor: Nr:Datum:Temp:Feuchte:Taupunkt:
Aussen-T/F 1201 11-03-2009 00:13:28 5.5 C 68 % 0.08 C
1202 11-03-2009 00:25:28 5.3 C 69 % 0.09 C
1203 11-03-2009 00:37:28 5.1 C 69 % -0.11 C
1204 11-03-2009 00:49:28 5 C 69 % -0.2 C
1205 11-03-2009 01:01:28 4.8 C 70 % -0.2 C
1206 11-03-2009 01:13:29 4.8 C 70 % -0.2 C
1207 11-03-2009 01:25:29 4.9 C 69 % -0.3 C
1208 11-03-2009 01:37:29 4.9 C 69 % -0.3 C
1209 11-03-2009 01:49:29 4.8 C 69 % -0.39 C
1210 11-03-2009 02:01:29 4.9 C 68 % -0.5 C
1211 11-03-2009 02:13:29 5 C 66 % -0.81 C
1212 11-03-2009 02:25:29 4.9 C 67 % -0.7 C
1213 11-03-2009 02:37:29 4.9 C 68 % -0.5 C
1214 11-03-2009 02:49:29 4.8 C 68 % -0.59 C
1215 11-03-2009 03:01:29 4.6 C 68 % -0.78 C
1216 11-03-2009 03:13:29 4.5 C 69 % -0.68 C
1217 11-03-2009 03:25:29 4.5 C 69 % -0.68 C
1218 11-03-2009 03:37:29 4.6 C 69 % -0.58 C
1219 11-03-2009 03:49:29 4.7 C 67 % -0.89 C
1220 11-03-2009 04:01:29 4.7 C 67 % -0.89 C
1221 11-03-2009 04:13:29 4.7 C 66 % -1.1 C
1222 11-03-2009 04:25:29 4.7 C 65 % -1.3 C
1223 11-03-2009 04:37:29 4.7 C 65 % -1.3 C
1224 11-03-2009 04:49:29 4.7 C 65 % -1.3 C
1225 11-03-2009 05:01:30 4.7 C 64 % -1.51 C
Sensor: Nr:Datum:Temp:Feuchte:Taupunkt:
Aussen-T/F 1226 11-03-2009 05:13:30 4.6 C 64 % -1.61 C
1227 11-03-2009 05:25:30 4.6 C 64 % -1.61 C
1228 11-03-2009 05:37:30 4.6 C 63 % -1.82 C
1229 11-03-2009 05:49:30 4.6 C 63 % -1.82 C
1230 11-03-2009 06:01:30 4.6 C 62 % -2.04 C
1231 11-03-2009 06:13:30 4.1 C 66 % -1.67 C
1232 11-03-2009 06:25:30 3.9 C 72 % -0.68 C
1233 11-03-2009 06:37:30 3.6 C 76 % -0.22 C
1234 11-03-2009 06:49:30 3.6 C 78 % 0.13 C
1235 11-03-2009 07:01:27 3.7 C 78 % 0.23 C
1236 11-03-2009 07:13:28 3.9 C 77 % 0.25 C
1237 11-03-2009 07:25:28 3.9 C 77 % 0.25 C
1238 11-03-2009 07:37:27 3.8 C 78 % 0.33 C
1239 11-03-2009 07:49:27 4 C 76 % 0.16 C
1240 11-03-2009 08:01:27 4.3 C 73 % -0.1 C
1241 11-03-2009 08:13:27 4.5 C 70 % -0.48 C
1242 11-03-2009 08:25:27 4.5 C 70 % -0.48 C
1243 11-03-2009 08:37:26 4.7 C 69 % -0.49 C
1244 11-03-2009 08:49:27 4.9 C 68 % -0.5 C
1245 11-03-2009 09:01:26 4.8 C 70 % -0.2 C
1246 11-03-2009 09:13:26 4.6 C 73 % 0.19 C
1247 11-03-2009 09:25:26 4.6 C 73 % 0.19 C
1248 11-03-2009 09:37:26 4.8 C 73 % 0.38 C
1249 11-03-2009 09:49:26 4.9 C 73 % 0.48 C
1250 11-03-2009 10:01:25 4.9 C 71 % 0.09 C
Sensor: Nr:Datum:Temp:Feuchte:Taupunkt:
Aussen-T/F 1251 11-03-2009 10:13:26 5 C 69 % -0.2 C
1252 11-03-2009 10:25:26 4.8 C 70 % -0.2 C
1253 11-03-2009 10:37:25 4.8 C 70 % -0.2 C
1254 11-03-2009 10:49:25 4.8 C 69 % -0.39 C
1255 11-03-2009 11:01:26 5.2 C 66 % -0.62 C
1256 11-03-2009 11:13:25 5.2 C 66 % -0.62 C
1257 11-03-2009 11:25:25 5.2 C 65 % -0.83 C
1258 11-03-2009 11:37:25 5.4 C 64 % -0.85 C
1259 11-03-2009 11:49:25 5.9 C 63 % -0.59 C
1260 11-03-2009 12:01:25 6.7 C 57 % -1.2 C
1261 11-03-2009 12:13:24 7.1 C 54 % -1.56 C
1262 11-03-2009 12:25:24 7.4 C 54 % -1.28 C
1263 11-03-2009 12:37:24 7.3 C 50 % -2.42 C
1264 11-03-2009 12:49:24 7.4 C 51 % -2.06 C
1265 11-03-2009 13:01:24 7.1 C 52 % -2.07 C
1266 11-03-2009 13:13:24 6.2 C 63 % -0.31 C
1267 11-03-2009 13:25:24 6.5 C 65 % 0.41 C
1268 11-03-2009 13:37:24 7.3 C 61 % 0.29 C
1269 11-03-2009 13:49:24 7.9 C 51 % -1.6 C
1270 11-03-2009 14:01:23 8 C 45 % -3.19 C
1271 11-03-2009 14:13:24 8.1 C 47 % -2.52 C
1272 11-03-2009 14:25:24 7.6 C 47 % -2.97 C
1273 11-03-2009 14:37:23 8.5 C 41 % -3.98 C
1274 11-03-2009 14:49:23 8.5 C 40 % -4.31 C
1275 11-03-2009 15:01:23 8.6 C 41 % -3.89 C
Sensor: Nr:Datum:Temp:Feuchte:Taupunkt:
Aussen-T/F 1276 11-03-2009 15:13:23 9.3 C 39 % -3.92 C
1277 11-03-2009 15:25:23 9.4 C 40 % -3.5 C
1278 11-03-2009 15:37:23 9.7 C 40 % -3.23 C
1279 11-03-2009 15:49:22 9.1 C 41 % -3.44 C
1280 11-03-2009 16:01:23 8.5 C 42 % -3.66 C
1281 11-03-2009 16:13:22 8.4 C 44 % -3.13 C
1282 11-03-2009 16:25:22 8.5 C 45 % -2.73 C
1283 11-03-2009 16:37:22 8.6 C 46 % -2.35 C
1284 11-03-2009 16:49:22 8.3 C 46 % -2.62 C
1285 11-03-2009 17:01:22 9.1 C 46 % -1.89 C
1286 11-03-2009 17:13:21 8.5 C 43 % -3.34 C
1287 11-03-2009 17:25:21 8.4 C 45 % -2.83 C
1288 11-03-2009 17:37:22 8.3 C 44 % -3.22 C
1289 11-03-2009 17:49:21 8.3 C 44 % -3.22 C
1290 11-03-2009 18:01:21 8.1 C 44 % -3.4 C
1291 11-03-2009 18:13:22 7.6 C 47 % -2.97 C
1292 11-03-2009 18:25:22 7.1 C 50 % -2.6 C
1293 11-03-2009 18:37:21 6.8 C 54 % -1.84 C
1294 11-03-2009 18:49:21 6.5 C 55 % -1.87 C
1295 11-03-2009 19:01:20 6.4 C 56 % -1.72 C
1296 11-03-2009 19:13:21 6.3 C 57 % -1.58 C
1297 11-03-2009 19:25:21 6.1 C 55 % -2.25 C
1298 11-03-2009 19:37:20 5.8 C 56 % -2.28 C
1299 11-03-2009 19:49:20 5.6 C 57 % -2.23 C
1300 11-03-2009 20:01:20 5.7 C 57 % -2.14 C
Sensor: Nr:Datum:Temp:Feuchte:Taupunkt:
Aussen-T/F 1301 11-03-2009 20:13:20 5.8 C 56 % -2.28 C
1302 11-03-2009 20:25:20 5.5 C 57 % -2.33 C
1303 11-03-2009 20:37:20 5.3 C 58 % -2.28 C
1304 11-03-2009 20:49:20 5.1 C 59 % -2.24 C
1305 11-03-2009 21:01:20 4.8 C 61 % -2.07 C
1306 11-03-2009 21:13:20 4.6 C 62 % -2.04 C
1307 11-03-2009 21:25:20 4.3 C 64 % -1.89 C
1308 11-03-2009 21:37:19 4.2 C 65 % -1.78 C
1309 11-03-2009 21:49:20 4 C 65 % -1.97 C
1310 11-03-2009 22:02:20 4.1 C 65 % -1.87 C
1311 11-03-2009 22:14:20 3.7 C 67 % -1.85 C
1312 11-03-2009 22:26:20 3.5 C 68 % -1.84 C
1313 11-03-2009 22:38:20 3.4 C 68 % -1.93 C
1314 11-03-2009 22:50:21 3.1 C 69 % -2.02 C
1315 11-03-2009 23:02:21 3.3 C 69 % -1.83 C
1316 11-03-2009 23:14:21 3 C 70 % -1.92 C
1317 11-03-2009 23:26:21 2.8 C 72 % -1.73 C
1318 11-03-2009 23:38:21 2.8 C 73 % -1.55 C
1319 11-03-2009 23:50:21 3.1 C 71 % -1.63 C
1320 12-03-2009 00:02:21 3.4 C 70 % -1.54 C
1321 12-03-2009 00:14:21 3.5 C 69 % -1.64 C
1322 12-03-2009 00:26:21 3.5 C 68 % -1.84 C
1323 12-03-2009 00:38:21 3.5 C 68 % -1.84 C
1324 12-03-2009 00:50:21 3.5 C 68 % -1.84 C
1325 12-03-2009 01:02:21 3.5 C 68 % -1.84 C
Sensor: Nr:Datum:Temp:Feuchte:Taupunkt:
Aussen-T/F 1326 12-03-2009 01:14:21 3.4 C 68 % -1.93 C
1327 12-03-2009 01:26:21 3.4 C 68 % -1.93 C
1328 12-03-2009 01:38:21 3.4 C 69 % -1.73 C
1329 12-03-2009 01:50:21 3.4 C 68 % -1.93 C
1330 12-03-2009 02:02:21 3.5 C 68 % -1.84 C
1331 12-03-2009 02:14:21 3.4 C 68 % -1.93 C
1332 12-03-2009 02:26:21 3.5 C 68 % -1.84 C
1333 12-03-2009 02:38:22 3.6 C 67 % -1.94 C
1334 12-03-2009 02:50:22 3.6 C 67 % -1.94 C
1335 12-03-2009 03:02:22 3.8 C 65 % -2.16 C
1336 12-03-2009 03:14:22 3.8 C 64 % -2.37 C
1337 12-03-2009 03:26:22 3.8 C 64 % -2.37 C
1338 12-03-2009 03:38:22 3.9 C 64 % -2.27 C
1339 12-03-2009 03:50:22 4.1 C 61 % -2.73 C
1340 12-03-2009 04:02:22 4 C 62 % -2.61 C
1341 12-03-2009 04:14:22 4 C 62 % -2.61 C
1342 12-03-2009 04:26:22 4.1 C 62 % -2.51 C
1343 12-03-2009 04:38:22 4.2 C 61 % -2.64 C
1344 12-03-2009 04:50:22 4.2 C 61 % -2.64 C
1345 12-03-2009 05:02:22 4.4 C 60 % -2.67 C
1346 12-03-2009 05:14:22 4.3 C 60 % -2.76 C
1347 12-03-2009 05:26:22 4.5 C 58 % -3.03 C
1348 12-03-2009 05:38:22 4.6 C 59 % -2.71 C
1349 12-03-2009 05:50:22 4.4 C 60 % -2.67 C
1350 12-03-2009 06:02:22 4.4 C 61 % -2.45 C
Sensor: Nr:Datum:Temp:Feuchte:Taupunkt:
Aussen-T/F 1351 12-03-2009 06:14:22 4.5 C 61 % -2.35 C
1352 12-03-2009 06:26:23 4.7 C 60 % -2.39 C
1353 12-03-2009 06:38:23 4.8 C 59 % -2.52 C
1354 12-03-2009 06:50:23 4.8 C 59 % -2.52 C
1355 12-03-2009 07:02:20 4.7 C 59 % -2.61 C
1356 12-03-2009 07:14:20 4.7 C 60 % -2.39 C
1357 12-03-2009 07:26:20 4.7 C 60 % -2.39 C
1358 12-03-2009 07:38:20 4.8 C 60 % -2.29 C
1359 12-03-2009 07:50:19 4.9 C 59 % -2.42 C
1360 12-03-2009 08:02:19 5 C 59 % -2.33 C
1361 12-03-2009 08:14:20 5.1 C 58 % -2.47 C
1362 12-03-2009 08:26:20 5.1 C 58 % -2.47 C
1363 12-03-2009 08:38:19 5.2 C 58 % -2.37 C
1364 12-03-2009 08:50:19 5.1 C 62 % -1.57 C
1365 12-03-2009 09:02:19 5 C 65 % -1.02 C
1366 12-03-2009 09:14:19 4.9 C 69 % -0.3 C
1367 12-03-2009 09:26:19 4.8 C 71 % 0 C
1368 12-03-2009 09:38:18 4.7 C 73 % 0.28 C
1369 12-03-2009 09:50:19 4.8 C 72 % 0.19 C
1370 12-03-2009 10:02:18 4.6 C 73 % 0.19 C
1371 12-03-2009 10:14:18 4.6 C 74 % 0.38 C
1372 12-03-2009 10:26:18 4.5 C 75 % 0.46 C
1373 12-03-2009 10:38:18 4.7 C 74 % 0.47 C
1374 12-03-2009 10:50:18 5.1 C 70 % 0.09 C
1375 12-03-2009 11:02:18 5.4 C 68 % -0.02 C
Sensor: Nr:Datum:Temp:Feuchte:Taupunkt:
Aussen-T/F 1376 12-03-2009 11:14:17 5.5 C 66 % -0.33 C
1377 12-03-2009 11:26:17 5.5 C 66 % -0.33 C
1378 12-03-2009 11:38:18 5.5 C 68 % 0.08 C
1379 12-03-2009 11:50:17 5.7 C 66 % -0.14 C
1380 12-03-2009 12:02:17 6.1 C 64 % -0.19 C
1381 12-03-2009 12:14:18 6.5 C 63 % -0.02 C
1382 12-03-2009 12:26:18 6.5 C 63 % -0.02 C
1383 12-03-2009 12:38:17 6.5 C 64 % 0.19 C
1384 12-03-2009 12:50:17 6.6 C 64 % 0.29 C
1385 12-03-2009 13:02:16 6.7 C 64 % 0.38 C
1386 12-03-2009 13:14:17 6.8 C 64 % 0.48 C
1387 12-03-2009 13:26:17 6.8 C 64 % 0.48 C
1388 12-03-2009 13:38:16 6.8 C 64 % 0.48 C
1389 12-03-2009 13:50:17 6.9 C 64 % 0.57 C
1390 12-03-2009 14:02:16 6.9 C 65 % 0.79 C
1391 12-03-2009 14:14:16 6.8 C 66 % 0.9 C
1392 12-03-2009 14:26:16 6.9 C 67 % 1.21 C
1393 12-03-2009 14:38:16 6.9 C 67 % 1.21 C
1394 12-03-2009 14:50:16 7 C 69 % 1.71 C
1395 12-03-2009 15:02:16 6.8 C 72 % 2.12 C
1396 12-03-2009 15:14:15 6.5 C 74 % 2.21 C
1397 12-03-2009 15:26:15 6.4 C 77 % 2.67 C
1398 12-03-2009 15:38:16 6.8 C 79 % 3.42 C
1399 12-03-2009 15:50:15 6.9 C 78 % 3.34 C
1400 12-03-2009 16:02:15 7 C 75 % 2.88 C
Sensor: Nr:Datum:Temp:Feuchte:Taupunkt:
Aussen-T/F 1401 12-03-2009 16:14:14 7.1 C 75 % 2.98 C
1402 12-03-2009 16:26:14 7.1 C 75 % 2.98 C
1403 12-03-2009 16:38:15 7.2 C 75 % 3.07 C
1404 12-03-2009 16:50:14 7.1 C 75 % 2.98 C
1405 12-03-2009 17:02:14 7.1 C 75 % 2.98 C
1406 12-03-2009 17:14:15 6.9 C 78 % 3.34 C
1407 12-03-2009 17:26:15 6.9 C 80 % 3.7 C
1408 12-03-2009 17:38:14 6.9 C 80 % 3.7 C
1409 12-03-2009 17:50:14 6.9 C 80 % 3.7 C
1410 12-03-2009 18:02:14 6.8 C 81 % 3.77 C
1411 12-03-2009 18:14:14 6.7 C 83 % 4.02 C
1412 12-03-2009 18:26:14 6.7 C 84 % 4.19 C
1413 12-03-2009 18:38:14 6.7 C 86 % 4.53 C
1414 12-03-2009 18:50:13 6.7 C 87 % 4.69 C
1415 12-03-2009 19:02:13 6.7 C 88 % 4.86 C
1416 12-03-2009 19:14:13 6.7 C 89 % 5.02 C
1417 12-03-2009 19:26:13 6.9 C 90 % 5.38 C
1418 12-03-2009 19:38:13 6.9 C 91 % 5.54 C
1419 12-03-2009 19:50:13 7.1 C 90 % 5.57 C
1420 12-03-2009 20:02:13 7.2 C 91 % 5.83 C
1421 12-03-2009 20:14:13 7.1 C 91 % 5.73 C
1422 12-03-2009 20:26:13 7.2 C 91 % 5.83 C
1423 12-03-2009 20:38:12 7.1 C 91 % 5.73 C
1424 12-03-2009 20:50:13 7.2 C 91 % 5.83 C
1425 12-03-2009 21:02:13 7.1 C 91 % 5.73 C
Sensor: Nr:Datum:Temp:Feuchte:Taupunkt:
Aussen-T/F 1426 12-03-2009 21:14:12 7.1 C 91 % 5.73 C
1427 12-03-2009 21:26:12 7.1 C 91 % 5.73 C
1428 12-03-2009 21:38:12 7.2 C 91 % 5.83 C
1429 12-03-2009 21:50:12 7.2 C 91 % 5.83 C
1430 12-03-2009 22:03:12 7.2 C 90 % 5.67 C
1431 12-03-2009 22:15:12 7.2 C 90 % 5.67 C
1432 12-03-2009 22:27:12 7.3 C 90 % 5.77 C
1433 12-03-2009 22:39:12 7.4 C 89 % 5.71 C
1434 12-03-2009 22:51:12 7.4 C 88 % 5.55 C
1435 12-03-2009 23:03:12 7.5 C 88 % 5.64 C
1436 12-03-2009 23:15:12 7.6 C 87 % 5.58 C
1437 12-03-2009 23:27:12 7.7 C 86 % 5.51 C
1438 12-03-2009 23:39:12 7.7 C 86 % 5.51 C
1439 12-03-2009 23:51:12 7.8 C 86 % 5.61 C
1440 13-03-2009 00:03:12 7.8 C 85 % 5.44 C
1441 13-03-2009 00:15:12 7.8 C 86 % 5.61 C
1442 13-03-2009 00:27:12 7.8 C 86 % 5.61 C
1443 13-03-2009 00:39:12 7.8 C 86 % 5.61 C
1444 13-03-2009 00:51:12 7.7 C 87 % 5.68 C
1445 13-03-2009 01:03:12 7.7 C 87 % 5.68 C
1446 13-03-2009 01:15:12 7.7 C 88 % 5.84 C
1447 13-03-2009 01:27:12 7.6 C 88 % 5.74 C
1448 13-03-2009 01:39:12 7.6 C 88 % 5.74 C
1449 13-03-2009 01:51:12 7.5 C 89 % 5.81 C
1450 13-03-2009 02:03:13 7.5 C 89 % 5.81 C
Sensor: Nr:Datum:Temp:Feuchte:Taupunkt:
Aussen-T/F 1451 13-03-2009 02:15:13 7.5 C 90 % 5.97 C
1452 13-03-2009 02:27:13 7.5 C 90 % 5.97 C
1453 13-03-2009 02:39:13 7.4 C 90 % 5.87 C
1454 13-03-2009 02:51:13 7.4 C 91 % 6.03 C
1455 13-03-2009 03:03:13 7.3 C 91 % 5.93 C
1456 13-03-2009 03:15:13 7.5 C 91 % 6.13 C
1457 13-03-2009 03:27:13 7.5 C 89 % 5.81 C
1458 13-03-2009 03:39:13 7.4 C 88 % 5.55 C
1459 13-03-2009 03:51:13 7.3 C 87 % 5.28 C
1460 13-03-2009 04:03:13 7.3 C 86 % 5.12 C
1461 13-03-2009 04:15:13 7.3 C 87 % 5.28 C
1462 13-03-2009 04:27:13 7.3 C 87 % 5.28 C
1463 13-03-2009 04:39:13 7.1 C 87 % 5.09 C
1464 13-03-2009 04:51:13 7.2 C 86 % 5.02 C
1465 13-03-2009 05:03:13 7.3 C 85 % 4.95 C
1466 13-03-2009 05:15:13 6.9 C 84 % 4.39 C
1467 13-03-2009 05:27:13 6.6 C 85 % 4.26 C
1468 13-03-2009 05:39:13 6.3 C 85 % 3.97 C
1469 13-03-2009 05:51:14 6.1 C 86 % 3.94 C
1470 13-03-2009 06:03:14 5.9 C 87 % 3.91 C
1471 13-03-2009 06:15:14 5.7 C 87 % 3.71 C
1472 13-03-2009 06:27:14 5.6 C 88 % 3.77 C
1473 13-03-2009 06:39:14 5.5 C 88 % 3.67 C
1474 13-03-2009 06:51:14 5.4 C 88 % 3.58 C
1475 13-03-2009 07:03:12 5.4 C 88 % 3.58 C
Sensor: Nr:Datum:Temp:Feuchte:Taupunkt:
Aussen-T/F 1476 13-03-2009 07:15:12 5.4 C 89 % 3.74 C
1477 13-03-2009 07:27:12 5.4 C 89 % 3.74 C
1478 13-03-2009 07:39:12 5.4 C 89 % 3.74 C
1479 13-03-2009 07:51:12 5.5 C 89 % 3.84 C
1480 13-03-2009 08:03:11 5.7 C 89 % 4.03 C
1481 13-03-2009 08:15:12 5.9 C 90 % 4.39 C
1482 13-03-2009 08:27:12 5.9 C 90 % 4.39 C
1483 13-03-2009 08:39:11 5.9 C 90 % 4.39 C
1484 13-03-2009 08:51:11 5.9 C 89 % 4.23 C
1485 13-03-2009 09:03:11 5.9 C 89 % 4.23 C
1486 13-03-2009 09:15:11 6.4 C 89 % 4.72 C
1487 13-03-2009 09:27:11 7.3 C 90 % 5.77 C
1488 13-03-2009 09:39:11 7.4 C 86 % 5.22 C
1489 13-03-2009 09:51:10 8 C 82 % 5.12 C
1490 13-03-2009 10:03:11 8.6 C 78 % 4.99 C
1491 13-03-2009 10:15:10 8.8 C 73 % 4.24 C
1492 13-03-2009 10:27:10 9.3 C 65 % 3.07 C
1493 13-03-2009 10:39:10 9.5 C 63 % 2.82 C
1494 13-03-2009 10:51:10 9.7 C 60 % 2.32 C
1495 13-03-2009 11:03:10 10 C 59 % 2.37 C
1496 13-03-2009 11:15:10 10.3 C 56 % 1.92 C
1497 13-03-2009 11:27:10 10.2 C 55 % 1.58 C
1498 13-03-2009 11:39:09 10.7 C 56 % 2.29 C
1499 13-03-2009 11:51:10 11.7 C 49 % 1.36 C
1500 13-03-2009 12:03:09 11.6 C 47 % 0.69 C
Sensor: Nr:Datum:Temp:Feuchte:Taupunkt:
Aussen-T/F 1501 13-03-2009 12:15:09 11.9 C 45 % 0.36 C
1502 13-03-2009 12:27:10 11.3 C 44 % -0.49 C
1503 13-03-2009 12:39:09 10.9 C 43 % -1.17 C
1504 13-03-2009 12:51:09 11.7 C 46 % 0.48 C
1505 13-03-2009 13:03:08 11.9 C 40 % -1.25 C
1506 13-03-2009 13:15:09 11.8 C 41 % -1.01 C
1507 13-03-2009 13:27:09 12.1 C 35 % -2.88 C
1508 13-03-2009 13:39:09 12.5 C 35 % -2.52 C
1509 13-03-2009 13:51:08 14.1 C 32 % -2.32 C
1510 13-03-2009 14:03:09 13.9 C 31 % -2.93 C
1511 13-03-2009 14:15:08 13.1 C 32 % -3.2 C
1512 13-03-2009 14:27:08 13.2 C 30 % -3.97 C
1513 13-03-2009 14:39:08 13.4 C 30 % -3.8 C
1514 13-03-2009 14:51:07 13.6 C 31 % -3.19 C
1515 13-03-2009 15:03:08 14 C 29 % -3.73 C
1516 13-03-2009 15:15:08 13.7 C 28 % -4.45 C
1517 13-03-2009 15:27:08 13.9 C 29 % -3.82 C
1518 13-03-2009 15:39:07 14.1 C 29 % -3.64 C
1519 13-03-2009 15:51:08 13.6 C 28 % -4.54 C
1520 13-03-2009 16:03:07 13.8 C 29 % -3.9 C
1521 13-03-2009 16:15:07 13.5 C 28 % -4.63 C
1522 13-03-2009 16:27:07 13.3 C 29 % -4.33 C
1523 13-03-2009 16:39:07 13.1 C 30 % -4.06 C
1524 13-03-2009 16:51:07 13.2 C 31 % -3.54 C
1525 13-03-2009 17:03:06 13 C 30 % -4.15 C
Sensor: Nr:Datum:Temp:Feuchte:Taupunkt:
Aussen-T/F 1526 13-03-2009 17:15:07 12.9 C 30 % -4.23 C
1527 13-03-2009 17:27:07 12.8 C 34 % -2.65 C
1528 13-03-2009 17:39:06 12.6 C 36 % -2.06 C
1529 13-03-2009 17:51:06 12.4 C 41 % -0.47 C
1530 13-03-2009 18:03:06 11.7 C 42 % -0.77 C
1531 13-03-2009 18:15:06 11.1 C 43 % -0.99 C
1532 13-03-2009 18:27:06 10.4 C 44 % -1.31 C
1533 13-03-2009 18:39:05 9.8 C 46 % -1.25 C
1534 13-03-2009 18:51:06 9.2 C 48 % -1.22 C
1535 13-03-2009 19:03:06 9 C 48 % -1.41 C
1536 13-03-2009 19:15:05 8.6 C 52 % -0.68 C
1537 13-03-2009 19:27:05 8.3 C 54 % -0.45 C
1538 13-03-2009 19:39:05 8.1 C 54 % -0.63 C
1539 13-03-2009 19:51:05 8 C 54 % -0.73 C
1540 13-03-2009 20:03:05 7.8 C 57 % -0.17 C
1541 13-03-2009 20:15:04 7.6 C 59 % 0.11 C
1542 13-03-2009 20:27:04 7.4 C 60 % 0.16 C
1543 13-03-2009 20:39:05 7.2 C 61 % 0.2 C
1544 13-03-2009 20:51:04 6.9 C 63 % 0.36 C
1545 13-03-2009 21:03:04 6.6 C 64 % 0.29 C
1546 13-03-2009 21:15:04 6.5 C 64 % 0.19 C
1547 13-03-2009 21:27:04 6.3 C 64 % 0 C
1548 13-03-2009 21:39:04 6.1 C 65 % 0.03 C
1549 13-03-2009 21:51:04 5.9 C 67 % 0.25 C
1550 13-03-2009 22:03:04 5.8 C 67 % 0.16 C
Sensor: Nr:Datum:Temp:Feuchte:Taupunkt:
Aussen-T/F 1551 13-03-2009 22:15:03 5.8 C 67 % 0.16 C
1552 13-03-2009 22:27:03 5.6 C 67 % -0.03 C
1553 13-03-2009 22:39:04 5.6 C 68 % 0.17 C
1554 13-03-2009 22:52:05 5.4 C 69 % 0.18 C
1555 13-03-2009 23:04:05 5.3 C 70 % 0.28 C
1556 13-03-2009 23:16:05 5.2 C 70 % 0.19 C
1557 13-03-2009 23:28:05 5 C 70 % 0 C
1558 13-03-2009 23:40:05 4.9 C 72 % 0.29 C
1559 13-03-2009 23:52:05 4.8 C 72 % 0.19 C
1560 14-03-2009 00:04:05 4.6 C 73 % 0.19 C
1561 14-03-2009 00:16:05 4.5 C 73 % 0.09 C
1562 14-03-2009 00:28:05 4.5 C 74 % 0.28 C
1563 14-03-2009 00:40:06 4.4 C 74 % 0.18 C
1564 14-03-2009 00:52:06 4.2 C 76 % 0.36 C
1565 14-03-2009 01:04:06 4.1 C 76 % 0.26 C
1566 14-03-2009 01:16:06 4 C 76 % 0.16 C
1567 14-03-2009 01:28:06 4 C 76 % 0.16 C
1568 14-03-2009 01:40:06 3.7 C 78 % 0.23 C
1569 14-03-2009 01:52:06 3.9 C 78 % 0.42 C
1570 14-03-2009 02:04:06 3.8 C 78 % 0.33 C
1571 14-03-2009 02:16:06 3.7 C 78 % 0.23 C
1572 14-03-2009 02:28:06 3.5 C 79 % 0.21 C
1573 14-03-2009 02:40:06 3.4 C 79 % 0.11 C
1574 14-03-2009 02:52:06 3.6 C 80 % 0.48 C
1575 14-03-2009 03:04:06 3.6 C 80 % 0.48 C
Sensor: Nr:Datum:Temp:Feuchte:Taupunkt:
Aussen-T/F 1576 14-03-2009 03:16:06 3.2 C 80 % 0.09 C
1577 14-03-2009 03:28:06 3.3 C 80 % 0.19 C
1578 14-03-2009 03:40:06 3.4 C 81 % 0.46 C
1579 14-03-2009 03:52:06 3.4 C 81 % 0.46 C
1580 14-03-2009 04:04:06 3.4 C 81 % 0.46 C
1581 14-03-2009 04:16:06 3.3 C 81 % 0.36 C
1582 14-03-2009 04:28:06 3 C 80 % -0.1 C
1583 14-03-2009 04:40:07 3 C 81 % 0.07 C
1584 14-03-2009 04:52:07 2.7 C 82 % -0.06 C
1585 14-03-2009 05:04:07 2.6 C 82 % -0.16 C
1586 14-03-2009 05:16:07 2.6 C 83 % 0.01 C
1587 14-03-2009 05:28:07 2.6 C 83 % 0.01 C
1588 14-03-2009 05:40:07 2.8 C 84 % 0.37 C
1589 14-03-2009 05:52:07 3 C 84 % 0.57 C
1590 14-03-2009 06:04:07 3.2 C 84 % 0.76 C
1591 14-03-2009 06:16:07 3.3 C 84 % 0.86 C
1592 14-03-2009 06:28:07 3.3 C 84 % 0.86 C
1593 14-03-2009 06:40:07 3.5 C 84 % 1.06 C
1594 14-03-2009 06:52:07 3.7 C 84 % 1.25 C
1595 14-03-2009 07:04:07 3.8 C 83 % 1.19 C
1596 14-03-2009 07:16:07 3.8 C 82 % 1.02 C
1597 14-03-2009 07:28:07 3.8 C 82 % 1.02 C
1598 14-03-2009 07:40:07 4.1 C 81 % 1.14 C
1599 14-03-2009 07:52:07 4.2 C 80 % 1.07 C
1600 14-03-2009 08:04:07 4.4 C 79 % 1.09 C
Sensor: Nr:Datum:Temp:Feuchte:Taupunkt:
Aussen-T/F 1601 14-03-2009 08:16:04 4.6 C 79 % 1.28 C
1602 14-03-2009 08:28:04 4.8 C 79 % 1.47 C
1603 14-03-2009 08:40:05 5.4 C 77 % 1.7 C
1604 14-03-2009 08:52:05 5.6 C 75 % 1.53 C
1605 14-03-2009 09:04:04 5.9 C 74 % 1.63 C
1606 14-03-2009 09:16:04 6.2 C 72 % 1.54 C
1607 14-03-2009 09:28:04 6.3 C 70 % 1.24 C
1608 14-03-2009 09:40:04 6.8 C 70 % 1.72 C
1609 14-03-2009 09:52:04 7.1 C 66 % 1.19 C
1610 14-03-2009 10:04:04 7.4 C 65 % 1.26 C
1611 14-03-2009 10:16:03 7.9 C 64 % 1.52 C
1612 14-03-2009 10:28:03 8.5 C 61 % 1.42 C
1613 14-03-2009 10:40:04 9.4 C 58 % 1.57 C
1614 14-03-2009 10:52:03 9.8 C 57 % 1.7 C
1615 14-03-2009 11:04:03 10.4 C 55 % 1.76 C
1616 14-03-2009 11:16:03 10.9 C 53 % 1.71 C
1617 14-03-2009 11:28:03 11.3 C 52 % 1.81 C
1618 14-03-2009 11:40:03 11.6 C 50 % 1.54 C
1619 14-03-2009 11:52:02 12.1 C 48 % 1.44 C
1620 14-03-2009 12:04:03 12.5 C 45 % 0.91 C
1621 14-03-2009 12:16:03 12.4 C 43 % 0.19 C
1622 14-03-2009 12:28:03 13 C 43 % 0.73 C
1623 14-03-2009 12:40:02 13.4 C 41 % 0.43 C
1624 14-03-2009 12:52:03 13.7 C 40 % 0.36 C
1625 14-03-2009 13:04:02 13.6 C 40 % 0.27 C
Sensor: Nr:Datum:Temp:Feuchte:Taupunkt:
Aussen-T/F 1626 14-03-2009 13:16:02 13.8 C 40 % 0.45 C
1627 14-03-2009 13:28:02 14.1 C 39 % 0.37 C
1628 14-03-2009 13:40:02 14.5 C 38 % 0.37 C
1629 14-03-2009 13:52:02 14.7 C 37 % 0.18 C
1630 14-03-2009 14:04:01 15.4 C 35 % 0.04 C
1631 14-03-2009 14:16:01 15.8 C 34 % -0.01 C
1632 14-03-2009 14:28:01 15.9 C 33 % -0.33 C
1633 14-03-2009 14:40:01 15.9 C 33 % -0.33 C
1634 14-03-2009 14:52:01 16.9 C 30 % -0.76 C
1635 14-03-2009 15:04:01 17.5 C 30 % -0.25 C
1636 14-03-2009 15:16:01 17 C 31 % -0.23 C
1637 14-03-2009 15:28:01 16.1 C 35 % 0.65 C
1638 14-03-2009 15:40:01 15.7 C 37 % 1.07 C
1639 14-03-2009 15:52:00 16.8 C 35 % 1.27 C
1640 14-03-2009 16:04:01 17.2 C 33 % 0.81 C
1641 14-03-2009 16:16:00 16.2 C 35 % 0.74 C
1642 14-03-2009 16:28:00 15.6 C 38 % 1.35 C
1643 14-03-2009 16:40:00 15.7 C 39 % 1.8 C
1644 14-03-2009 16:52:00 15.4 C 39 % 1.53 C
1645 14-03-2009 17:04:00 15.4 C 39 % 1.53 C
1646 14-03-2009 17:16:00 15.4 C 40 % 1.89 C
1647 14-03-2009 17:28:00 15.2 C 41 % 2.05 C
1648 14-03-2009 17:39:59 15 C 41 % 1.87 C
1649 14-03-2009 17:52:00 14.7 C 43 % 2.27 C
1650 14-03-2009 18:04:59 14.5 C 43 % 2.09 C
Sensor: Nr:Datum:Temp:Feuchte:Taupunkt:
Aussen-T/F 1651 14-03-2009 18:16:59 14.4 C 44 % 2.32 C
1652 14-03-2009 18:28:59 14.2 C 45 % 2.45 C
1653 14-03-2009 18:40:59 14.1 C 46 % 2.67 C
1654 14-03-2009 18:52:59 13.8 C 51 % 3.85 C
1655 14-03-2009 19:04:58 12.3 C 67 % 6.36 C
1656 14-03-2009 19:16:59 11.5 C 77 % 7.61 C
1657 14-03-2009 19:28:59 11.1 C 81 % 7.97 C
1658 14-03-2009 19:40:59 11.4 C 83 % 8.62 C
1659 14-03-2009 19:52:58 10.7 C 83 % 7.93 C
1660 14-03-2009 20:04:59 10.4 C 83 % 7.64 C
1661 14-03-2009 20:16:58 10.4 C 84 % 7.82 C
1662 14-03-2009 20:28:58 10.3 C 84 % 7.72 C
1663 14-03-2009 20:40:59 10.2 C 85 % 7.79 C
1664 14-03-2009 20:52:57 10 C 83 % 7.25 C
1665 14-03-2009 21:04:57 9.6 C 74 % 5.2 C
1666 14-03-2009 21:16:58 9.6 C 74 % 5.2 C
1667 14-03-2009 21:28:57 9.4 C 76 % 5.39 C
1668 14-03-2009 21:40:57 9.3 C 77 % 5.48 C
1669 14-03-2009 21:52:57 9.1 C 78 % 5.47 C
1670 14-03-2009 22:04:57 9 C 79 % 5.56 C
1671 14-03-2009 22:17:58 9 C 78 % 5.38 C
1672 14-03-2009 22:29:58 9.1 C 76 % 5.1 C
1673 14-03-2009 22:41:58 9.2 C 75 % 5.01 C
1674 14-03-2009 22:53:58 9.2 C 74 % 4.81 C
1675 14-03-2009 23:05:58 9.2 C 74 % 4.81 C
Sensor: Nr:Datum:Temp:Feuchte:Taupunkt:
Aussen-T/F 1676 14-03-2009 23:17:58 9.2 C 73 % 4.62 C
1677 14-03-2009 23:29:58 9.2 C 67 % 3.4 C
1678 14-03-2009 23:41:58 9.1 C 66 % 3.09 C
1679 14-03-2009 23:53:58 9.1 C 64 % 2.66 C
1680 15-03-2009 00:05:58 9.1 C 63 % 2.44 C
1681 15-03-2009 00:17:58 9.1 C 62 % 2.22 C
1682 15-03-2009 00:29:58 9 C 62 % 2.12 C
1683 15-03-2009 00:41:58 9.1 C 61 % 1.99 C
1684 15-03-2009 00:53:58 9 C 61 % 1.89 C
1685 15-03-2009 01:05:58 9 C 61 % 1.89 C
1686 15-03-2009 01:17:58 9 C 60 % 1.66 C
1687 15-03-2009 01:29:58 8.8 C 63 % 2.16 C
1688 15-03-2009 01:41:58 8.8 C 62 % 1.93 C
1689 15-03-2009 01:53:59 8.9 C 62 % 2.03 C
1690 15-03-2009 02:05:59 8.8 C 62 % 1.93 C
1691 15-03-2009 02:16:59 8.6 C 65 % 2.4 C
1692 15-03-2009 02:28:59 8.9 C 64 % 2.47 C
1693 15-03-2009 02:40:59 8.8 C 63 % 2.16 C
1694 15-03-2009 02:52:59 8.8 C 64 % 2.38 C
1695 15-03-2009 03:04:59 8.6 C 65 % 2.4 C
1696 15-03-2009 03:16:59 8.7 C 64 % 2.28 C
1697 15-03-2009 03:28:59 8.6 C 63 % 1.97 C
1698 15-03-2009 03:40:59 8.6 C 62 % 1.74 C
1699 15-03-2009 03:52:59 8.6 C 61 % 1.52 C
1700 15-03-2009 04:04:59 8.6 C 61 % 1.52 C
Sensor: Nr:Datum:Temp:Feuchte:Taupunkt:
Aussen-T/F 1701 15-03-2009 04:16:59 8.6 C 60 % 1.29 C
1702 15-03-2009 04:28:59 8.6 C 61 % 1.52 C
1703 15-03-2009 04:40:59 8.6 C 61 % 1.52 C
1704 15-03-2009 04:52:59 8.6 C 61 % 1.52 C
1705 15-03-2009 05:04:59 8.6 C 61 % 1.52 C
1706 15-03-2009 05:16:59 8.5 C 61 % 1.42 C
1707 15-03-2009 05:28:59 8.5 C 61 % 1.42 C
1708 15-03-2009 05:40:59 8.5 C 61 % 1.42 C
1709 15-03-2009 05:53:00 8.5 C 60 % 1.19 C
1710 15-03-2009 06:05:00 8.5 C 59 % 0.96 C
1711 15-03-2009 06:17:00 8.5 C 58 % 0.72 C
1712 15-03-2009 06:29:00 8.5 C 58 % 0.72 C
1713 15-03-2009 06:41:00 8.4 C 58 % 0.63 C
1714 15-03-2009 06:53:00 8.4 C 58 % 0.63 C
1715 15-03-2009 07:05:00 8.4 C 57 % 0.39 C
1716 15-03-2009 07:17:00 8.4 C 56 % 0.15 C
1717 15-03-2009 07:29:00 8.4 C 56 % 0.15 C
1718 15-03-2009 07:41:00 8.5 C 56 % 0.24 C
1719 15-03-2009 07:53:00 8.5 C 56 % 0.24 C
1720 15-03-2009 08:05:00 8.5 C 55 % -0.01 C
1721 15-03-2009 08:17:00 8.5 C 55 % -0.01 C
1722 15-03-2009 08:29:00 8.9 C 55 % 0.36 C
1723 15-03-2009 08:41:00 8.7 C 55 % 0.18 C
1724 15-03-2009 08:53:00 8.8 C 55 % 0.27 C
1725 15-03-2009 09:05:58 8.8 C 55 % 0.27 C
Sensor: Nr:Datum:Temp:Feuchte:Taupunkt:
Aussen-T/F 1726 15-03-2009 09:17:58 8.8 C 55 % 0.27 C
1727 15-03-2009 09:29:58 8.9 C 54 % 0.11 C
1728 15-03-2009 09:41:58 9.1 C 54 % 0.3 C
1729 15-03-2009 09:53:57 9.2 C 52 % -0.13 C
1730 15-03-2009 10:05:58 9.3 C 52 % -0.04 C
1731 15-03-2009 10:17:57 9.3 C 51 % -0.3 C
1732 15-03-2009 10:29:57 9.3 C 50 % -0.57 C
1733 15-03-2009 10:41:57 9.6 C 49 % -0.57 C
1734 15-03-2009 10:53:57 9.7 C 48 % -0.76 C
1735 15-03-2009 11:05:57 9.9 C 47 % -0.87 C
1736 15-03-2009 11:17:57 10.1 C 47 % -0.69 C
1737 15-03-2009 11:29:56 10.2 C 45 % -1.19 C
1738 15-03-2009 11:41:56 10.4 C 46 % -0.7 C
1739 15-03-2009 11:53:57 10.5 C 45 % -0.91 C
1740 15-03-2009 12:05:56 10.8 C 43 % -1.26 C
1741 15-03-2009 12:17:56 11.2 C 39 % -2.22 C
1742 15-03-2009 12:29:56 11.4 C 38 % -2.39 C
1743 15-03-2009 12:41:56 11.4 C 38 % -2.39 C
1744 15-03-2009 12:53:56 11.5 C 33 % -4.19 C
1745 15-03-2009 13:05:55 11.3 C 32 % -4.77 C
1746 15-03-2009 13:17:56 11.5 C 32 % -4.6 C
1747 15-03-2009 13:29:56 11.2 C 34 % -4.06 C
1748 15-03-2009 13:41:56 11.1 C 35 % -3.76 C
1749 15-03-2009 13:53:55 11 C 36 % -3.47 C
1750 15-03-2009 14:05:56 10.9 C 40 % -2.15 C
Sensor: Nr:Datum:Temp:Feuchte:Taupunkt:
Aussen-T/F 1751 15-03-2009 14:17:55 11.1 C 40 % -1.97 C
1752 15-03-2009 14:29:55 11 C 40 % -2.06 C
1753 15-03-2009 14:41:56 10.8 C 41 % -1.91 C
1754 15-03-2009 14:53:55 10.7 C 40 % -2.33 C
1755 15-03-2009 15:05:55 10.6 C 43 % -1.44 C
1756 15-03-2009 15:17:54 10.6 C 45 % -0.82 C
1757 15-03-2009 15:29:54 10.9 C 45 % -0.55 C
1758 15-03-2009 15:41:54 10.8 C 44 % -0.95 C
1759 15-03-2009 15:53:54 10.6 C 44 % -1.13 C
1760 15-03-2009 16:05:54 10.7 C 45 % -0.73 C
1761 15-03-2009 16:17:54 10.8 C 45 % -0.64 C
1762 15-03-2009 16:29:54 10.8 C 45 % -0.64 C
1763 15-03-2009 16:41:54 10.7 C 45 % -0.73 C
1764 15-03-2009 16:53:54 10.6 C 45 % -0.82 C
1765 15-03-2009 17:05:53 10.6 C 46 % -0.52 C
1766 15-03-2009 17:17:54 10.4 C 48 % -0.12 C
1767 15-03-2009 17:29:53 10.1 C 52 % 0.7 C
1768 15-03-2009 17:41:53 9.9 C 54 % 1.04 C
1769 15-03-2009 17:53:53 9.9 C 53 % 0.78 C
1770 15-03-2009 18:05:53 9.8 C 53 % 0.69 C
1771 15-03-2009 18:17:53 9.8 C 54 % 0.95 C
1772 15-03-2009 18:29:53 9.7 C 54 % 0.86 C
1773 15-03-2009 18:41:53 9.8 C 52 % 0.43 C
1774 15-03-2009 18:53:52 9.8 C 51 % 0.16 C
1775 15-03-2009 19:05:02 9.8 C 50 % -0.11 C
Sensor: Nr:Datum:Temp:Feuchte:Taupunkt:
Aussen-T/F 1776 15-03-2009 19:17:01 9.7 C 51 % 0.07 C
1777 15-03-2009 19:29:01 9.6 C 52 % 0.24 C
1778 15-03-2009 19:41:02 9.5 C 53 % 0.41 C
1779 15-03-2009 19:53:01 9.5 C 53 % 0.41 C
1780 15-03-2009 20:05:02 9.4 C 55 % 0.83 C
1781 15-03-2009 20:17:01 9.2 C 56 % 0.89 C
1782 15-03-2009 20:29:01 9.2 C 57 % 1.14 C
1783 15-03-2009 20:41:01 9.1 C 59 % 1.52 C
1784 15-03-2009 20:53:01 9 C 60 % 1.66 C
1785 15-03-2009 21:05:01 9 C 60 % 1.66 C
1786 15-03-2009 21:17:00 8.9 C 62 % 2.03 C
1787 15-03-2009 21:29:00 8.9 C 63 % 2.25 C
1788 15-03-2009 21:41:01 8.9 C 64 % 2.47 C
1789 15-03-2009 21:54:08 8.7 C 64 % 2.28 C
1790 15-03-2009 22:06:08 8.7 C 65 % 2.5 C
1791 15-03-2009 22:18:08 8.7 C 65 % 2.5 C
1792 15-03-2009 22:30:08 8.6 C 66 % 2.62 C
1793 15-03-2009 22:42:08 8.5 C 67 % 2.73 C
1794 15-03-2009 22:54:08 8.4 C 67 % 2.64 C
1795 15-03-2009 23:06:08 8.4 C 67 % 2.64 C
1796 15-03-2009 23:18:09 8.4 C 68 % 2.85 C
1797 15-03-2009 23:30:09 8.3 C 68 % 2.75 C
1798 15-03-2009 23:42:09 8.3 C 68 % 2.75 C
1799 15-03-2009 23:54:09 8.1 C 70 % 2.97 C
1800 16-03-2009 00:06:09 8 C 71 % 3.07 C
Sensor: Nr:Datum:Temp:Feuchte:Taupunkt:
Aussen-T/F 1801 16-03-2009 00:18:09 8.1 C 71 % 3.17 C
1802 16-03-2009 00:30:09 8.1 C 71 % 3.17 C
1803 16-03-2009 00:42:09 8.1 C 70 % 2.97 C
1804 16-03-2009 00:54:09 8.1 C 69 % 2.77 C
1805 16-03-2009 01:06:09 8.2 C 68 % 2.66 C
1806 16-03-2009 01:18:09 8 C 69 % 2.67 C
1807 16-03-2009 01:30:09 7.8 C 73 % 3.27 C
1808 16-03-2009 01:42:09 7.7 C 75 % 3.56 C
1809 16-03-2009 01:54:09 7.5 C 77 % 3.74 C
1810 16-03-2009 02:06:09 7.4 C 78 % 3.82 C
1811 16-03-2009 02:18:09 7.4 C 79 % 4 C
1812 16-03-2009 02:30:09 7.4 C 79 % 4 C
1813 16-03-2009 02:42:09 7.3 C 80 % 4.09 C
1814 16-03-2009 02:54:09 7.2 C 81 % 4.16 C
1815 16-03-2009 03:06:09 7.2 C 81 % 4.16 C
1816 16-03-2009 03:18:09 7.1 C 82 % 4.24 C
1817 16-03-2009 03:30:10 7.1 C 82 % 4.24 C
1818 16-03-2009 03:42:10 6.9 C 83 % 4.22 C
1819 16-03-2009 03:54:10 6.8 C 84 % 4.29 C
1820 16-03-2009 04:06:10 6.8 C 84 % 4.29 C
1821 16-03-2009 04:18:10 6.8 C 85 % 4.46 C
1822 16-03-2009 04:30:10 6.7 C 85 % 4.36 C
1823 16-03-2009 04:42:10 6.7 C 85 % 4.36 C
1824 16-03-2009 04:54:10 6.8 C 86 % 4.63 C
1825 16-03-2009 05:06:10 6.7 C 86 % 4.53 C
Sensor: Nr:Datum:Temp:Feuchte:Taupunkt:
Aussen-T/F 1826 16-03-2009 05:18:10 6.5 C 85 % 4.17 C
1827 16-03-2009 05:30:10 6.6 C 86 % 4.43 C
1828 16-03-2009 05:42:10 6.7 C 86 % 4.53 C
1829 16-03-2009 05:54:01 6.6 C 86 % 4.43 C
1830 16-03-2009 06:06:01 6.6 C 86 % 4.43 C
1831 16-03-2009 06:18:01 6.6 C 86 % 4.43 C
1832 16-03-2009 06:30:01 6.6 C 86 % 4.43 C
1833 16-03-2009 06:42:01 6.7 C 86 % 4.53 C
1834 16-03-2009 06:54:00 6.6 C 85 % 4.26 C
1835 16-03-2009 07:06:01 6.5 C 85 % 4.17 C
1836 16-03-2009 07:18:00 6.5 C 85 % 4.17 C
1837 16-03-2009 07:30:00 6.6 C 86 % 4.43 C
1838 16-03-2009 07:42:00 6.7 C 86 % 4.53 C
1839 16-03-2009 07:53:59 6.8 C 86 % 4.63 C
1840 16-03-2009 08:06:00 6.9 C 86 % 4.72 C
1841 16-03-2009 08:18:00 7 C 85 % 4.66 C
1842 16-03-2009 08:30:00 7 C 84 % 4.49 C
1843 16-03-2009 08:42:59 7.1 C 84 % 4.58 C
1844 16-03-2009 08:54:00 7.2 C 84 % 4.68 C
1845 16-03-2009 09:06:59 7.4 C 84 % 4.88 C
1846 16-03-2009 09:18:59 7.3 C 83 % 4.61 C
1847 16-03-2009 09:30:58 7.2 C 81 % 4.16 C
1848 16-03-2009 09:42:58 7.3 C 79 % 3.91 C
1849 16-03-2009 09:54:59 7.6 C 79 % 4.2 C
1850 16-03-2009 10:06:59 7.9 C 78 % 4.31 C
Sensor: Nr:Datum:Temp:Feuchte:Taupunkt:
Aussen-T/F 1851 16-03-2009 10:18:58 8.2 C 75 % 4.04 C
1852 16-03-2009 10:30:59 8.4 C 72 % 3.65 C
1853 16-03-2009 10:42:59 8.7 C 69 % 3.34 C
1854 16-03-2009 10:54:58 8.8 C 68 % 3.23 C
1855 16-03-2009 11:06:58 8.8 C 66 % 2.81 C
1856 16-03-2009 11:18:57 9.1 C 64 % 2.66 C
1857 16-03-2009 11:30:58 9.2 C 62 % 2.31 C
1858 16-03-2009 11:42:58 9.5 C 61 % 2.37 C
1859 16-03-2009 11:54:57 9.7 C 61 % 2.55 C
1860 16-03-2009 12:06:57 10 C 57 % 1.89 C
1861 16-03-2009 12:18:58 9.9 C 55 % 1.3 C
1862 16-03-2009 12:30:57 9.5 C 56 % 1.17 C
1863 16-03-2009 12:42:57 9.5 C 57 % 1.42 C
1864 16-03-2009 12:54:57 9.8 C 57 % 1.7 C
1865 16-03-2009 13:06:57 10 C 55 % 1.39 C
1866 16-03-2009 13:18:57 10.2 C 55 % 1.58 C
1867 16-03-2009 13:30:56 10.1 C 52 % 0.7 C
1868 16-03-2009 13:42:56 9.8 C 55 % 1.2 C
1869 16-03-2009 13:54:56 9.5 C 56 % 1.17 C
1870 16-03-2009 14:06:56 9.4 C 56 % 1.08 C
1871 16-03-2009 14:18:56 9.5 C 56 % 1.17 C
1872 16-03-2009 14:30:56 9.5 C 55 % 0.92 C
1873 16-03-2009 14:42:56 9.7 C 56 % 1.36 C
1874 16-03-2009 14:54:56 9.9 C 55 % 1.3 C
1875 16-03-2009 15:06:56 10 C 54 % 1.13 C
Sensor: Nr:Datum:Temp:Feuchte:Taupunkt:
Aussen-T/F 1876 16-03-2009 15:18:55 10.3 C 54 % 1.41 C
1877 16-03-2009 15:30:55 9.9 C 53 % 0.78 C
1878 16-03-2009 15:42:55 9.8 C 55 % 1.2 C
1879 16-03-2009 15:54:55 9.9 C 55 % 1.3 C
1880 16-03-2009 16:06:55 9.7 C 56 % 1.36 C
1881 16-03-2009 16:18:55 9.8 C 56 % 1.45 C
1882 16-03-2009 16:30:55 9.8 C 56 % 1.45 C
1883 16-03-2009 16:42:55 10 C 55 % 1.39 C
1884 16-03-2009 16:54:55 9.8 C 55 % 1.2 C
1885 16-03-2009 17:06:54 9.7 C 57 % 1.61 C
1886 16-03-2009 17:18:55 9.7 C 57 % 1.61 C
1887 16-03-2009 17:30:54 9.7 C 57 % 1.61 C
1888 16-03-2009 17:42:54 9.6 C 57 % 1.51 C
1889 16-03-2009 17:54:54 9.2 C 58 % 1.38 C
1890 16-03-2009 18:06:53 9.2 C 59 % 1.62 C
1891 16-03-2009 18:18:54 9.2 C 60 % 1.85 C
1892 16-03-2009 18:30:54 9 C 60 % 1.66 C
1893 16-03-2009 18:42:54 8.9 C 62 % 2.03 C
1894 16-03-2009 18:54:53 8.7 C 63 % 2.06 C
1895 16-03-2009 19:06:54 8.7 C 64 % 2.28 C
1896 16-03-2009 19:18:53 8.6 C 65 % 2.4 C
1897 16-03-2009 19:30:53 8.5 C 65 % 2.31 C
1898 16-03-2009 19:42:54 8.5 C 66 % 2.52 C
1899 16-03-2009 19:54:53 8.4 C 66 % 2.43 C
1900 16-03-2009 20:06:53 8.4 C 66 % 2.43 C
Sensor: Nr:Datum:Temp:Feuchte:Taupunkt:
Aussen-T/F 1901 16-03-2009 20:18:52 8.4 C 66 % 2.43 C
1902 16-03-2009 20:30:53 8.4 C 65 % 2.21 C
1903 16-03-2009 20:42:53 8.3 C 65 % 2.12 C
1904 16-03-2009 20:54:52 8.3 C 65 % 2.12 C
1905 16-03-2009 21:06:52 8.2 C 66 % 2.24 C
1906 16-03-2009 21:18:52 8.2 C 66 % 2.24 C
1907 16-03-2009 21:30:51 8.2 C 66 % 2.24 C
1908 16-03-2009 21:42:51 8.1 C 65 % 1.93 C
1909 16-03-2009 21:54:52 8.1 C 65 % 1.93 C
1910 16-03-2009 22:06:51 8.1 C 65 % 1.93 C
1911 16-03-2009 22:19:53 8 C 64 % 1.62 C
1912 16-03-2009 22:31:54 8 C 64 % 1.62 C
1913 16-03-2009 22:43:54 8 C 64 % 1.62 C
1914 16-03-2009 22:55:54 7.9 C 64 % 1.52 C
1915 16-03-2009 23:07:54 8 C 64 % 1.62 C
1916 16-03-2009 23:19:54 8 C 64 % 1.62 C
1917 16-03-2009 23:31:54 8 C 64 % 1.62 C
1918 16-03-2009 23:43:54 7.9 C 66 % 1.95 C
1919 16-03-2009 23:55:54 7.9 C 66 % 1.95 C
1920 17-03-2009 00:07:54 7.8 C 67 % 2.07 C
1921 17-03-2009 00:19:54 7.8 C 65 % 1.64 C
1922 17-03-2009 00:31:54 7.8 C 65 % 1.64 C
1923 17-03-2009 00:43:54 7.7 C 65 % 1.55 C
1924 17-03-2009 00:55:54 7.7 C 63 % 1.11 C
1925 17-03-2009 01:07:54 7.7 C 62 % 0.89 C
Sensor: Nr:Datum:Temp:Feuchte:Taupunkt:
Aussen-T/F 1926 17-03-2009 01:19:54 7.4 C 62 % 0.61 C
1927 17-03-2009 01:31:54 6.7 C 65 % 0.6 C
1928 17-03-2009 01:43:54 6.1 C 66 % 0.24 C
1929 17-03-2009 01:55:54 5.8 C 69 % 0.56 C
1930 17-03-2009 02:07:54 5.6 C 69 % 0.37 C
1931 17-03-2009 02:19:54 5.3 C 70 % 0.28 C
1932 17-03-2009 02:31:55 5.1 C 71 % 0.29 C
1933 17-03-2009 02:43:55 5 C 72 % 0.38 C
1934 17-03-2009 02:55:55 4.9 C 73 % 0.48 C
1935 17-03-2009 03:07:55 4.7 C 74 % 0.47 C
1936 17-03-2009 03:19:55 4.7 C 74 % 0.47 C
1937 17-03-2009 03:31:55 4.5 C 75 % 0.46 C
1938 17-03-2009 03:43:55 4.3 C 76 % 0.45 C
1939 17-03-2009 03:55:55 4.1 C 77 % 0.44 C
1940 17-03-2009 04:07:55 4 C 78 % 0.52 C
1941 17-03-2009 04:19:55 3.9 C 79 % 0.6 C
1942 17-03-2009 04:31:55 4 C 78 % 0.52 C
1943 17-03-2009 04:43:55 4 C 79 % 0.7 C
1944 17-03-2009 04:55:55 3.8 C 80 % 0.68 C
1945 17-03-2009 05:07:55 3.5 C 80 % 0.38 C
1946 17-03-2009 05:19:55 3.3 C 80 % 0.19 C
1947 17-03-2009 05:31:55 3.2 C 81 % 0.26 C
1948 17-03-2009 05:43:55 3.2 C 81 % 0.26 C
1949 17-03-2009 05:55:55 3.2 C 82 % 0.43 C
1950 17-03-2009 06:07:55 3 C 82 % 0.24 C
Sensor: Nr:Datum:Temp:Feuchte:Taupunkt:
Aussen-T/F 1951 17-03-2009 06:19:56 3 C 82 % 0.24 C
1952 17-03-2009 06:31:56 3 C 83 % 0.4 C
1953 17-03-2009 06:43:56 3.1 C 83 % 0.5 C
1954 17-03-2009 06:55:56 3.3 C 83 % 0.7 C
1955 17-03-2009 07:07:52 3.5 C 83 % 0.89 C
1956 17-03-2009 07:19:52 3.5 C 81 % 0.55 C
1957 17-03-2009 07:31:52 3.6 C 80 % 0.48 C
1958 17-03-2009 07:43:52 3.5 C 80 % 0.38 C
1959 17-03-2009 07:55:52 3.5 C 80 % 0.38 C
1960 17-03-2009 08:07:51 3.5 C 80 % 0.38 C
1961 17-03-2009 08:19:51 3.7 C 80 % 0.58 C
1962 17-03-2009 08:31:52 3.8 C 80 % 0.68 C
1963 17-03-2009 08:43:52 3.9 C 79 % 0.6 C
1964 17-03-2009 08:55:51 4.2 C 79 % 0.89 C
1965 17-03-2009 09:07:51 5 C 77 % 1.31 C
1966 17-03-2009 09:19:50 5.8 C 72 % 1.15 C
1967 17-03-2009 09:31:51 6.3 C 68 % 0.84 C
1968 17-03-2009 09:43:51 6.5 C 66 % 0.62 C
1969 17-03-2009 09:55:50 6.5 C 66 % 0.62 C
1970 17-03-2009 10:07:50 6.8 C 65 % 0.69 C
1971 17-03-2009 10:19:51 7.2 C 64 % 0.86 C
1972 17-03-2009 10:31:50 7.9 C 62 % 1.08 C
1973 17-03-2009 10:43:50 8.4 C 60 % 1.1 C
1974 17-03-2009 10:55:50 9 C 57 % 0.95 C
1975 17-03-2009 11:07:50 10.1 C 53 % 0.97 C
Sensor: Nr:Datum:Temp:Feuchte:Taupunkt:
Aussen-T/F 1976 17-03-2009 11:19:50 11.4 C 50 % 1.36 C
1977 17-03-2009 11:31:50 11.7 C 47 % 0.78 C
1978 17-03-2009 11:43:50 11.6 C 47 % 0.69 C
1979 17-03-2009 11:55:50 11.4 C 48 % 0.79 C
1980 17-03-2009 12:07:50 11.5 C 49 % 1.17 C
1981 17-03-2009 12:19:49 11.2 C 50 % 1.18 C
1982 17-03-2009 12:31:49 12 C 48 % 1.34 C
1983 17-03-2009 12:43:49 13.3 C 43 % 1 C
1984 17-03-2009 12:55:49 13.7 C 42 % 1.04 C
1985 17-03-2009 13:07:49 14.1 C 40 % 0.72 C
1986 17-03-2009 13:19:48 14.1 C 39 % 0.37 C
1987 17-03-2009 13:31:48 13.9 C 39 % 0.19 C
1988 17-03-2009 13:43:48 14.2 C 39 % 0.46 C
1989 17-03-2009 13:55:48 14.7 C 38 % 0.55 C
1990 17-03-2009 14:07:48 15.4 C 35 % 0.04 C
1991 17-03-2009 14:19:48 14.2 C 38 % 0.1 C
1992 17-03-2009 14:31:48 13.8 C 41 % 0.79 C
1993 17-03-2009 14:43:48 13.2 C 42 % 0.59 C
1994 17-03-2009 14:55:48 12.5 C 44 % 0.59 C
1995 17-03-2009 15:07:47 12.4 C 45 % 0.81 C
1996 17-03-2009 15:19:48 12.5 C 46 % 1.21 C
1997 17-03-2009 15:31:47 12.7 C 45 % 1.09 C
1998 17-03-2009 15:43:47 12.8 C 45 % 1.18 C
1999 17-03-2009 15:55:47 12.8 C 45 % 1.18 C
2000 17-03-2009 16:07:47 12.5 C 45 % 0.91 C
Sensor: Nr:Datum:Temp:Feuchte:Taupunkt:
Aussen-T/F 2001 17-03-2009 16:19:47 12.6 C 46 % 1.3 C
2002 17-03-2009 16:31:47 12.5 C 45 % 0.91 C
2003 17-03-2009 16:43:47 12.6 C 45 % 1 C
2004 17-03-2009 16:55:46 12.1 C 43 % -0.08 C
2005 17-03-2009 17:07:47 12 C 45 % 0.45 C
2006 17-03-2009 17:19:46 11.9 C 47 % 0.96 C
2007 17-03-2009 17:31:46 12.6 C 44 % 0.69 C
2008 17-03-2009 17:43:46 12.2 C 44 % 0.32 C
2009 17-03-2009 17:55:46 12 C 43 % -0.17 C
2010 17-03-2009 18:07:46 11.7 C 45 % 0.18 C
2011 17-03-2009 18:19:46 11.2 C 46 % 0.02 C
2012 17-03-2009 18:31:45 10.7 C 49 % 0.44 C
2013 17-03-2009 18:43:45 10.2 C 51 % 0.53 C
2014 17-03-2009 18:55:46 9.5 C 55 % 0.92 C
2015 17-03-2009 19:07:45 9.2 C 56 % 0.89 C
2016 17-03-2009 19:19:45 8.7 C 59 % 1.15 C
2017 17-03-2009 19:31:45 8.5 C 59 % 0.96 C
2018 17-03-2009 19:43:45 8.1 C 60 % 0.82 C
2019 17-03-2009 19:55:45 7.8 C 63 % 1.21 C
2020 17-03-2009 20:07:44 7.6 C 64 % 1.24 C
2021 17-03-2009 20:19:44 7.3 C 65 % 1.17 C
2022 17-03-2009 20:31:45 7.1 C 65 % 0.98 C
2023 17-03-2009 20:43:45 6.9 C 68 % 1.41 C
2024 17-03-2009 20:55:44 6.5 C 68 % 1.03 C
2025 17-03-2009 21:07:44 6.3 C 70 % 1.24 C
Sensor: Nr:Datum:Temp:Feuchte:Taupunkt:
Aussen-T/F 2026 17-03-2009 21:19:44 6.2 C 71 % 1.34 C
2027 17-03-2009 21:31:44 5.7 C 71 % 0.86 C
2028 17-03-2009 21:43:44 5.7 C 73 % 1.25 C
2029 17-03-2009 21:56:45 5.5 C 73 % 1.06 C
2030 17-03-2009 22:08:45 5.3 C 74 % 1.05 C
2031 17-03-2009 22:20:46 5.1 C 75 % 1.04 C
2032 17-03-2009 22:32:46 4.9 C 77 % 1.22 C
2033 17-03-2009 22:44:46 4.8 C 77 % 1.12 C
2034 17-03-2009 22:56:46 4.7 C 77 % 1.02 C
2035 17-03-2009 23:08:46 4.6 C 77 % 0.92 C
2036 17-03-2009 23:20:46 4.3 C 77 % 0.63 C
2037 17-03-2009 23:32:46 4.2 C 78 % 0.71 C
2038 17-03-2009 23:44:46 4 C 79 % 0.7 C
2039 17-03-2009 23:56:46 3.8 C 80 % 0.68 C
2040 18-03-2009 00:08:46 3.6 C 81 % 0.65 C
2041 18-03-2009 00:20:46 3.3 C 81 % 0.36 C
2042 18-03-2009 00:32:46 3.2 C 82 % 0.43 C
2043 18-03-2009 00:44:46 2.9 C 83 % 0.31 C
2044 18-03-2009 00:56:46 2.8 C 82 % 0.04 C
2045 18-03-2009 01:08:46 2.7 C 83 % 0.11 C
2046 18-03-2009 01:20:46 2.6 C 83 % 0.01 C
2047 18-03-2009 01:32:46 2.4 C 83 % -0.18 C
2048 18-03-2009 01:44:46 2.2 C 83 % -0.38 C
2049 18-03-2009 01:56:46 2.1 C 83 % -0.48 C
2050 18-03-2009 02:08:47 1.9 C 84 % -0.51 C
Sensor: Nr:Datum:Temp:Feuchte:Taupunkt:
Aussen-T/F 2051 18-03-2009 02:20:47 1.8 C 84 % -0.61 C
2052 18-03-2009 02:32:47 1.5 C 84 % -0.9 C
2053 18-03-2009 02:44:47 1.5 C 85 % -0.74 C
2054 18-03-2009 02:56:47 1.4 C 85 % -0.84 C
2055 18-03-2009 03:08:47 1.2 C 85 % -1.03 C
2056 18-03-2009 03:20:47 0.9 C 85 % -1.33 C
2057 18-03-2009 03:32:47 0.8 C 85 % -1.43 C
2058 18-03-2009 03:44:47 0.6 C 85 % -1.62 C
2059 18-03-2009 03:56:47 0.4 C 85 % -1.82 C
2060 18-03-2009 04:08:47 0.3 C 85 % -1.92 C
2061 18-03-2009 04:20:47 0.2 C 86 % -1.86 C
2062 18-03-2009 04:32:47 0.1 C 86 % -1.96 C
2063 18-03-2009 04:44:47 0.1 C 87 % -1.8 C
2064 18-03-2009 04:56:47 0 C 87 % -1.9 C
2065 18-03-2009 05:08:47 -0.1 C 87 % -2 C
2066 18-03-2009 05:20:47 0 C 88 % -1.74 C
2067 18-03-2009 05:32:47 0 C 88 % -1.74 C
2068 18-03-2009 05:44:47 -0.1 C 88 % -1.84 C
2069 18-03-2009 05:56:47 -0.2 C 88 % -1.94 C
2070 18-03-2009 06:08:48 -0.2 C 88 % -1.94 C
2071 18-03-2009 06:20:48 -0.1 C 89 % -1.69 C
2072 18-03-2009 06:32:44 0 C 89 % -1.59 C
2073 18-03-2009 06:44:45 0 C 89 % -1.59 C
2074 18-03-2009 06:56:45 0.2 C 89 % -1.39 C
2075 18-03-2009 07:08:44 0.2 C 89 % -1.39 C
Sensor: Nr:Datum:Temp:Feuchte:Taupunkt:
Aussen-T/F 2076 18-03-2009 07:20:44 0.2 C 89 % -1.39 C
2077 18-03-2009 07:32:44 0.2 C 89 % -1.39 C
2078 18-03-2009 07:44:44 0.2 C 89 % -1.39 C
2079 18-03-2009 07:56:44 0.1 C 88 % -1.65 C
2080 18-03-2009 08:08:44 0.1 C 88 % -1.65 C
2081 18-03-2009 08:20:43 0.1 C 88 % -1.65 C
2082 18-03-2009 08:32:44 0.5 C 88 % -1.25 C
2083 18-03-2009 08:44:43 1.2 C 88 % -0.56 C
2084 18-03-2009 08:56:43 1.2 C 85 % -1.03 C
2085 18-03-2009 09:08:43 1.7 C 84 % -0.71 C
2086 18-03-2009 09:20:43 1.9 C 82 % -0.84 C
2087 18-03-2009 09:32:43 1.9 C 80 % -1.18 C
2088 18-03-2009 09:44:43 2.5 C 79 % -0.76 C
2089 18-03-2009 09:56:43 2.8 C 77 % -0.82 C
2090 18-03-2009 10:08:43 3.3 C 74 % -0.88 C
2091 18-03-2009 10:20:42 3.6 C 73 % -0.78 C
2092 18-03-2009 10:32:42 3.8 C 74 % -0.4 C
2093 18-03-2009 10:44:42 4.6 C 73 % 0.19 C
2094 18-03-2009 10:56:42 5.2 C 67 % -0.41 C
2095 18-03-2009 11:08:42 5.9 C 62 % -0.81 C
2096 18-03-2009 11:20:41 6.5 C 58 % -1.15 C
2097 18-03-2009 11:32:42 6.8 C 57 % -1.11 C
2098 18-03-2009 11:44:41 7.3 C 54 % -1.38 C
2099 18-03-2009 11:56:41 7.9 C 51 % -1.6 C
2100 18-03-2009 12:08:41 8.2 C 45 % -3.01 C
Sensor: Nr:Datum:Temp:Feuchte:Taupunkt:
Aussen-T/F 2101 18-03-2009 12:20:42 8.6 C 41 % -3.89 C
2102 18-03-2009 12:32:41 9.4 C 37 % -4.53 C
2103 18-03-2009 12:44:41 9.7 C 25 % -9.35 C
2104 18-03-2009 12:56:41 10.2 C 23 % -9.98 C
2105 18-03-2009 13:08:40 11 C 20 % -11.06 C
2106 18-03-2009 13:20:41 11.8 C 20 % -10.4 C
2107 18-03-2009 13:32:41 12.6 C 20 % -9.73 C
2108 18-03-2009 13:44:40 13 C 20 % -9.4 C
2109 18-03-2009 13:56:40 13.1 C 20 % -9.32 C
2110 18-03-2009 14:08:41 13.2 C 20 % -9.24 C
2111 18-03-2009 14:20:40 12.9 C 20 % -9.49 C
2112 18-03-2009 14:32:40 13.1 C 20 % -9.32 C
2113 18-03-2009 14:44:40 13.6 C 20 % -8.91 C
2114 18-03-2009 14:56:40 13.8 C 20 % -8.74 C
2115 18-03-2009 15:08:40 14.1 C 20 % -8.49 C
2116 18-03-2009 15:20:39 14 C 20 % -8.57 C
2117 18-03-2009 15:32:39 13.7 C 20 % -8.82 C
2118 18-03-2009 15:44:39 14.7 C 20 % -7.99 C
2119 18-03-2009 15:56:39 15.3 C 20 % -7.5 C
2120 18-03-2009 16:08:39 15.2 C 20 % -7.58 C
2121 18-03-2009 16:20:39 14.6 C 20 % -8.08 C
2122 18-03-2009 16:32:39 14.3 C 20 % -8.33 C
2123 18-03-2009 16:44:39 14 C 20 % -8.57 C
2124 18-03-2009 16:56:39 14.9 C 20 % -7.83 C
2125 18-03-2009 17:08:38 14.6 C 20 % -8.08 C
Sensor: Nr:Datum:Temp:Feuchte:Taupunkt:
Aussen-T/F 2126 18-03-2009 17:20:38 14.7 C 20 % -7.99 C
2127 18-03-2009 17:32:38 13.7 C 20 % -8.82 C
2128 18-03-2009 17:44:38 12.5 C 20 % -9.82 C
2129 18-03-2009 17:56:38 12.6 C 20 % -9.73 C
2130 18-03-2009 18:08:37 11.9 C 20 % -10.31 C
2131 18-03-2009 18:20:38 11.3 C 20 % -10.81 C
2132 18-03-2009 18:32:38 10.1 C 20 % -11.81 C
2133 18-03-2009 18:44:37 9.1 C 20 % -12.64 C
2134 18-03-2009 18:56:37 8.5 C 20 % -13.14 C
2135 18-03-2009 19:08:38 8.1 C 26 % -10.22 C
2136 18-03-2009 19:20:37 7.9 C 26 % -10.39 C
2137 18-03-2009 19:32:37 7.4 C 29 % -9.44 C
2138 18-03-2009 19:44:36 7.1 C 26 % -11.07 C
2139 18-03-2009 19:56:36 6.9 C 27 % -10.77 C
2140 18-03-2009 20:08:37 6.8 C 30 % -9.53 C
2141 18-03-2009 20:20:37 6.7 C 31 % -9.21 C
2142 18-03-2009 20:32:36 6.7 C 35 % -7.65 C
2143 18-03-2009 20:44:37 6.8 C 32 % -8.71 C
2144 18-03-2009 20:56:37 6.8 C 35 % -7.57 C
2145 18-03-2009 21:08:36 6.7 C 35 % -7.65 C
2146 18-03-2009 21:20:36 6.6 C 37 % -7.03 C
2147 18-03-2009 21:32:36 6.6 C 36 % -7.38 C
2148 18-03-2009 21:44:35 6.4 C 36 % -7.56 C
2149 18-03-2009 21:56:35 6 C 37 % -7.56 C
2150 18-03-2009 22:08:36 5.7 C 40 % -6.82 C
Sensor: Nr:Datum:Temp:Feuchte:Taupunkt:
Aussen-T/F 2151 18-03-2009 22:21:36 5.6 C 40 % -6.91 C
2152 18-03-2009 22:33:36 5.5 C 40 % -7 C
2153 18-03-2009 22:45:36 5.2 C 38 % -7.93 C
2154 18-03-2009 22:57:37 4.9 C 40 % -7.54 C
2155 18-03-2009 23:09:37 4.7 C 39 % -8.05 C
2156 18-03-2009 23:21:37 4.5 C 42 % -7.27 C
2157 18-03-2009 23:33:37 4.2 C 41 % -7.86 C
2158 18-03-2009 23:45:37 3.9 C 43 % -7.51 C
2159 18-03-2009 23:57:37 3.5 C 44 % -7.58 C
2160 19-03-2009 00:09:37 3.3 C 45 % -7.47 C
2161 19-03-2009 00:21:37 3.1 C 46 % -7.37 C
2162 19-03-2009 00:33:37 3 C 48 % -6.92 C
2163 19-03-2009 00:45:37 2.7 C 49 % -6.92 C
2164 19-03-2009 00:57:37 2.4 C 51 % -6.68 C
2165 19-03-2009 01:09:37 2.3 C 51 % -6.78 C
2166 19-03-2009 01:21:37 2.1 C 53 % -6.46 C
2167 19-03-2009 01:33:37 1.8 C 56 % -6.02 C
2168 19-03-2009 01:45:37 1.8 C 56 % -6.02 C
2169 19-03-2009 01:57:37 1.5 C 56 % -6.3 C
2170 19-03-2009 02:09:37 1.4 C 56 % -6.4 C
2171 19-03-2009 02:21:37 1.3 C 56 % -6.49 C
2172 19-03-2009 02:33:37 1.2 C 57 % -6.36 C
2173 19-03-2009 02:45:38 0.9 C 58 % -6.41 C
2174 19-03-2009 02:57:38 0.7 C 59 % -6.38 C
2175 19-03-2009 03:09:38 0.6 C 60 % -6.25 C
Sensor: Nr:Datum:Temp:Feuchte:Taupunkt:
Aussen-T/F 2176 19-03-2009 03:21:38 0.5 C 60 % -6.35 C
2177 19-03-2009 03:33:38 0.4 C 60 % -6.44 C
2178 19-03-2009 03:45:38 0.2 C 61 % -6.41 C
2179 19-03-2009 03:57:38 0.1 C 61 % -6.51 C
2180 19-03-2009 04:09:38 0 C 62 % -6.39 C
2181 19-03-2009 04:21:38 -0.2 C 63 % -6.38 C
2182 19-03-2009 04:33:38 -0.3 C 64 % -6.27 C
2183 19-03-2009 04:45:38 -0.4 C 65 % -6.16 C
2184 19-03-2009 04:57:38 -0.5 C 66 % -6.06 C
2185 19-03-2009 05:09:38 -0.6 C 66 % -6.16 C
2186 19-03-2009 05:21:38 -0.7 C 66 % -6.25 C
2187 19-03-2009 05:33:38 -0.8 C 67 % -6.15 C
2188 19-03-2009 05:45:38 -0.9 C 68 % -6.05 C
2189 19-03-2009 05:57:38 -1.1 C 68 % -6.24 C
2190 19-03-2009 06:09:38 -1.1 C 68 % -6.24 C
2191 19-03-2009 06:21:38 -1.2 C 67 % -6.53 C
2192 19-03-2009 06:33:39 -1.2 C 67 % -6.53 C
2193 19-03-2009 06:45:39 -1.3 C 68 % -6.43 C
2194 19-03-2009 06:57:39 -1.3 C 68 % -6.43 C
2195 19-03-2009 07:09:36 -1.5 C 67 % -6.82 C
2196 19-03-2009 07:21:36 -1.4 C 68 % -6.53 C
2197 19-03-2009 07:33:35 -1.3 C 68 % -6.43 C
2198 19-03-2009 07:45:35 -1.2 C 68 % -6.34 C
2199 19-03-2009 07:57:35 -1.1 C 68 % -6.24 C
2200 19-03-2009 08:09:35 -0.9 C 68 % -6.05 C
Sensor: Nr:Datum:Temp:Feuchte:Taupunkt:
Aussen-T/F 2201 19-03-2009 08:21:35 -0.8 C 69 % -5.77 C
2202 19-03-2009 08:33:35 -0.3 C 69 % -5.29 C
2203 19-03-2009 08:45:35 0.4 C 67 % -5 C
2204 19-03-2009 08:57:35 0.9 C 64 % -5.12 C
2205 19-03-2009 09:09:35 1.6 C 60 % -5.31 C
2206 19-03-2009 09:21:34 1.9 C 58 % -5.47 C
2207 19-03-2009 09:33:34 2 C 53 % -6.55 C
2208 19-03-2009 09:45:34 2.2 C 52 % -6.62 C
2209 19-03-2009 09:57:34 2.5 C 54 % -5.85 C
2210 19-03-2009 10:09:34 2.8 C 53 % -5.81 C
2211 19-03-2009 10:21:34 3.2 C 50 % -6.2 C
2212 19-03-2009 10:33:34 4.1 C 49 % -5.63 C
2213 19-03-2009 10:45:34 4.6 C 47 % -5.72 C
2214 19-03-2009 10:57:34 5.3 C 45 % -5.65 C
2215 19-03-2009 11:09:33 5.6 C 44 % -5.67 C
2216 19-03-2009 11:21:34 6.5 C 42 % -5.46 C
2217 19-03-2009 11:33:33 6.5 C 40 % -6.1 C
2218 19-03-2009 11:45:33 7.1 C 41 % -5.24 C
2219 19-03-2009 11:57:33 7.3 C 38 % -6.05 C
2220 19-03-2009 12:09:32 7.6 C 38 % -5.79 C
2221 19-03-2009 12:21:33 8.7 C 34 % -6.26 C
2222 19-03-2009 12:33:33 9.5 C 27 % -8.54 C
2223 19-03-2009 12:45:32 9.8 C 25 % -9.26 C
2224 19-03-2009 12:57:32 9.9 C 25 % -9.18 C
2225 19-03-2009 13:09:33 10.7 C 23 % -9.56 C
Sensor: Nr:Datum:Temp:Feuchte:Taupunkt:
Aussen-T/F 2226 19-03-2009 13:21:32 11.1 C 20 % -10.98 C
2227 19-03-2009 13:33:32 11.9 C 21 % -9.7 C
2228 19-03-2009 13:45:32 13.5 C 20 % -8.99 C
2229 19-03-2009 13:57:32 14 C 20 % -8.57 C
2230 19-03-2009 14:09:32 14.2 C 20 % -8.41 C
2231 19-03-2009 14:21:31 14.7 C 20 % -7.99 C
2232 19-03-2009 14:33:31 14.3 C 20 % -8.33 C
2233 19-03-2009 14:45:32 15.7 C 20 % -7.17 C
2234 19-03-2009 14:57:32 15.8 C 20 % -7.08 C
2235 19-03-2009 15:09:31 14.4 C 20 % -8.24 C
2236 19-03-2009 15:21:31 15.2 C 20 % -7.58 C
2237 19-03-2009 15:33:30 15.2 C 20 % -7.58 C
2238 19-03-2009 15:45:31 16.5 C 20 % -6.5 C
2239 19-03-2009 15:57:31 15.1 C 20 % -7.66 C
2240 19-03-2009 16:09:30 13.8 C 20 % -8.74 C
2241 19-03-2009 16:21:30 13.2 C 20 % -9.24 C
2242 19-03-2009 16:33:31 13.5 C 20 % -8.99 C
2243 19-03-2009 16:45:30 12.7 C 20 % -9.65 C
2244 19-03-2009 16:57:30 12.4 C 20 % -9.9 C
2245 19-03-2009 17:09:30 12.3 C 20 % -9.98 C
2246 19-03-2009 17:21:30 12.5 C 20 % -9.82 C
2247 19-03-2009 17:33:30 12.5 C 20 % -9.82 C
2248 19-03-2009 17:45:29 11.8 C 20 % -10.4 C
2249 19-03-2009 17:57:29 11.1 C 20 % -10.98 C
2250 19-03-2009 18:09:30 10.9 C 20 % -11.14 C
Sensor: Nr:Datum:Temp:Feuchte:Taupunkt:
Aussen-T/F 2251 19-03-2009 18:21:29 10.2 C 20 % -11.73 C
2252 19-03-2009 18:33:29 9.8 C 20 % -12.06 C
2253 19-03-2009 18:45:28 9.3 C 20 % -12.47 C
2254 19-03-2009 18:57:28 8.9 C 26 % -9.53 C
2255 19-03-2009 19:09:29 8.8 C 26 % -9.62 C
2256 19-03-2009 19:21:29 8.3 C 28 % -9.11 C
2257 19-03-2009 19:33:28 7.9 C 30 % -8.58 C
2258 19-03-2009 19:45:29 7.6 C 30 % -8.84 C
2259 19-03-2009 19:57:29 7.4 C 31 % -8.59 C
2260 19-03-2009 20:09:28 7.4 C 31 % -8.59 C
2261 19-03-2009 20:21:29 7.2 C 32 % -8.36 C
2262 19-03-2009 20:33:28 6.9 C 35 % -7.48 C
2263 19-03-2009 20:45:27 6.7 C 36 % -7.29 C
2264 19-03-2009 20:57:27 6.3 C 38 % -6.95 C
2265 19-03-2009 21:09:27 6 C 37 % -7.56 C
2266 19-03-2009 21:21:28 5.8 C 38 % -7.4 C
2267 19-03-2009 21:33:27 5.6 C 39 % -7.24 C
2268 19-03-2009 21:45:27 5.3 C 40 % -7.18 C
2269 19-03-2009 21:57:27 5.1 C 40 % -7.36 C
2270 19-03-2009 22:09:28 4.9 C 42 % -6.91 C
2271 19-03-2009 22:22:28 4.7 C 43 % -6.79 C
2272 19-03-2009 22:34:28 4.5 C 42 % -7.27 C
2273 19-03-2009 22:46:28 4.2 C 44 % -6.94 C
2274 19-03-2009 22:58:28 4.1 C 43 % -7.33 C
2275 19-03-2009 23:10:28 3.7 C 47 % -6.55 C
Sensor: Nr:Datum:Temp:Feuchte:Taupunkt:
Aussen-T/F 2276 19-03-2009 23:22:28 3.6 C 47 % -6.64 C
2277 19-03-2009 23:34:29 3.5 C 47 % -6.73 C
2278 19-03-2009 23:46:29 3.3 C 48 % -6.64 C
2279 19-03-2009 23:58:29 3.1 C 49 % -6.56 C
2280 20-03-2009 00:10:29 2.9 C 51 % -6.22 C
2281 20-03-2009 00:22:29 2.7 C 53 % -5.9 C
2282 20-03-2009 00:34:29 2.5 C 54 % -5.85 C
2283 20-03-2009 00:46:29 2.4 C 54 % -5.94 C
2284 20-03-2009 00:58:29 2.3 C 55 % -5.79 C
2285 20-03-2009 01:10:29 2 C 56 % -5.84 C
2286 20-03-2009 01:22:29 1.9 C 58 % -5.47 C
2287 20-03-2009 01:34:29 1.8 C 59 % -5.34 C
2288 20-03-2009 01:46:29 1.4 C 59 % -5.72 C
2289 20-03-2009 01:58:29 1.3 C 60 % -5.59 C
2290 20-03-2009 02:10:29 1.1 C 60 % -5.78 C
2291 20-03-2009 02:22:29 0.8 C 62 % -5.63 C
2292 20-03-2009 02:34:29 0.5 C 61 % -6.13 C
2293 20-03-2009 02:46:29 0.4 C 63 % -5.8 C
2294 20-03-2009 02:58:29 0.2 C 63 % -5.99 C
2295 20-03-2009 03:10:29 0.1 C 64 % -5.88 C
2296 20-03-2009 03:22:29 0 C 65 % -5.78 C
2297 20-03-2009 03:34:30 0 C 65 % -5.78 C
2298 20-03-2009 03:46:30 -0.2 C 65 % -5.97 C
2299 20-03-2009 03:58:30 -0.3 C 66 % -5.87 C
2300 20-03-2009 04:10:30 -0.5 C 66 % -6.06 C
Sensor: Nr:Datum:Temp:Feuchte:Taupunkt:
Aussen-T/F 2301 20-03-2009 04:22:30 -0.7 C 67 % -6.05 C
2302 20-03-2009 04:34:30 -0.7 C 66 % -6.25 C
2303 20-03-2009 04:46:30 -0.6 C 66 % -6.16 C
2304 20-03-2009 04:58:30 -0.4 C 63 % -6.57 C
2305 20-03-2009 05:10:30 -0.4 C 60 % -7.2 C
2306 20-03-2009 05:22:30 -0.3 C 59 % -7.33 C
2307 20-03-2009 05:34:30 -0.5 C 60 % -7.3 C
2308 20-03-2009 05:46:30 -0.4 C 59 % -7.42 C
2309 20-03-2009 05:58:30 -0.6 C 58 % -7.83 C
2310 20-03-2009 06:10:30 -0.4 C 55 % -8.33 C
2311 20-03-2009 06:22:30 -0.4 C 56 % -8.09 C
2312 20-03-2009 06:34:30 -0.8 C 60 % -7.58 C
2313 20-03-2009 06:46:27 -0.9 C 62 % -7.25 C
2314 20-03-2009 06:58:27 -0.9 C 62 % -7.25 C
2315 20-03-2009 07:10:27 -1.1 C 61 % -7.65 C
2316 20-03-2009 07:22:28 -1.1 C 62 % -7.44 C
2317 20-03-2009 07:34:27 -1 C 61 % -7.56 C
2318 20-03-2009 07:46:27 -0.7 C 60 % -7.49 C
2319 20-03-2009 07:58:27 -0.4 C 60 % -7.2 C
2320 20-03-2009 08:10:27 -0.6 C 60 % -7.39 C
2321 20-03-2009 08:22:27 -0.6 C 60 % -7.39 C
2322 20-03-2009 08:34:26 -0.4 C 62 % -6.78 C
2323 20-03-2009 08:46:26 -0.1 C 62 % -6.5 C
2324 20-03-2009 08:58:26 0.3 C 58 % -6.97 C
2325 20-03-2009 09:10:26 0.8 C 56 % -6.96 C
Sensor: Nr:Datum:Temp:Feuchte:Taupunkt:
Aussen-T/F 2326 20-03-2009 09:22:26 1.5 C 52 % -7.27 C
2327 20-03-2009 09:34:26 2.5 C 45 % -8.2 C
2328 20-03-2009 09:46:25 3.1 C 45 % -7.66 C
2329 20-03-2009 09:58:25 3.5 C 45 % -7.29 C
2330 20-03-2009 10:10:26 3.9 C 40 % -8.44 C
2331 20-03-2009 10:22:26 4.6 C 32 % -10.64 C
2332 20-03-2009 10:34:25 5.1 C 25 % -13.27 C
2333 20-03-2009 10:46:25 5.6 C 20 % -15.55 C
2334 20-03-2009 10:58:25 6 C 20 % -15.22 C
2335 20-03-2009 11:10:25 6.4 C 20 % -14.89 C
2336 20-03-2009 11:22:25 6.4 C 20 % -14.89 C
2337 20-03-2009 11:34:24 6.4 C 20 % -14.89 C
2338 20-03-2009 11:46:25 6.8 C 20 % -14.55 C
2339 20-03-2009 11:58:25 7.7 C 20 % -13.8 C
2340 20-03-2009 12:10:24 7.9 C 20 % -13.64 C
2341 20-03-2009 12:22:24 7.9 C 20 % -13.64 C
2342 20-03-2009 12:34:24 8.5 C 20 % -13.14 C
2343 20-03-2009 12:46:24 8.7 C 20 % -12.97 C
2344 20-03-2009 12:58:24 9.3 C 20 % -12.47 C
2345 20-03-2009 13:10:24 9.2 C 20 % -12.56 C
2346 20-03-2009 13:22:23 9.2 C 20 % -12.56 C
2347 20-03-2009 13:34:24 9.5 C 20 % -12.31 C
2348 20-03-2009 13:46:23 9.8 C 20 % -12.06 C
2349 20-03-2009 13:58:23 10.5 C 20 % -11.48 C
2350 20-03-2009 14:10:23 11.3 C 20 % -10.81 C
Sensor: Nr:Datum:Temp:Feuchte:Taupunkt:
Aussen-T/F 2351 20-03-2009 14:22:24 11.4 C 20 % -10.73 C
2352 20-03-2009 14:34:23 11.6 C 20 % -10.56 C
2353 20-03-2009 14:46:23 12 C 20 % -10.23 C
2354 20-03-2009 14:58:23 12.4 C 20 % -9.9 C
2355 20-03-2009 15:10:22 10.4 C 20 % -11.56 C
2356 20-03-2009 15:22:23 12.5 C 20 % -9.82 C
2357 20-03-2009 15:34:22 13.1 C 20 % -9.32 C
2358 20-03-2009 15:46:22 12.4 C 20 % -9.9 C
2359 20-03-2009 15:58:23 13.2 C 20 % -9.24 C
2360 20-03-2009 16:10:22 13.9 C 20 % -8.66 C
2361 20-03-2009 16:22:22 13.8 C 20 % -8.74 C
2362 20-03-2009 16:34:22 14 C 20 % -8.57 C
2363 20-03-2009 16:46:22 14.1 C 20 % -8.49 C
2364 20-03-2009 16:58:22 14 C 20 % -8.57 C
2365 20-03-2009 17:10:22 13.8 C 20 % -8.74 C
2366 20-03-2009 17:22:21 13.8 C 20 % -8.74 C
2367 20-03-2009 17:34:21 13.7 C 20 % -8.82 C
2368 20-03-2009 17:46:21 13 C 20 % -9.4 C
2369 20-03-2009 17:58:21 12.4 C 20 % -9.9 C
2370 20-03-2009 18:10:21 11.8 C 20 % -10.4 C
2371 20-03-2009 18:22:21 10.8 C 20 % -11.23 C
2372 20-03-2009 18:34:21 9.5 C 20 % -12.31 C
2373 20-03-2009 18:46:21 8 C 20 % -13.56 C
2374 20-03-2009 18:58:21 7 C 20 % -14.39 C
2375 20-03-2009 19:10:20 6.1 C 23 % -13.44 C
Sensor: Nr:Datum:Temp:Feuchte:Taupunkt:
Aussen-T/F 2376 20-03-2009 19:22:20 5.6 C 27 % -11.89 C
2377 20-03-2009 19:34:20 5.3 C 28 % -11.7 C
2378 20-03-2009 19:46:20 5 C 30 % -11.1 C
2379 20-03-2009 19:58:20 4.6 C 30 % -11.45 C
2380 20-03-2009 20:10:19 4.4 C 33 % -10.43 C
2381 20-03-2009 20:22:20 4.1 C 36 % -9.6 C
2382 20-03-2009 20:34:20 4.1 C 35 % -9.96 C
2383 20-03-2009 20:46:19 3.9 C 36 % -9.78 C
2384 20-03-2009 20:58:19 3.6 C 37 % -9.7 C
2385 20-03-2009 21:10:19 3.5 C 39 % -9.12 C
2386 20-03-2009 21:22:19 3.3 C 39 % -9.3 C
2387 20-03-2009 21:34:18 3.1 C 40 % -9.16 C
2388 20-03-2009 21:46:19 2.8 C 41 % -9.12 C
2389 20-03-2009 21:58:19 2.7 C 42 % -8.9 C
2390 20-03-2009 22:10:19 2.4 C 42 % -9.18 C
2391 20-03-2009 22:22:18 2.3 C 45 % -8.39 C
2392 20-03-2009 22:34:19 2 C 45 % -8.66 C
2393 20-03-2009 22:46:18 1.8 C 46 % -8.56 C
2394 20-03-2009 22:58:18 1.6 C 45 % -9.03 C
2395 20-03-2009 23:10:18 1.4 C 46 % -8.93 C
2396 20-03-2009 23:22:18 1.2 C 47 % -8.84 C
2397 20-03-2009 23:34:18 1.2 C 47 % -8.84 C
2398 20-03-2009 23:46:17 0.9 C 49 % -8.58 C
2399 20-03-2009 23:58:17 0.7 C 51 % -8.26 C
2400 21-03-2009 00:10:17 0.5 C 52 % -8.19 C
Sensor: Nr:Datum:Temp:Feuchte:Taupunkt:
Aussen-T/F 2401 21-03-2009 00:22:18 0.4 C 52 % -8.29 C
2402 21-03-2009 00:34:17 0.2 C 51 % -8.72 C
2403 21-03-2009 00:46:17 0.2 C 51 % -8.72 C
2404 21-03-2009 00:58:17 0.1 C 53 % -8.32 C
2405 21-03-2009 01:10:17 -0.1 C 53 % -8.52 C
2406 21-03-2009 01:22:17 -0.2 C 52 % -8.86 C
2407 21-03-2009 01:34:17 -0.4 C 53 % -8.8 C
2408 21-03-2009 01:46:16 -0.4 C 54 % -8.56 C
2409 21-03-2009 01:58:16 -0.5 C 53 % -8.89 C
2410 21-03-2009 02:10:17 -0.6 C 54 % -8.75 C
2411 21-03-2009 02:22:16 -0.6 C 55 % -8.51 C
2412 21-03-2009 02:34:16 -0.7 C 55 % -8.61 C
2413 21-03-2009 02:47:01 -0.9 C 56 % -8.56 C
2414 21-03-2009 02:59:01 -0.9 C 56 % -8.56 C
2415 21-03-2009 03:11:02 -1 C 56 % -8.66 C
2416 21-03-2009 03:23:02 -1.3 C 56 % -8.94 C
2417 21-03-2009 03:35:01 -1.4 C 57 % -8.81 C
2418 21-03-2009 03:47:01 -1.4 C 57 % -8.81 C
2419 21-03-2009 03:59:01 -1.5 C 57 % -8.9 C
2420 21-03-2009 04:11:02 -1.5 C 57 % -8.9 C
2421 21-03-2009 04:23:01 -1.4 C 59 % -8.36 C
2422 21-03-2009 04:35:01 -1.4 C 58 % -8.58 C
2423 21-03-2009 04:47:01 -1.3 C 58 % -8.49 C
2424 21-03-2009 04:59:01 -1.1 C 59 % -8.08 C
2425 21-03-2009 05:11:02 -1.1 C 59 % -8.08 C
Sensor: Nr:Datum:Temp:Feuchte:Taupunkt:
Aussen-T/F 2426 21-03-2009 05:23:01 -1.3 C 58 % -8.49 C
2427 21-03-2009 05:35:02 -1.4 C 60 % -8.15 C
2428 21-03-2009 05:47:02 -1.6 C 60 % -8.34 C
2429 21-03-2009 05:59:02 -1.7 C 60 % -8.43 C
2430 21-03-2009 06:11:01 -1.9 C 60 % -8.62 C
2431 21-03-2009 06:23:01 -2.1 C 60 % -8.81 C
2432 21-03-2009 06:35:02 -2.1 C 62 % -8.39 C
2433 21-03-2009 06:47:01 -2.1 C 63 % -8.19 C
2434 21-03-2009 06:59:01 -2.1 C 62 % -8.39 C
2435 21-03-2009 07:11:02 -2.1 C 63 % -8.19 C
2436 21-03-2009 07:23:01 -2.1 C 63 % -8.19 C
2437 21-03-2009 07:35:02 -2 C 63 % -8.09 C
2438 21-03-2009 07:47:01 -2 C 64 % -7.89 C
2439 21-03-2009 07:59:01 -1.9 C 65 % -7.59 C
2440 21-03-2009 08:11:01 -1.8 C 64 % -7.7 C
2441 21-03-2009 08:23:01 -1.7 C 64 % -7.6 C
2442 21-03-2009 08:35:01 -1.6 C 62 % -7.92 C
2443 21-03-2009 08:47:02 -1.4 C 61 % -7.94 C
2444 21-03-2009 08:59:02 -1 C 60 % -7.77 C
2445 21-03-2009 09:11:01 -0.3 C 59 % -7.33 C
2446 21-03-2009 09:23:02 0.2 C 56 % -7.52 C
2447 21-03-2009 09:35:01 0.9 C 51 % -8.07 C
2448 21-03-2009 09:47:02 1.7 C 47 % -8.38 C
2449 21-03-2009 09:59:02 1.9 C 47 % -8.2 C
2450 21-03-2009 10:11:01 2.8 C 45 % -7.93 C
Sensor: Nr:Datum:Temp:Feuchte:Taupunkt:
Aussen-T/F 2451 21-03-2009 10:23:01 3.2 C 43 % -8.15 C
2452 21-03-2009 10:35:02 3.9 C 42 % -7.82 C
2453 21-03-2009 10:47:01 4.5 C 39 % -8.23 C
2454 21-03-2009 10:59:01 4.8 C 37 % -8.63 C
2455 21-03-2009 11:11:02 5.2 C 36 % -8.62 C
2456 21-03-2009 11:23:01 5.7 C 33 % -9.29 C
2457 21-03-2009 11:35:02 6.2 C 30 % -10.06 C
2458 21-03-2009 11:47:01 6.7 C 29 % -10.05 C
2459 21-03-2009 11:59:01 7.3 C 20 % -14.14 C
2460 21-03-2009 12:11:02 7.8 C 25 % -10.97 C
2461 21-03-2009 12:23:01 8.1 C 23 % -11.75 C
2462 21-03-2009 12:35:01 8.9 C 20 % -12.81 C
2463 21-03-2009 12:47:01 9.3 C 20 % -12.47 C
2464 21-03-2009 12:59:01 9.7 C 20 % -12.14 C
2465 21-03-2009 13:11:01 10.1 C 20 % -11.81 C
2466 21-03-2009 13:23:02 10.5 C 20 % -11.48 C
2467 21-03-2009 13:35:01 11.4 C 20 % -10.73 C
2468 21-03-2009 13:47:02 12 C 20 % -10.23 C
2469 21-03-2009 13:59:02 12.4 C 20 % -9.9 C
2470 21-03-2009 14:11:01 12.7 C 20 % -9.65 C
2471 21-03-2009 14:23:01 12.2 C 20 % -10.07 C
2472 21-03-2009 14:35:01 13.4 C 20 % -9.07 C
2473 21-03-2009 14:47:01 13.7 C 20 % -8.82 C
2474 21-03-2009 14:59:01 14.4 C 20 % -8.24 C
2475 21-03-2009 15:11:02 14.9 C 20 % -7.83 C
Sensor: Nr:Datum:Temp:Feuchte:Taupunkt:
Aussen-T/F 2476 21-03-2009 15:23:01 15.2 C 20 % -7.58 C
2477 21-03-2009 15:35:02 15.1 C 20 % -7.66 C
2478 21-03-2009 15:47:01 15.8 C 20 % -7.08 C
2479 21-03-2009 15:59:01 14.4 C 20 % -8.24 C
2480 21-03-2009 16:11:02 14.4 C 20 % -8.24 C
2481 21-03-2009 16:23:01 15.5 C 20 % -7.33 C
2482 21-03-2009 16:35:01 16.4 C 20 % -6.59 C
2483 21-03-2009 16:47:01 16.7 C 20 % -6.34 C
2484 21-03-2009 16:59:01 15.9 C 20 % -7 C
2485 21-03-2009 17:11:01 15.6 C 20 % -7.25 C
2486 21-03-2009 17:23:02 15.2 C 20 % -7.58 C
2487 21-03-2009 17:35:01 15 C 20 % -7.75 C
2488 21-03-2009 17:47:02 14.6 C 20 % -8.08 C
2489 21-03-2009 17:59:02 14 C 20 % -8.57 C
2490 21-03-2009 18:11:01 12.3 C 20 % -9.98 C
2491 21-03-2009 18:23:01 11.7 C 20 % -10.48 C
2492 21-03-2009 18:35:01 11.1 C 20 % -10.98 C
2493 21-03-2009 18:47:01 10.2 C 20 % -11.73 C
2494 21-03-2009 18:59:01 9.7 C 20 % -12.14 C
2495 21-03-2009 19:11:01 9.3 C 25 % -9.69 C
2496 21-03-2009 19:23:02 9 C 27 % -8.97 C
2497 21-03-2009 19:35:01 8.7 C 30 % -7.88 C
2498 21-03-2009 19:47:02 8.4 C 31 % -7.72 C
2499 21-03-2009 19:59:02 8 C 32 % -7.66 C
2500 21-03-2009 20:11:01 7.9 C 33 % -7.35 C
Sensor: Nr:Datum:Temp:Feuchte:Taupunkt:
Aussen-T/F 2501 21-03-2009 20:23:02 7.8 C 34 % -7.06 C
2502 21-03-2009 20:35:01 7.6 C 35 % -6.86 C
2503 21-03-2009 20:47:02 7.4 C 36 % -6.67 C
2504 21-03-2009 20:59:02 7.1 C 38 % -6.23 C
2505 21-03-2009 21:11:01 6.9 C 38 % -6.41 C
2506 21-03-2009 21:23:02 6.6 C 40 % -6.01 C
2507 21-03-2009 21:35:01 6.4 C 41 % -5.87 C
2508 21-03-2009 21:47:02 6 C 43 % -5.61 C
2509 21-03-2009 21:59:02 5.6 C 45 % -5.38 C
2510 21-03-2009 22:11:44 5.2 C 46 % -5.45 C
2511 21-03-2009 22:23:44 4.9 C 48 % -5.17 C
2512 21-03-2009 22:35:01 4.7 C 48 % -5.35 C
2513 21-03-2009 22:47:07 4.5 C 48 % -5.54 C
2514 21-03-2009 22:59:07 4.3 C 48 % -5.72 C
2515 21-03-2009 23:11:07 4.3 C 46 % -6.28 C
2516 21-03-2009 23:23:07 4.1 C 47 % -6.18 C
2517 21-03-2009 23:35:07 3.9 C 48 % -6.09 C
2518 21-03-2009 23:47:07 3.6 C 49 % -6.1 C
2519 21-03-2009 23:59:07 3.4 C 50 % -6.02 C
2520 22-03-2009 00:11:07 3.2 C 51 % -5.94 C
2521 22-03-2009 00:23:07 3 C 51 % -6.13 C
2522 22-03-2009 00:35:07 2.8 C 53 % -5.81 C
2523 22-03-2009 00:47:07 2.6 C 53 % -6 C
2524 22-03-2009 00:59:07 2.5 C 53 % -6.09 C
2525 22-03-2009 01:11:07 2.4 C 54 % -5.94 C
Sensor: Nr:Datum:Temp:Feuchte:Taupunkt:
Aussen-T/F 2526 22-03-2009 01:23:07 2.2 C 54 % -6.12 C
2527 22-03-2009 01:35:07 2 C 55 % -6.07 C
2528 22-03-2009 01:47:07 2 C 55 % -6.07 C
2529 22-03-2009 01:59:07 1.9 C 56 % -5.93 C
2530 22-03-2009 02:11:07 1.8 C 57 % -5.79 C
2531 22-03-2009 02:23:08 1.5 C 58 % -5.85 C
2532 22-03-2009 02:35:08 1.4 C 59 % -5.72 C
2533 22-03-2009 02:47:08 1.2 C 59 % -5.91 C
2534 22-03-2009 02:59:08 1.1 C 60 % -5.78 C
2535 22-03-2009 03:11:08 1.4 C 58 % -5.94 C
2536 22-03-2009 03:23:08 1.4 C 57 % -6.17 C
2537 22-03-2009 03:35:08 1.1 C 58 % -6.22 C
2538 22-03-2009 03:47:08 0.9 C 60 % -5.97 C
2539 22-03-2009 03:59:08 0.7 C 61 % -5.94 C
2540 22-03-2009 04:11:08 0.5 C 63 % -5.71 C
2541 22-03-2009 04:23:08 0.6 C 62 % -5.82 C
2542 22-03-2009 04:35:08 0.6 C 61 % -6.04 C
2543 22-03-2009 04:47:08 0.6 C 62 % -5.82 C
2544 22-03-2009 04:59:08 0.3 C 62 % -6.11 C
2545 22-03-2009 05:11:08 0.1 C 64 % -5.88 C
2546 22-03-2009 05:23:08 0.1 C 64 % -5.88 C
2547 22-03-2009 05:35:08 0.3 C 63 % -5.9 C
2548 22-03-2009 05:47:08 -0.1 C 64 % -6.08 C
2549 22-03-2009 05:59:08 -0.3 C 66 % -5.87 C
2550 22-03-2009 06:11:08 -0.4 C 67 % -5.77 C
Sensor: Nr:Datum:Temp:Feuchte:Taupunkt:
Aussen-T/F 2551 22-03-2009 06:23:08 -0.4 C 68 % -5.57 C
2552 22-03-2009 06:35:09 -0.4 C 68 % -5.57 C
2553 22-03-2009 06:47:09 -0.4 C 68 % -5.57 C
2554 22-03-2009 06:59:09 -0.3 C 69 % -5.29 C
2555 22-03-2009 07:11:07 -0.3 C 68 % -5.48 C
2556 22-03-2009 07:23:07 0 C 68 % -5.18 C
2557 22-03-2009 07:35:07 0.3 C 67 % -5.09 C
2558 22-03-2009 07:47:06 0.7 C 67 % -4.71 C
2559 22-03-2009 07:59:06 1 C 66 % -4.62 C
2560 22-03-2009 08:11:07 1.1 C 67 % -4.33 C
2561 22-03-2009 08:23:06 1.1 C 67 % -4.33 C
2562 22-03-2009 08:35:06 1.4 C 67 % -4.04 C
2563 22-03-2009 08:47:06 1.6 C 66 % -4.05 C
2564 22-03-2009 08:59:06 1.7 C 68 % -3.56 C
2565 22-03-2009 09:11:06 1.8 C 69 % -3.27 C
2566 22-03-2009 09:23:06 1.9 C 72 % -2.6 C
2567 22-03-2009 09:35:05 2.1 C 72 % -2.41 C
2568 22-03-2009 09:47:06 2.3 C 71 % -2.4 C
2569 22-03-2009 09:59:06 2.1 C 69 % -2.98 C
2570 22-03-2009 10:11:05 2.5 C 70 % -2.4 C
2571 22-03-2009 10:23:05 2.5 C 69 % -2.6 C
2572 22-03-2009 10:35:05 2.7 C 69 % -2.4 C
2573 22-03-2009 10:47:05 2.8 C 68 % -2.51 C
2574 22-03-2009 10:59:05 3.1 C 67 % -2.42 C
2575 22-03-2009 11:11:04 3.3 C 66 % -2.43 C
Sensor: Nr:Datum:Temp:Feuchte:Taupunkt:
Aussen-T/F 2576 22-03-2009 11:23:05 3.7 C 65 % -2.25 C
2577 22-03-2009 11:35:04 4.1 C 65 % -1.87 C
2578 22-03-2009 11:47:04 4.4 C 66 % -1.38 C
2579 22-03-2009 11:59:04 5 C 69 % -0.2 C
2580 22-03-2009 12:11:04 5.8 C 75 % 1.72 C
2581 22-03-2009 12:23:04 6.2 C 74 % 1.92 C
2582 22-03-2009 12:35:04 6.7 C 72 % 2.02 C
2583 22-03-2009 12:47:04 7 C 68 % 1.51 C
2584 22-03-2009 12:59:04 7.7 C 66 % 1.76 C
2585 22-03-2009 13:11:04 8.3 C 61 % 1.23 C
2586 22-03-2009 13:23:03 8.9 C 52 % -0.41 C
2587 22-03-2009 13:35:03 9.5 C 47 % -1.23 C
2588 22-03-2009 13:47:03 9.5 C 46 % -1.53 C
2589 22-03-2009 13:59:03 9 C 47 % -1.69 C
2590 22-03-2009 14:11:03 9.5 C 45 % -1.82 C
2591 22-03-2009 14:23:03 9.3 C 45 % -2.01 C
2592 22-03-2009 14:35:02 9.6 C 44 % -2.04 C
2593 22-03-2009 14:47:03 9.9 C 42 % -2.39 C
2594 22-03-2009 14:59:03 10 C 40 % -2.96 C
2595 22-03-2009 15:11:02 10.3 C 40 % -2.69 C
2596 22-03-2009 15:23:02 10.4 C 39 % -2.94 C
2597 22-03-2009 15:35:02 10.2 C 40 % -2.78 C
2598 22-03-2009 15:47:02 10.4 C 39 % -2.94 C
2599 22-03-2009 15:59:02 10 C 38 % -3.64 C
2600 22-03-2009 16:11:02 10.2 C 39 % -3.12 C
Sensor: Nr:Datum:Temp:Feuchte:Taupunkt:
Aussen-T/F 2601 22-03-2009 16:23:01 10.2 C 39 % -3.12 C
2602 22-03-2009 16:35:02 10.5 C 38 % -3.2 C
2603 22-03-2009 16:47:01 10.7 C 36 % -3.74 C
2604 22-03-2009 16:59:01 10.4 C 36 % -4.01 C
2605 22-03-2009 17:11:01 10.7 C 36 % -3.74 C
2606 22-03-2009 17:23:01 10.5 C 37 % -3.55 C
2607 22-03-2009 17:35:01 10.3 C 37 % -3.73 C
2608 22-03-2009 17:47:01 10 C 38 % -3.64 C
2609 22-03-2009 17:59:01 9.9 C 39 % -3.39 C
2610 22-03-2009 18:11:00 9.7 C 40 % -3.23 C
2611 22-03-2009 18:23:01 9.7 C 40 % -3.23 C
2612 22-03-2009 18:35:00 9.5 C 40 % -3.41 C
2613 22-03-2009 18:47:00 9.3 C 41 % -3.26 C
2614 22-03-2009 18:59:00 9.3 C 41 % -3.26 C
2615 22-03-2009 19:11:00 9.1 C 41 % -3.44 C
2616 22-03-2009 19:23:00 8.9 C 43 % -2.98 C
2617 22-03-2009 19:35:00 8.9 C 43 % -2.98 C
2618 22-03-2009 19:58:59 8.6 C 44 % -2.94 C
2619 22-03-2009 19:59:00 8.4 C 45 % -2.83 C
2620 22-03-2009 20:11:00 8.4 C 45 % -2.83 C
2621 22-03-2009 20:23:59 8.4 C 45 % -2.83 C
2622 22-03-2009 20:35:59 8.4 C 45 % -2.83 C
2623 22-03-2009 20:47:59 8.4 C 45 % -2.83 C
2624 22-03-2009 20:59:58 8.5 C 45 % -2.73 C
2625 22-03-2009 21:11:58 8.4 C 45 % -2.83 C
Sensor: Nr:Datum:Temp:Feuchte:Taupunkt:
Aussen-T/F 2626 22-03-2009 21:23:59 8.3 C 46 % -2.62 C
2627 22-03-2009 21:35:59 8.2 C 46 % -2.71 C
2628 22-03-2009 21:47:59 8.1 C 46 % -2.8 C
2629 22-03-2009 22:00:59 8 C 47 % -2.61 C
2630 22-03-2009 22:12:59 7.7 C 53 % -1.26 C
2631 22-03-2009 22:24:59 7.7 C 54 % -1 C
2632 22-03-2009 22:36:59 7.5 C 58 % -0.21 C
2633 22-03-2009 22:48:59 7.3 C 59 % -0.17 C
2634 22-03-2009 23:00:59 7.5 C 58 % -0.21 C
2635 22-03-2009 23:12:59 7.5 C 57 % -0.45 C
2636 22-03-2009 23:24:59 7.6 C 57 % -0.36 C
2637 22-03-2009 23:37:00 7.5 C 59 % 0.02 C
2638 22-03-2009 23:49:00 7.6 C 58 % -0.12 C
2639 23-03-2009 00:01:00 7.5 C 58 % -0.21 C
2640 23-03-2009 00:13:00 7.5 C 58 % -0.21 C
2641 23-03-2009 00:24:00 7.5 C 58 % -0.21 C
2642 23-03-2009 00:36:00 7.5 C 59 % 0.02 C
2643 23-03-2009 00:48:00 7.5 C 59 % 0.02 C
2644 23-03-2009 01:00:00 7.5 C 59 % 0.02 C
2645 23-03-2009 01:12:00 7.5 C 58 % -0.21 C
2646 23-03-2009 01:24:00 7.5 C 58 % -0.21 C
2647 23-03-2009 01:36:00 7.6 C 58 % -0.12 C
2648 23-03-2009 01:48:00 7.6 C 58 % -0.12 C
2649 23-03-2009 02:00:00 7.6 C 58 % -0.12 C
2650 23-03-2009 02:12:00 7.5 C 58 % -0.21 C
Sensor: Nr:Datum:Temp:Feuchte:Taupunkt:
Aussen-T/F 2651 23-03-2009 02:24:00 7.5 C 59 % 0.02 C
2652 23-03-2009 02:36:00 7.6 C 59 % 0.11 C
2653 23-03-2009 02:48:00 7.6 C 59 % 0.11 C
2654 23-03-2009 03:00:00 7.7 C 59 % 0.21 C
2655 23-03-2009 03:12:00 7.6 C 59 % 0.11 C
2656 23-03-2009 03:24:00 7.5 C 59 % 0.02 C
2657 23-03-2009 03:36:01 7.5 C 59 % 0.02 C
2658 23-03-2009 03:48:01 7.6 C 59 % 0.11 C
2659 23-03-2009 04:00:01 7.7 C 60 % 0.44 C
2660 23-03-2009 04:12:01 7.9 C 60 % 0.63 C
2661 23-03-2009 04:24:01 7.8 C 60 % 0.53 C
2662 23-03-2009 04:36:01 7.8 C 60 % 0.53 C
2663 23-03-2009 04:48:01 7.8 C 60 % 0.53 C
2664 23-03-2009 05:00:01 7.8 C 60 % 0.53 C
2665 23-03-2009 05:12:01 7.8 C 60 % 0.53 C
2666 23-03-2009 05:24:01 7.8 C 60 % 0.53 C
2667 23-03-2009 05:36:01 7.8 C 60 % 0.53 C
2668 23-03-2009 05:48:01 7.9 C 59 % 0.4 C
2669 23-03-2009 06:00:01 7.7 C 60 % 0.44 C
2670 23-03-2009 06:12:01 7.6 C 60 % 0.35 C
2671 23-03-2009 06:24:01 7.6 C 60 % 0.35 C
2672 23-03-2009 06:36:01 7.5 C 60 % 0.25 C
2673 23-03-2009 06:48:01 7.5 C 61 % 0.48 C
2674 23-03-2009 07:00:59 7.6 C 60 % 0.35 C
2675 23-03-2009 07:12:59 7.6 C 60 % 0.35 C
Sensor: Nr:Datum:Temp:Feuchte:Taupunkt:
Aussen-T/F 2676 23-03-2009 07:24:59 7.6 C 61 % 0.57 C
2677 23-03-2009 07:36:59 7.6 C 60 % 0.35 C
2678 23-03-2009 07:48:58 7.7 C 60 % 0.44 C
2679 23-03-2009 08:00:59 7.9 C 60 % 0.63 C
2680 23-03-2009 08:12:59 8 C 58 % 0.25 C
2681 23-03-2009 08:24:58 8.1 C 58 % 0.35 C
2682 23-03-2009 08:36:58 8.1 C 58 % 0.35 C
2683 23-03-2009 08:48:57 8.2 C 58 % 0.44 C
2684 23-03-2009 09:00:58 8.2 C 58 % 0.44 C
2685 23-03-2009 09:12:58 8.2 C 58 % 0.44 C
2686 23-03-2009 09:24:58 8.3 C 58 % 0.54 C
2687 23-03-2009 09:36:57 8.4 C 56 % 0.15 C
2688 23-03-2009 09:48:58 8.7 C 55 % 0.18 C
2689 23-03-2009 10:00:57 8.9 C 52 % -0.41 C
2690 23-03-2009 10:12:57 9 C 50 % -0.85 C
2691 23-03-2009 10:24:57 9.1 C 50 % -0.76 C
2692 23-03-2009 10:36:56 9.2 C 49 % -0.94 C
2693 23-03-2009 10:48:57 9.3 C 48 % -1.13 C
2694 23-03-2009 11:00:57 9.4 C 47 % -1.33 C
2695 23-03-2009 11:12:57 9.7 C 46 % -1.34 C
2696 23-03-2009 11:24:56 9.8 C 45 % -1.55 C
2697 23-03-2009 11:36:57 9.9 C 44 % -1.76 C
2698 23-03-2009 11:48:56 9.9 C 43 % -2.08 C
2699 23-03-2009 12:00:56 10.2 C 42 % -2.12 C
2700 23-03-2009 12:12:56 10.7 C 40 % -2.33 C
Sensor: Nr:Datum:Temp:Feuchte:Taupunkt:
Aussen-T/F 2701 23-03-2009 12:24:56 10.8 C 40 % -2.24 C
2702 23-03-2009 12:36:56 11.6 C 37 % -2.57 C
2703 23-03-2009 12:48:55 12 C 35 % -2.97 C
2704 23-03-2009 13:00:55 11.8 C 36 % -2.76 C
2705 23-03-2009 13:12:55 11.6 C 37 % -2.57 C
2706 23-03-2009 13:24:56 11.9 C 37 % -2.31 C
2707 23-03-2009 13:36:55 11.9 C 37 % -2.31 C
2708 23-03-2009 13:48:55 11.6 C 38 % -2.22 C
2709 23-03-2009 14:00:55 11.6 C 39 % -1.86 C
2710 23-03-2009 14:12:55 11.6 C 40 % -1.52 C
2711 23-03-2009 14:24:55 11.4 C 40 % -1.7 C
2712 23-03-2009 14:36:54 11.3 C 40 % -1.79 C
2713 23-03-2009 14:48:54 11.3 C 40 % -1.79 C
2714 23-03-2009 15:00:55 10.4 C 47 % -0.41 C
2715 23-03-2009 15:12:55 9.8 C 52 % 0.43 C
2716 23-03-2009 15:24:54 9.5 C 56 % 1.17 C
2717 23-03-2009 15:36:54 9.6 C 56 % 1.27 C
2718 23-03-2009 15:48:54 9.9 C 55 % 1.3 C
2719 23-03-2009 16:00:54 9.6 C 58 % 1.75 C
2720 23-03-2009 16:12:54 9.7 C 57 % 1.61 C
2721 23-03-2009 16:24:53 9.5 C 59 % 1.9 C
2722 23-03-2009 16:36:53 9.5 C 58 % 1.66 C
2723 23-03-2009 16:48:53 9.4 C 59 % 1.81 C
2724 23-03-2009 17:00:53 9.2 C 60 % 1.85 C
2725 23-03-2009 17:12:53 9.1 C 61 % 1.99 C
Sensor: Nr:Datum:Temp:Feuchte:Taupunkt:
Aussen-T/F 2726 23-03-2009 17:24:53 9.1 C 60 % 1.76 C
2727 23-03-2009 17:36:53 8.6 C 65 % 2.4 C
2728 23-03-2009 17:48:53 8.5 C 67 % 2.73 C
2729 23-03-2009 18:00:52 8.3 C 70 % 3.16 C
2730 23-03-2009 18:12:52 7.9 C 74 % 3.56 C
2731 23-03-2009 18:24:53 7.6 C 76 % 3.65 C
2732 23-03-2009 18:36:52 7.6 C 77 % 3.83 C
2733 23-03-2009 18:48:52 7.7 C 76 % 3.75 C
2734 23-03-2009 19:00:52 7.8 C 76 % 3.84 C
2735 23-03-2009 19:12:52 7.7 C 75 % 3.56 C
2736 23-03-2009 19:24:52 7.6 C 76 % 3.65 C
2737 23-03-2009 19:36:52 7.4 C 77 % 3.64 C
2738 23-03-2009 19:48:51 4.4 C 74 % 0.18 C
2739 23-03-2009 20:00:52 3.9 C 82 % 1.12 C
2740 23-03-2009 20:12:52 3.8 C 84 % 1.35 C
2741 23-03-2009 20:24:51 3.6 C 85 % 1.32 C
2742 23-03-2009 20:36:51 3.3 C 86 % 1.19 C
2743 23-03-2009 20:48:51 3.5 C 87 % 1.55 C
2744 23-03-2009 21:00:50 3.5 C 87 % 1.55 C
2745 23-03-2009 21:12:50 3.5 C 85 % 1.22 C
2746 23-03-2009 21:24:51 3.8 C 84 % 1.35 C
2747 23-03-2009 21:36:51 3.8 C 82 % 1.02 C
2748 23-03-2009 21:48:50 3.6 C 80 % 0.48 C
2749 23-03-2009 22:00:51 3.7 C 79 % 0.4 C
2750 23-03-2009 22:12:51 3.8 C 76 % -0.03 C
Sensor: Nr:Datum:Temp:Feuchte:Taupunkt:
Aussen-T/F 2751 23-03-2009 22:24:50 3.7 C 75 % -0.31 C
2752 23-03-2009 22:36:50 3.5 C 75 % -0.5 C
2753 23-03-2009 22:49:50 3.7 C 73 % -0.68 C
2754 23-03-2009 23:01:50 3.6 C 71 % -1.15 C
2755 23-03-2009 23:13:50 3.5 C 72 % -1.06 C
2756 23-03-2009 23:25:50 3.3 C 74 % -0.88 C
2757 23-03-2009 23:37:50 3.3 C 74 % -0.88 C
2758 23-03-2009 23:49:50 3.1 C 72 % -1.45 C
2759 24-03-2009 00:01:50 3.1 C 72 % -1.45 C
2760 24-03-2009 00:13:50 2.9 C 72 % -1.64 C
2761 24-03-2009 00:25:50 2.9 C 72 % -1.64 C
2762 24-03-2009 00:37:51 3 C 68 % -2.31 C
2763 24-03-2009 00:49:51 3.1 C 68 % -2.22 C
2764 24-03-2009 01:01:51 3.1 C 67 % -2.42 C
2765 24-03-2009 01:13:51 2.8 C 69 % -2.31 C
2766 24-03-2009 01:25:51 2.5 C 71 % -2.21 C
2767 24-03-2009 01:37:51 2.4 C 72 % -2.12 C
2768 24-03-2009 01:49:51 2.6 C 72 % -1.93 C
2769 24-03-2009 02:01:51 2.7 C 71 % -2.02 C
2770 24-03-2009 02:13:51 3 C 69 % -2.12 C
2771 24-03-2009 02:25:51 3.3 C 67 % -2.23 C
2772 24-03-2009 02:37:51 3.3 C 67 % -2.23 C
2773 24-03-2009 02:49:51 3.5 C 65 % -2.44 C
2774 24-03-2009 03:01:51 3.6 C 65 % -2.35 C
2775 24-03-2009 03:13:51 3.8 C 63 % -2.58 C
Sensor: Nr:Datum:Temp:Feuchte:Taupunkt:
Aussen-T/F 2776 24-03-2009 03:25:51 3.2 C 69 % -1.93 C
2777 24-03-2009 03:37:51 2.8 C 76 % -1 C
2778 24-03-2009 03:49:51 2.7 C 77 % -0.92 C
2779 24-03-2009 04:01:51 2.6 C 78 % -0.84 C
2780 24-03-2009 04:13:51 2.7 C 78 % -0.74 C
2781 24-03-2009 04:25:51 3 C 75 % -0.99 C
2782 24-03-2009 04:37:52 3.1 C 72 % -1.45 C
2783 24-03-2009 04:49:52 3.3 C 70 % -1.64 C
2784 24-03-2009 05:01:52 2.8 C 74 % -1.36 C
2785 24-03-2009 05:13:52 2.9 C 76 % -0.9 C
2786 24-03-2009 05:25:52 3 C 71 % -1.73 C
2787 24-03-2009 05:37:52 3.2 C 70 % -1.73 C
2788 24-03-2009 05:49:52 3.1 C 70 % -1.83 C
2789 24-03-2009 06:01:52 3.1 C 69 % -2.02 C
2790 24-03-2009 06:13:52 3.2 C 67 % -2.32 C
2791 24-03-2009 06:25:52 3.1 C 68 % -2.22 C
2792 24-03-2009 06:37:52 3.1 C 69 % -2.02 C
2793 24-03-2009 06:49:52 3.1 C 71 % -1.63 C
2794 24-03-2009 07:01:50 3.1 C 71 % -1.63 C
2795 24-03-2009 07:13:50 3.2 C 71 % -1.54 C
2796 24-03-2009 07:25:50 3.3 C 70 % -1.64 C
2797 24-03-2009 07:37:50 3.3 C 69 % -1.83 C
2798 24-03-2009 07:49:50 3.5 C 69 % -1.64 C
2799 24-03-2009 08:01:51 3.7 C 68 % -1.64 C
2800 24-03-2009 08:13:50 3.7 C 68 % -1.64 C
Sensor: Nr:Datum:Temp:Feuchte:Taupunkt:
Aussen-T/F 2801 24-03-2009 08:25:50 3.7 C 66 % -2.05 C
2802 24-03-2009 08:37:49 4.2 C 63 % -2.2 C
2803 24-03-2009 08:49:49 4.3 C 60 % -2.76 C
2804 24-03-2009 09:01:49 4.1 C 60 % -2.95 C
2805 24-03-2009 09:13:49 4.2 C 58 % -3.31 C
2806 24-03-2009 09:25:49 4.4 C 58 % -3.12 C
2807 24-03-2009 09:37:49 4.6 C 55 % -3.65 C
2808 24-03-2009 09:49:48 4.8 C 53 % -3.95 C
2809 24-03-2009 10:01:49 5 C 53 % -3.77 C
2810 24-03-2009 10:13:48 5.6 C 52 % -3.46 C
2811 24-03-2009 10:25:48 5.9 C 49 % -3.98 C
2812 24-03-2009 10:37:48 5 C 55 % -3.27 C
2813 24-03-2009 10:49:48 3.2 C 72 % -1.35 C
2814 24-03-2009 11:01:48 3.3 C 79 % 0.02 C
2815 24-03-2009 11:13:47 4.3 C 81 % 1.34 C
2816 24-03-2009 11:25:47 4.6 C 78 % 1.1 C
2817 24-03-2009 11:37:47 5.1 C 73 % 0.67 C
2818 24-03-2009 11:49:47 5.5 C 65 % -0.54 C
2819 24-03-2009 12:01:48 4.4 C 69 % -0.78 C
2820 24-03-2009 12:13:47 5.1 C 72 % 0.48 C
2821 24-03-2009 12:25:47 5.9 C 68 % 0.46 C
2822 24-03-2009 12:37:47 6.4 C 58 % -1.25 C
2823 24-03-2009 12:49:47 6.8 C 58 % -0.87 C
2824 24-03-2009 13:01:49 7.1 C 53 % -1.82 C
2825 24-03-2009 13:13:46 7.1 C 51 % -2.34 C
Sensor: Nr:Datum:Temp:Feuchte:Taupunkt:
Aussen-T/F 2826 24-03-2009 13:25:46 6.9 C 47 % -3.61 C
2827 24-03-2009 13:37:46 6.9 C 46 % -3.9 C
2828 24-03-2009 13:49:46 6.6 C 48 % -3.61 C
2829 24-03-2009 14:01:46 5.6 C 58 % -2 C
2830 24-03-2009 14:13:46 5.4 C 64 % -0.85 C
2831 24-03-2009 14:25:46 6.8 C 57 % -1.11 C
2832 24-03-2009 14:37:46 7.9 C 51 % -1.6 C
2833 24-03-2009 14:49:45 7 C 50 % -2.69 C
2834 24-03-2009 15:01:46 6.1 C 59 % -1.3 C
2835 24-03-2009 15:13:45 4.6 C 68 % -0.78 C
2836 24-03-2009 15:25:45 4.6 C 75 % 0.56 C
2837 24-03-2009 15:37:45 5.8 C 74 % 1.53 C
2838 24-03-2009 15:49:45 6.4 C 70 % 1.34 C
2839 24-03-2009 16:01:45 5.5 C 67 % -0.13 C
2840 24-03-2009 16:13:45 5 C 72 % 0.38 C
2841 24-03-2009 16:25:45 5.3 C 72 % 0.67 C
2842 24-03-2009 16:37:44 6.5 C 67 % 0.83 C
2843 24-03-2009 16:49:44 5 C 67 % -0.6 C
2844 24-03-2009 17:01:44 4.7 C 70 % -0.29 C
2845 24-03-2009 17:13:44 5.1 C 64 % -1.13 C
2846 24-03-2009 17:25:44 5.9 C 61 % -1.03 C
2847 24-03-2009 17:37:44 6.1 C 56 % -2 C
2848 24-03-2009 17:49:43 5.2 C 58 % -2.37 C
2849 24-03-2009 18:01:44 3.6 C 67 % -1.94 C
2850 24-03-2009 18:13:44 3.6 C 69 % -1.54 C
Sensor: Nr:Datum:Temp:Feuchte:Taupunkt:
Aussen-T/F 2851 24-03-2009 18:25:44 3.5 C 71 % -1.25 C
2852 24-03-2009 18:37:43 3.4 C 73 % -0.97 C
2853 24-03-2009 18:49:44 3.1 C 73 % -1.26 C
2854 24-03-2009 19:01:43 2.9 C 76 % -0.9 C
2855 24-03-2009 19:13:43 2.7 C 76 % -1.1 C
2856 24-03-2009 19:25:44 2.5 C 77 % -1.11 C
2857 24-03-2009 19:37:42 2.5 C 78 % -0.94 C
2858 24-03-2009 19:49:43 2.3 C 77 % -1.31 C
2859 24-03-2009 20:01:43 2.2 C 77 % -1.4 C
2860 24-03-2009 20:13:42 2.2 C 75 % -1.76 C
2861 24-03-2009 20:25:42 2.1 C 74 % -2.04 C
2862 24-03-2009 20:37:43 2 C 73 % -2.32 C
2863 24-03-2009 20:49:42 1.8 C 73 % -2.51 C
2864 24-03-2009 21:01:42 1.4 C 74 % -2.71 C
2865 24-03-2009 21:13:41 1.3 C 76 % -2.45 C
2866 24-03-2009 21:25:41 1.2 C 77 % -2.37 C
2867 24-03-2009 21:37:42 1.1 C 78 % -2.3 C
2868 24-03-2009 21:50:43 1 C 78 % -2.39 C
2869 24-03-2009 22:02:43 0.9 C 79 % -2.32 C
2870 24-03-2009 22:14:43 0.7 C 78 % -2.69 C
2871 24-03-2009 22:26:43 1 C 74 % -3.1 C
2872 24-03-2009 22:38:43 1 C 72 % -3.47 C
2873 24-03-2009 22:50:43 0.7 C 72 % -3.76 C
2874 24-03-2009 23:02:43 0.4 C 73 % -3.86 C
2875 24-03-2009 23:14:43 0.4 C 74 % -3.68 C
Sensor: Nr:Datum:Temp:Feuchte:Taupunkt:
Aussen-T/F 2876 24-03-2009 23:26:43 0.2 C 75 % -3.69 C
2877 24-03-2009 23:38:43 0.2 C 75 % -3.69 C
2878 24-03-2009 23:50:43 0 C 75 % -3.89 C
2879 25-03-2009 00:02:43 0 C 76 % -3.71 C
2880 25-03-2009 00:14:43 0.1 C 76 % -3.62 C
2881 25-03-2009 00:26:43 0.2 C 75 % -3.69 C
2882 25-03-2009 00:38:44 0.2 C 75 % -3.69 C
2883 25-03-2009 00:50:44 0.3 C 73 % -3.96 C
2884 25-03-2009 01:02:44 0.2 C 73 % -4.05 C
2885 25-03-2009 01:14:44 0.2 C 73 % -4.05 C
2886 25-03-2009 01:26:44 0.1 C 73 % -4.15 C
2887 25-03-2009 01:38:44 0.2 C 74 % -3.87 C
2888 25-03-2009 01:50:44 0 C 75 % -3.89 C
2889 25-03-2009 02:02:44 0.1 C 76 % -3.62 C
2890 25-03-2009 02:14:44 0.2 C 77 % -3.34 C
2891 25-03-2009 02:26:44 0.4 C 77 % -3.15 C
2892 25-03-2009 02:38:44 0.2 C 77 % -3.34 C
2893 25-03-2009 02:50:44 0.2 C 77 % -3.34 C
2894 25-03-2009 03:02:44 0.3 C 78 % -3.07 C
2895 25-03-2009 03:14:44 0.6 C 78 % -2.78 C
2896 25-03-2009 03:26:44 0.9 C 77 % -2.66 C
2897 25-03-2009 03:38:44 1.1 C 76 % -2.65 C
2898 25-03-2009 03:50:44 1.1 C 75 % -2.82 C
2899 25-03-2009 04:02:44 1.1 C 76 % -2.65 C
2900 25-03-2009 04:14:44 1.2 C 76 % -2.55 C
Sensor: Nr:Datum:Temp:Feuchte:Taupunkt:
Aussen-T/F 2901 25-03-2009 04:26:45 1.3 C 75 % -2.63 C
2902 25-03-2009 04:38:45 1.3 C 75 % -2.63 C
2903 25-03-2009 04:50:45 1.5 C 75 % -2.44 C
2904 25-03-2009 05:02:45 1.6 C 75 % -2.34 C
2905 25-03-2009 05:14:45 1.8 C 74 % -2.33 C
2906 25-03-2009 05:26:45 1.8 C 74 % -2.33 C
2907 25-03-2009 05:38:45 2.2 C 72 % -2.31 C
2908 25-03-2009 05:50:45 2.4 C 72 % -2.12 C
2909 25-03-2009 06:02:45 2.3 C 72 % -2.22 C
2910 25-03-2009 06:14:45 2.1 C 75 % -1.86 C
2911 25-03-2009 06:26:45 1.6 C 79 % -1.64 C
2912 25-03-2009 06:38:43 1.7 C 82 % -1.03 C
2913 25-03-2009 06:50:42 1.8 C 84 % -0.61 C
2914 25-03-2009 07:02:43 1.8 C 86 % -0.29 C
2915 25-03-2009 07:14:43 1.8 C 86 % -0.29 C
2916 25-03-2009 07:26:43 1.9 C 87 % -0.03 C
2917 25-03-2009 07:38:42 1.9 C 86 % -0.19 C
2918 25-03-2009 07:50:42 1.9 C 86 % -0.19 C
2919 25-03-2009 08:02:42 2.1 C 85 % -0.15 C
2920 25-03-2009 08:14:41 2.3 C 85 % 0.04 C
2921 25-03-2009 08:26:41 2.3 C 84 % -0.12 C
2922 25-03-2009 08:38:42 2.4 C 83 % -0.18 C
2923 25-03-2009 08:50:41 2.3 C 82 % -0.45 C
2924 25-03-2009 09:02:41 2.5 C 81 % -0.42 C
2925 25-03-2009 09:14:42 2.6 C 80 % -0.49 C
Sensor: Nr:Datum:Temp:Feuchte:Taupunkt:
Aussen-T/F 2926 25-03-2009 09:26:42 2.9 C 78 % -0.55 C
2927 25-03-2009 09:38:41 3 C 75 % -0.99 C
2928 25-03-2009 09:50:41 3.1 C 75 % -0.89 C
2929 25-03-2009 10:02:41 3.3 C 74 % -0.88 C
2930 25-03-2009 10:14:41 3.3 C 74 % -0.88 C
2931 25-03-2009 10:26:41 3.1 C 75 % -0.89 C
2932 25-03-2009 10:38:41 3.3 C 75 % -0.7 C
2933 25-03-2009 10:50:40 3.8 C 72 % -0.77 C
2934 25-03-2009 11:02:41 3.8 C 72 % -0.77 C
2935 25-03-2009 11:14:40 4 C 69 % -1.16 C
2936 25-03-2009 11:26:40 4 C 70 % -0.96 C
2937 25-03-2009 11:38:40 4.3 C 69 % -0.87 C
2938 25-03-2009 11:50:40 4.2 C 69 % -0.97 C
2939 25-03-2009 12:02:40 4.2 C 69 % -0.97 C
2940 25-03-2009 12:14:39 4.7 C 68 % -0.69 C
2941 25-03-2009 12:26:39 4.4 C 67 % -1.18 C
2942 25-03-2009 12:38:39 4.3 C 70 % -0.68 C
2943 25-03-2009 12:50:39 4.4 C 69 % -0.78 C
2944 25-03-2009 13:02:39 4.3 C 70 % -0.68 C
2945 25-03-2009 13:14:39 4.4 C 70 % -0.58 C
2946 25-03-2009 13:26:39 5.3 C 68 % -0.12 C
2947 25-03-2009 13:38:39 5.9 C 65 % -0.16 C
2948 25-03-2009 13:50:39 5.6 C 64 % -0.66 C
2949 25-03-2009 14:02:38 5.6 C 65 % -0.45 C
2950 25-03-2009 14:14:39 6.1 C 63 % -0.4 C
Sensor: Nr:Datum:Temp:Feuchte:Taupunkt:
Aussen-T/F 2951 25-03-2009 14:26:40 6 C 62 % -0.71 C
2952 25-03-2009 14:38:38 6 C 62 % -0.71 C
2953 25-03-2009 14:50:38 6.1 C 63 % -0.4 C
2954 25-03-2009 15:02:37 5.7 C 65 % -0.35 C
2955 25-03-2009 15:14:38 5 C 72 % 0.38 C
2956 25-03-2009 15:26:38 4.7 C 77 % 1.02 C
2957 25-03-2009 15:38:38 5.3 C 78 % 1.78 C
2958 25-03-2009 15:50:37 5.4 C 78 % 1.88 C
2959 25-03-2009 16:02:38 5.7 C 76 % 1.81 C
2960 25-03-2009 16:14:37 6.5 C 73 % 2.02 C
2961 25-03-2009 16:26:37 6.9 C 69 % 1.62 C
2962 25-03-2009 16:38:37 6.9 C 66 % 1 C
2963 25-03-2009 16:50:37 6.4 C 67 % 0.73 C
2964 25-03-2009 17:02:37 5.8 C 71 % 0.96 C
2965 25-03-2009 17:14:37 4.7 C 78 % 1.2 C
2966 25-03-2009 17:26:37 4.5 C 81 % 1.53 C
2967 25-03-2009 17:38:36 4.6 C 83 % 1.97 C
2968 25-03-2009 17:50:37 4.9 C 85 % 2.6 C
2969 25-03-2009 18:02:36 4.8 C 85 % 2.5 C
2970 25-03-2009 18:14:36 4.8 C 85 % 2.5 C
2971 25-03-2009 18:26:36 4.7 C 84 % 2.23 C
2972 25-03-2009 18:38:36 4.5 C 85 % 2.2 C
2973 25-03-2009 18:50:36 4.2 C 84 % 1.74 C
2974 25-03-2009 19:02:35 4 C 84 % 1.55 C
2975 25-03-2009 19:14:36 3.8 C 86 % 1.68 C
Sensor: Nr:Datum:Temp:Feuchte:Taupunkt:
Aussen-T/F 2976 25-03-2009 19:26:37 3.7 C 87 % 1.74 C
2977 25-03-2009 19:38:35 3.6 C 88 % 1.8 C
2978 25-03-2009 19:50:36 3.5 C 88 % 1.7 C
2979 25-03-2009 20:02:35 3.6 C 89 % 1.96 C
2980 25-03-2009 20:14:35 3.5 C 89 % 1.86 C
2981 25-03-2009 20:26:35 3.6 C 90 % 2.12 C
2982 25-03-2009 20:38:35 3.6 C 90 % 2.12 C
2983 25-03-2009 20:50:35 3.6 C 90 % 2.12 C
2984 25-03-2009 21:02:34 3.5 C 90 % 2.02 C
2985 25-03-2009 21:14:34 3.5 C 90 % 2.02 C
2986 25-03-2009 21:26:34 3.6 C 91 % 2.27 C
2987 25-03-2009 21:38:35 3.7 C 91 % 2.37 C
2988 25-03-2009 21:50:34 3.7 C 91 % 2.37 C
2989 25-03-2009 22:02:35 3.7 C 91 % 2.37 C
2990 25-03-2009 22:14:33 3.7 C 91 % 2.37 C
2991 25-03-2009 22:26:33 3.8 C 91 % 2.47 C
2992 25-03-2009 22:38:34 3.9 C 90 % 2.41 C
2993 25-03-2009 22:50:33 3.9 C 89 % 2.26 C
2994 25-03-2009 23:02:33 3.9 C 89 % 2.26 C
2995 25-03-2009 23:14:34 4.1 C 88 % 2.3 C
2996 25-03-2009 23:26:34 4.3 C 87 % 2.33 C
2997 25-03-2009 23:38:33 4.4 C 84 % 1.94 C
2998 25-03-2009 23:50:33 4.4 C 82 % 1.6 C
2999 26-03-2009 00:02:33 4.3 C 81 % 1.34 C
3000 26-03-2009 00:14:32 4.2 C 82 % 1.41 C
Sensor: Nr:Datum:Temp:Feuchte:Taupunkt:
Aussen-T/F 3001 26-03-2009 00:26:32 4 C 83 % 1.38 C
3002 26-03-2009 00:38:33 4 C 83 % 1.38 C
3003 26-03-2009 00:50:32 4.1 C 83 % 1.48 C
3004 26-03-2009 01:02:32 4.2 C 82 % 1.41 C
3005 26-03-2009 01:14:32 4.3 C 81 % 1.34 C
3006 26-03-2009 01:26:32 4.3 C 81 % 1.34 C
3007 26-03-2009 01:38:32 4.2 C 81 % 1.24 C
3008 26-03-2009 01:50:31 4.2 C 81 % 1.24 C
3009 26-03-2009 02:02:32 4.2 C 81 % 1.24 C
3010 26-03-2009 02:14:31 4.1 C 82 % 1.31 C
3011 26-03-2009 02:26:31 4 C 84 % 1.55 C
3012 26-03-2009 02:38:31 4 C 85 % 1.71 C
3013 26-03-2009 02:51:32 4 C 85 % 1.71 C
3014 26-03-2009 03:03:32 4 C 85 % 1.71 C
3015 26-03-2009 03:15:32 4 C 85 % 1.71 C
3016 26-03-2009 03:27:32 4 C 84 % 1.55 C
3017 26-03-2009 03:39:32 4.1 C 84 % 1.65 C
3018 26-03-2009 03:51:32 4.1 C 83 % 1.48 C
3019 26-03-2009 04:03:32 4.1 C 82 % 1.31 C
3020 26-03-2009 04:15:31 4.1 C 81 % 1.14 C
3021 26-03-2009 04:27:31 4.2 C 79 % 0.89 C
3022 26-03-2009 04:39:31 4.2 C 78 % 0.71 C
3023 26-03-2009 04:51:31 4.2 C 78 % 0.71 C
3024 26-03-2009 05:03:31 4.2 C 78 % 0.71 C
3025 26-03-2009 05:15:31 4.1 C 79 % 0.79 C
Sensor: Nr:Datum:Temp:Feuchte:Taupunkt:
Aussen-T/F 3026 26-03-2009 05:27:31 4.2 C 79 % 0.89 C
3027 26-03-2009 05:39:31 4.3 C 78 % 0.81 C
3028 26-03-2009 05:51:31 4.3 C 78 % 0.81 C
3029 26-03-2009 06:03:30 4.2 C 78 % 0.71 C
3030 26-03-2009 06:15:31 4 C 78 % 0.52 C
3031 26-03-2009 06:27:32 4.1 C 78 % 0.62 C
3032 26-03-2009 06:39:30 4 C 78 % 0.52 C
3033 26-03-2009 06:51:30 3.8 C 79 % 0.5 C
3034 26-03-2009 07:03:30 3.8 C 79 % 0.5 C
3035 26-03-2009 07:15:30 4.2 C 79 % 0.89 C
3036 26-03-2009 07:27:30 4.5 C 77 % 0.83 C
3037 26-03-2009 07:39:30 4.5 C 75 % 0.46 C
3038 26-03-2009 07:51:30 4.7 C 74 % 0.47 C
3039 26-03-2009 08:03:30 5 C 72 % 0.38 C
3040 26-03-2009 08:15:29 5.3 C 72 % 0.67 C
3041 26-03-2009 08:27:29 5.5 C 71 % 0.67 C
3042 26-03-2009 08:39:29 6.1 C 69 % 0.85 C
3043 26-03-2009 08:51:29 6.4 C 68 % 0.94 C
3044 26-03-2009 09:03:29 6.5 C 68 % 1.03 C
3045 26-03-2009 09:15:29 6.6 C 67 % 0.92 C
3046 26-03-2009 09:27:29 7 C 66 % 1.09 C
3047 26-03-2009 09:39:29 7.4 C 65 % 1.26 C
3048 26-03-2009 09:51:29 7.8 C 63 % 1.21 C
3049 26-03-2009 10:03:29 7.9 C 62 % 1.08 C
3050 26-03-2009 10:15:28 7.7 C 62 % 0.89 C
Sensor: Nr:Datum:Temp:Feuchte:Taupunkt:
Aussen-T/F 3051 26-03-2009 10:27:28 7.8 C 61 % 0.76 C
3052 26-03-2009 10:39:28 8.2 C 60 % 0.91 C
3053 26-03-2009 10:51:28 8.5 C 58 % 0.72 C
3054 26-03-2009 11:03:28 9.1 C 57 % 1.04 C
3055 26-03-2009 11:15:27 8.8 C 57 % 0.76 C
3056 26-03-2009 11:27:27 8.4 C 59 % 0.87 C
3057 26-03-2009 11:39:28 8.4 C 60 % 1.1 C
3058 26-03-2009 11:51:27 9 C 58 % 1.19 C
3059 26-03-2009 12:03:27 9.3 C 55 % 0.74 C
3060 26-03-2009 12:15:27 9.2 C 56 % 0.89 C
3061 26-03-2009 12:27:27 9 C 56 % 0.71 C
3062 26-03-2009 12:39:27 8.6 C 60 % 1.29 C
3063 26-03-2009 12:51:27 8.2 C 62 % 1.37 C
3064 26-03-2009 13:03:26 8 C 64 % 1.62 C
3065 26-03-2009 13:15:27 7.7 C 66 % 1.76 C
3066 26-03-2009 13:27:27 7.6 C 68 % 2.08 C
3067 26-03-2009 13:39:26 7.5 C 70 % 2.39 C
3068 26-03-2009 13:51:26 7.2 C 73 % 2.69 C
3069 26-03-2009 14:03:26 7 C 75 % 2.88 C
3070 26-03-2009 14:15:26 7 C 77 % 3.25 C
3071 26-03-2009 14:27:26 7.2 C 75 % 3.07 C
3072 26-03-2009 14:39:26 7.3 C 73 % 2.79 C
3073 26-03-2009 14:51:25 7.1 C 73 % 2.6 C
3074 26-03-2009 15:03:26 7.1 C 73 % 2.6 C
3075 26-03-2009 15:15:25 7.1 C 72 % 2.4 C
Sensor: Nr:Datum:Temp:Feuchte:Taupunkt:
Aussen-T/F 3076 26-03-2009 15:27:25 7.1 C 72 % 2.4 C
3077 26-03-2009 15:39:25 7.3 C 71 % 2.4 C
3078 26-03-2009 15:51:25 7.3 C 70 % 2.2 C
3079 26-03-2009 16:03:25 7.2 C 72 % 2.5 C
3080 26-03-2009 16:15:25 7.3 C 71 % 2.4 C
3081 26-03-2009 16:27:25 7.4 C 71 % 2.5 C
3082 26-03-2009 16:39:24 7.4 C 72 % 2.69 C
3083 26-03-2009 16:51:25 7.2 C 74 % 2.89 C
3084 26-03-2009 17:03:24 7.1 C 76 % 3.16 C
3085 26-03-2009 17:15:24 7.1 C 76 % 3.16 C
3086 26-03-2009 17:27:24 7.3 C 75 % 3.17 C
3087 26-03-2009 17:39:24 7.3 C 75 % 3.17 C
3088 26-03-2009 17:51:24 7.3 C 75 % 3.17 C
3089 26-03-2009 18:03:23 7.3 C 76 % 3.36 C
3090 26-03-2009 18:15:24 7.3 C 75 % 3.17 C
3091 26-03-2009 18:27:24 7.5 C 74 % 3.17 C
3092 26-03-2009 18:39:24 7.5 C 73 % 2.98 C
3093 26-03-2009 18:51:23 7.6 C 72 % 2.88 C
3094 26-03-2009 19:03:23 7.5 C 72 % 2.79 C
3095 26-03-2009 19:15:23 7.5 C 71 % 2.59 C
3096 26-03-2009 19:27:23 7.6 C 70 % 2.49 C
3097 26-03-2009 19:39:23 7.6 C 70 % 2.49 C
3098 26-03-2009 19:51:22 7.4 C 71 % 2.5 C
3099 26-03-2009 20:03:23 7.2 C 72 % 2.5 C
3100 26-03-2009 20:15:22 7.4 C 73 % 2.89 C
Sensor: Nr:Datum:Temp:Feuchte:Taupunkt:
Aussen-T/F 3101 26-03-2009 20:27:22 7.7 C 72 % 2.98 C
3102 26-03-2009 20:39:22 7.7 C 72 % 2.98 C
3103 26-03-2009 20:51:22 7.7 C 73 % 3.18 C
3104 26-03-2009 21:03:22 7.6 C 74 % 3.27 C
3105 26-03-2009 21:15:22 7.6 C 75 % 3.46 C
3106 26-03-2009 21:27:22 7.7 C 75 % 3.56 C
3107 26-03-2009 21:39:21 7.7 C 75 % 3.56 C
3108 26-03-2009 21:51:22 7.7 C 74 % 3.37 C
3109 26-03-2009 22:04:21 7.6 C 76 % 3.65 C
3110 26-03-2009 22:16:21 7.5 C 79 % 4.1 C
3111 26-03-2009 22:28:21 7.5 C 80 % 4.28 C
3112 26-03-2009 22:40:21 7.6 C 79 % 4.2 C
3113 26-03-2009 22:52:21 7.9 C 77 % 4.12 C
3114 26-03-2009 23:04:21 8 C 75 % 3.85 C
3115 26-03-2009 23:16:21 8 C 75 % 3.85 C
3116 26-03-2009 23:28:21 7.9 C 77 % 4.12 C
3117 26-03-2009 23:40:21 7.9 C 78 % 4.31 C
3118 26-03-2009 23:52:21 7.6 C 80 % 4.38 C
3119 27-03-2009 00:04:21 7.5 C 82 % 4.63 C
3120 27-03-2009 00:16:21 7.5 C 83 % 4.81 C
3121 27-03-2009 00:28:22 7.6 C 83 % 4.9 C
3122 27-03-2009 00:40:22 7.6 C 83 % 4.9 C
3123 27-03-2009 00:52:22 7.6 C 83 % 4.9 C
3124 27-03-2009 01:04:22 7.6 C 83 % 4.9 C
3125 27-03-2009 01:16:22 7.4 C 85 % 5.05 C
Sensor: Nr:Datum:Temp:Feuchte:Taupunkt:
Aussen-T/F 3126 27-03-2009 01:28:22 7.4 C 86 % 5.22 C
3127 27-03-2009 01:40:22 7.3 C 88 % 5.45 C
3128 27-03-2009 01:52:22 7.4 C 88 % 5.55 C
3129 27-03-2009 02:04:22 7.4 C 88 % 5.55 C
3130 27-03-2009 02:16:22 7.3 C 88 % 5.45 C
3131 27-03-2009 02:28:22 7.2 C 87 % 5.19 C
3132 27-03-2009 02:40:22 7.3 C 85 % 4.95 C
3133 27-03-2009 02:52:22 7.4 C 83 % 4.71 C
3134 27-03-2009 03:04:22 7.6 C 81 % 4.55 C
3135 27-03-2009 03:16:22 7.5 C 80 % 4.28 C
3136 27-03-2009 03:28:22 7.5 C 80 % 4.28 C
3137 27-03-2009 03:40:22 7.5 C 80 % 4.28 C
3138 27-03-2009 03:52:22 7.4 C 80 % 4.18 C
3139 27-03-2009 04:04:22 7.4 C 82 % 4.53 C
3140 27-03-2009 04:16:23 7.3 C 82 % 4.44 C
3141 27-03-2009 04:28:23 7.3 C 83 % 4.61 C
3142 27-03-2009 04:40:23 7.1 C 84 % 4.58 C
3143 27-03-2009 04:52:23 7 C 84 % 4.49 C
3144 27-03-2009 05:04:23 6.9 C 86 % 4.72 C
3145 27-03-2009 05:16:23 7 C 83 % 4.32 C
3146 27-03-2009 05:28:23 7 C 82 % 4.14 C
3147 27-03-2009 05:40:23 7.1 C 79 % 3.71 C
3148 27-03-2009 05:52:23 7.1 C 75 % 2.98 C
3149 27-03-2009 06:04:23 7.3 C 70 % 2.2 C
3150 27-03-2009 06:16:23 7.2 C 67 % 1.49 C
Sensor: Nr:Datum:Temp:Feuchte:Taupunkt:
Aussen-T/F 3151 27-03-2009 06:28:23 7 C 67 % 1.3 C
3152 27-03-2009 06:40:23 7 C 68 % 1.51 C
3153 27-03-2009 06:52:23 6.9 C 71 % 2.02 C
3154 27-03-2009 07:04:21 7 C 71 % 2.11 C
3155 27-03-2009 07:16:22 7.1 C 70 % 2.01 C
3156 27-03-2009 07:28:22 7.2 C 66 % 1.29 C
3157 27-03-2009 07:40:21 7.3 C 65 % 1.17 C
3158 27-03-2009 07:52:21 7.3 C 66 % 1.38 C
3159 27-03-2009 08:04:21 7.5 C 65 % 1.36 C
3160 27-03-2009 08:16:21 7.6 C 63 % 1.02 C
3161 27-03-2009 08:28:21 7.8 C 62 % 0.99 C
3162 27-03-2009 08:40:21 8 C 60 % 0.72 C
3163 27-03-2009 08:52:21 8 C 60 % 0.72 C
3164 27-03-2009 09:04:21 8.1 C 60 % 0.82 C
3165 27-03-2009 09:16:20 8 C 59 % 0.49 C
3166 27-03-2009 09:28:20 7.9 C 60 % 0.63 C
3167 27-03-2009 09:40:20 8.4 C 57 % 0.39 C
3168 27-03-2009 09:52:20 8.5 C 56 % 0.24 C
3169 27-03-2009 10:04:20 8.5 C 55 % -0.01 C
3170 27-03-2009 10:16:19 7 C 66 % 1.09 C
3171 27-03-2009 10:28:19 7.2 C 72 % 2.5 C
3172 27-03-2009 10:40:20 7.7 C 71 % 2.78 C
3173 27-03-2009 10:52:19 8.3 C 61 % 1.23 C
3174 27-03-2009 11:04:19 8.4 C 54 % -0.35 C
3175 27-03-2009 11:16:19 8.5 C 51 % -1.04 C
Sensor: Nr:Datum:Temp:Feuchte:Taupunkt:
Aussen-T/F 3176 27-03-2009 11:28:19 7.9 C 58 % 0.16 C
3177 27-03-2009 11:40:19 8.1 C 60 % 0.82 C
3178 27-03-2009 11:52:19 9 C 53 % -0.05 C
3179 27-03-2009 12:04:18 9.3 C 48 % -1.13 C
3180 27-03-2009 12:16:19 9.3 C 46 % -1.71 C
3181 27-03-2009 12:28:19 8.8 C 46 % -2.17 C
3182 27-03-2009 12:40:18 8.9 C 48 % -1.5 C
3183 27-03-2009 12:52:18 9.1 C 45 % -2.19 C
3184 27-03-2009 13:04:19 9.7 C 42 % -2.57 C
3185 27-03-2009 13:16:18 9.7 C 40 % -3.23 C
3186 27-03-2009 13:28:18 9.6 C 37 % -4.35 C
3187 27-03-2009 13:40:18 9.7 C 37 % -4.26 C
3188 27-03-2009 13:52:18 9.8 C 37 % -4.18 C
3189 27-03-2009 14:04:18 10.4 C 35 % -4.38 C
3190 27-03-2009 14:16:17 10.3 C 35 % -4.47 C
3191 27-03-2009 14:28:17 10.3 C 35 % -4.47 C
3192 27-03-2009 14:40:17 10.2 C 36 % -4.18 C
3193 27-03-2009 14:52:17 10.1 C 39 % -3.21 C
3194 27-03-2009 15:04:17 9.7 C 40 % -3.23 C
3195 27-03-2009 15:16:17 9.6 C 42 % -2.66 C
3196 27-03-2009 15:28:17 9.7 C 40 % -3.23 C
3197 27-03-2009 15:40:17 9.8 C 41 % -2.81 C
3198 27-03-2009 15:52:17 9.6 C 41 % -2.99 C
3199 27-03-2009 16:04:16 8.5 C 45 % -2.73 C
3200 27-03-2009 16:16:16 7.9 C 48 % -2.42 C
Sensor: Nr:Datum:Temp:Feuchte:Taupunkt:
Aussen-T/F 3201 27-03-2009 16:28:16 7.9 C 50 % -1.86 C
3202 27-03-2009 16:40:16 7.4 C 55 % -1.03 C
3203 27-03-2009 16:52:16 6.9 C 66 % 1 C
3204 27-03-2009 17:04:15 6.6 C 71 % 1.73 C
3205 27-03-2009 17:16:16 6.6 C 68 % 1.13 C
3206 27-03-2009 17:28:16 6.3 C 72 % 1.63 C
3207 27-03-2009 17:40:16 5.9 C 74 % 1.63 C
3208 27-03-2009 17:52:15 5.2 C 76 % 1.32 C
3209 27-03-2009 18:04:16 5 C 79 % 1.67 C
3210 27-03-2009 18:16:15 4.9 C 82 % 2.09 C
3211 27-03-2009 18:28:15 4.9 C 82 % 2.09 C
3212 27-03-2009 18:40:15 5.1 C 80 % 1.94 C
3213 27-03-2009 18:52:15 5.6 C 74 % 1.34 C
3214 27-03-2009 19:04:15 5.7 C 68 % 0.27 C
3215 27-03-2009 19:16:14 5.9 C 66 % 0.05 C
3216 27-03-2009 19:28:14 6 C 66 % 0.14 C
3217 27-03-2009 19:40:02 5.8 C 69 % 0.56 C
3218 27-03-2009 19:52:01 5.8 C 70 % 0.76 C
3219 27-03-2009 20:04:02 5.6 C 72 % 0.96 C
3220 27-03-2009 20:16:01 5.6 C 73 % 1.15 C
3221 27-03-2009 20:28:01 5.5 C 73 % 1.06 C
3222 27-03-2009 20:40:01 5.3 C 74 % 1.05 C
3223 27-03-2009 20:52:01 5 C 75 % 0.95 C
3224 27-03-2009 21:04:02 4.8 C 76 % 0.94 C
3225 27-03-2009 21:16:01 4.8 C 77 % 1.12 C
Sensor: Nr:Datum:Temp:Feuchte:Taupunkt:
Aussen-T/F 3226 27-03-2009 21:28:01 4.9 C 78 % 1.39 C
3227 27-03-2009 21:40:01 4.7 C 79 % 1.38 C
3228 27-03-2009 21:52:01 5.2 C 78 % 1.69 C
3229 27-03-2009 22:04:01 5.7 C 75 % 1.62 C
3230 27-03-2009 22:16:00 5.8 C 72 % 1.15 C
3231 27-03-2009 22:28:00 5.7 C 72 % 1.06 C
3232 27-03-2009 22:40:01 5.6 C 73 % 1.15 C
3233 27-03-2009 22:53:01 5.6 C 74 % 1.34 C
3234 27-03-2009 23:05:01 5.3 C 75 % 1.24 C
3235 27-03-2009 23:17:01 5.1 C 77 % 1.41 C
3236 27-03-2009 23:29:01 4.8 C 81 % 1.82 C
3237 27-03-2009 23:41:01 4.8 C 83 % 2.16 C
3238 27-03-2009 23:53:01 4.8 C 84 % 2.33 C
3239 28-03-2009 00:05:01 4.9 C 85 % 2.6 C
3240 28-03-2009 00:17:01 4.8 C 86 % 2.66 C
3241 28-03-2009 00:29:01 4.7 C 87 % 2.73 C
3242 28-03-2009 00:41:01 4.4 C 88 % 2.59 C
3243 28-03-2009 00:53:01 4 C 88 % 2.2 C
3244 28-03-2009 01:05:01 3.6 C 88 % 1.8 C
3245 28-03-2009 01:17:01 3.6 C 89 % 1.96 C
3246 28-03-2009 01:29:02 3.4 C 89 % 1.76 C
3247 28-03-2009 01:41:02 3.3 C 89 % 1.67 C
3248 28-03-2009 01:53:02 3.4 C 90 % 1.92 C
3249 28-03-2009 02:05:02 3.4 C 90 % 1.92 C
3250 28-03-2009 02:17:02 3.5 C 91 % 2.17 C
Sensor: Nr:Datum:Temp:Feuchte:Taupunkt:
Aussen-T/F 3251 28-03-2009 02:29:02 3.7 C 91 % 2.37 C
3252 28-03-2009 02:41:02 3.7 C 92 % 2.52 C
3253 28-03-2009 02:53:02 3.8 C 92 % 2.62 C
3254 28-03-2009 03:05:02 3.8 C 92 % 2.62 C
3255 28-03-2009 03:17:02 3.9 C 92 % 2.72 C
3256 28-03-2009 03:29:02 4 C 92 % 2.82 C
3257 28-03-2009 03:41:02 4.1 C 92 % 2.92 C
3258 28-03-2009 03:53:02 4.2 C 92 % 3.02 C
3259 28-03-2009 04:05:02 4.3 C 93 % 3.27 C
3260 28-03-2009 04:17:02 4.3 C 93 % 3.27 C
3261 28-03-2009 04:29:02 4.3 C 93 % 3.27 C
3262 28-03-2009 04:41:02 4.3 C 93 % 3.27 C
3263 28-03-2009 04:53:02 4.3 C 93 % 3.27 C
3264 28-03-2009 05:05:02 4.3 C 93 % 3.27 C
3265 28-03-2009 05:17:03 4.3 C 93 % 3.27 C
3266 28-03-2009 05:29:03 4.4 C 93 % 3.37 C
3267 28-03-2009 05:41:03 4.6 C 93 % 3.57 C
3268 28-03-2009 05:53:03 4.7 C 93 % 3.67 C
3269 28-03-2009 06:05:03 4.8 C 93 % 3.77 C
3270 28-03-2009 06:17:03 4.8 C 92 % 3.61 C
3271 28-03-2009 06:29:03 4.9 C 92 % 3.71 C
3272 28-03-2009 06:41:03 5 C 91 % 3.66 C
3273 28-03-2009 06:53:03 5.2 C 90 % 3.7 C
3274 28-03-2009 07:05:03 5 C 89 % 3.34 C
3275 28-03-2009 07:17:03 4.7 C 90 % 3.2 C
Sensor: Nr:Datum:Temp:Feuchte:Taupunkt:
Aussen-T/F 3276 28-03-2009 07:29:03 4.9 C 90 % 3.4 C
3277 28-03-2009 07:41:03 4.8 C 90 % 3.3 C
3278 28-03-2009 07:53:03 5.2 C 89 % 3.54 C
3279 28-03-2009 08:05:03 5.6 C 90 % 4.09 C
3280 28-03-2009 08:17:03 5.8 C 90 % 4.29 C
3281 28-03-2009 08:29:03 5.9 C 89 % 4.23 C
3282 28-03-2009 08:41:03 6.8 C 88 % 4.96 C
3283 28-03-2009 08:53:03 7.6 C 78 % 4.02 C
3284 28-03-2009 09:05:04 8.2 C 71 % 3.26 C
3285 28-03-2009 09:17:04 8.9 C 66 % 2.9 C
3286 28-03-2009 09:29:04 9 C 61 % 1.89 C
3287 28-03-2009 09:41:02 8.6 C 67 % 2.83 C
3288 28-03-2009 09:53:01 7.9 C 71 % 2.98 C
3289 28-03-2009 10:05:01 7.7 C 74 % 3.37 C
3290 28-03-2009 10:17:01 7.6 C 77 % 3.83 C
3291 28-03-2009 10:29:01 7.6 C 78 % 4.02 C
3292 28-03-2009 10:41:01 7.9 C 80 % 4.67 C
3293 28-03-2009 10:53:00 7.9 C 81 % 4.85 C
3294 28-03-2009 11:05:01 7.9 C 80 % 4.67 C
3295 28-03-2009 11:17:00 8.5 C 74 % 4.14 C
3296 28-03-2009 11:29:00 8.6 C 70 % 3.45 C
3297 28-03-2009 11:41:00 8.6 C 68 % 3.04 C
3298 28-03-2009 11:53:02 8.5 C 70 % 3.35 C
3299 28-03-2009 12:05:01 8.3 C 72 % 3.56 C
3300 28-03-2009 12:17:01 8.3 C 73 % 3.75 C
Sensor: Nr:Datum:Temp:Feuchte:Taupunkt:
Aussen-T/F 3301 28-03-2009 12:29:01 8.1 C 71 % 3.17 C
3302 28-03-2009 12:41:02 8.5 C 71 % 3.55 C
3303 28-03-2009 12:53:01 9 C 63 % 2.35 C
3304 28-03-2009 13:05:01 9.1 C 63 % 2.44 C
3305 28-03-2009 13:17:01 9.4 C 61 % 2.27 C
3306 28-03-2009 13:29:01 9.9 C 57 % 1.79 C
3307 28-03-2009 13:41:01 10.3 C 54 % 1.41 C
3308 28-03-2009 13:53:00 8.9 C 62 % 2.03 C
3309 28-03-2009 14:05:01 7 C 69 % 1.71 C
3310 28-03-2009 14:17:00 7.1 C 71 % 2.21 C
3311 28-03-2009 14:29:00 8.2 C 66 % 2.24 C
3312 28-03-2009 14:41:00 9.2 C 62 % 2.31 C
3313 28-03-2009 14:53:00 10.5 C 54 % 1.6 C
3314 28-03-2009 15:05:00 11.2 C 52 % 1.72 C
3315 28-03-2009 15:17:00 11.6 C 46 % 0.39 C
3316 28-03-2009 15:29:00 11 C 47 % 0.14 C
3317 28-03-2009 15:41:59 10.7 C 49 % 0.44 C
3318 28-03-2009 15:53:00 11.2 C 42 % -1.22 C
3319 28-03-2009 16:05:59 10.5 C 43 % -1.53 C
3320 28-03-2009 16:17:59 10.9 C 43 % -1.17 C
3321 28-03-2009 16:29:59 10.3 C 44 % -1.4 C
3322 28-03-2009 16:41:58 10.7 C 42 % -1.67 C
3323 28-03-2009 16:53:59 11.3 C 36 % -3.21 C
3324 28-03-2009 17:05:59 10.6 C 36 % -3.83 C
3325 28-03-2009 17:17:58 10.2 C 37 % -3.82 C
Sensor: Nr:Datum:Temp:Feuchte:Taupunkt:
Aussen-T/F 3326 28-03-2009 17:29:58 9.7 C 39 % -3.57 C
3327 28-03-2009 17:41:59 9.7 C 38 % -3.91 C
3328 28-03-2009 17:53:58 9.7 C 40 % -3.23 C
3329 28-03-2009 18:05:58 9.7 C 40 % -3.23 C
3330 28-03-2009 18:17:58 10.5 C 37 % -3.55 C
3331 28-03-2009 18:29:58 10.2 C 35 % -4.56 C
3332 28-03-2009 18:41:58 9.5 C 37 % -4.44 C
3333 28-03-2009 18:53:57 9 C 38 % -4.54 C
3334 28-03-2009 19:05:58 8.7 C 40 % -4.13 C
3335 28-03-2009 19:17:58 8.2 C 41 % -4.25 C
3336 28-03-2009 19:29:58 7.9 C 45 % -3.28 C
3337 28-03-2009 19:41:57 7.6 C 46 % -3.26 C
3338 28-03-2009 19:53:57 7.3 C 50 % -2.42 C
3339 28-03-2009 20:05:57 6.9 C 54 % -1.75 C
3340 28-03-2009 20:17:57 6.7 C 57 % -1.2 C
3341 28-03-2009 20:29:57 6.9 C 56 % -1.26 C
3342 28-03-2009 20:41:57 7 C 56 % -1.16 C
3343 28-03-2009 20:53:57 6.9 C 57 % -1.01 C
3344 28-03-2009 21:05:57 6.4 C 58 % -1.25 C
3345 28-03-2009 21:17:56 6.2 C 60 % -0.97 C
3346 28-03-2009 21:29:56 6 C 61 % -0.94 C
3347 28-03-2009 21:41:56 6 C 61 % -0.94 C
3348 28-03-2009 21:53:56 6.4 C 61 % -0.56 C
3349 28-03-2009 22:05:56 6.4 C 61 % -0.56 C
3350 28-03-2009 22:17:56 6.5 C 60 % -0.69 C
Sensor: Nr:Datum:Temp:Feuchte:Taupunkt:
Aussen-T/F 3351 28-03-2009 22:29:56 6.9 C 58 % -0.78 C
3352 28-03-2009 22:42:56 7.1 C 55 % -1.31 C
3353 28-03-2009 22:54:56 7.2 C 54 % -1.47 C
3354 28-03-2009 23:06:56 7.2 C 54 % -1.47 C
3355 28-03-2009 23:18:56 6.6 C 63 % 0.07 C
3356 28-03-2009 23:30:57 6 C 69 % 0.76 C
3357 28-03-2009 23:42:57 5.8 C 72 % 1.15 C
3358 28-03-2009 23:54:57 5.9 C 74 % 1.63 C
3359 29-03-2009 00:06:57 6 C 70 % 0.95 C
3360 29-03-2009 00:18:57 6.3 C 67 % 0.64 C
3361 29-03-2009 00:30:57 6.3 C 64 % 0 C
3362 29-03-2009 00:42:57 6 C 66 % 0.14 C
3363 29-03-2009 00:54:57 5.9 C 68 % 0.46 C
3364 29-03-2009 01:06:57 5.9 C 69 % 0.66 C
3365 29-03-2009 01:18:57 5.9 C 68 % 0.46 C
3366 29-03-2009 01:30:57 6 C 68 % 0.55 C
3367 29-03-2009 01:42:57 5.9 C 69 % 0.66 C
3368 29-03-2009 01:54:57 5.9 C 71 % 1.06 C
3369 29-03-2009 02:06:57 5.7 C 70 % 0.67 C
3370 29-03-2009 02:18:57 5.3 C 72 % 0.67 C
3371 29-03-2009 02:30:57 5.1 C 72 % 0.48 C
3372 29-03-2009 02:42:57 4.8 C 74 % 0.57 C
3373 29-03-2009 02:54:57 4.9 C 75 % 0.85 C
3374 29-03-2009 04:06:57 5 C 74 % 0.76 C
3375 29-03-2009 04:18:57 5.2 C 73 % 0.77 C
Sensor: Nr:Datum:Temp:Feuchte:Taupunkt:
Aussen-T/F 3376 29-03-2009 04:30:58 5.2 C 70 % 0.19 C
3377 29-03-2009 04:42:58 5.2 C 68 % -0.21 C
3378 29-03-2009 04:54:58 5.2 C 66 % -0.62 C
3379 29-03-2009 05:06:58 5.1 C 63 % -1.35 C
3380 29-03-2009 05:18:58 5.1 C 62 % -1.57 C
3381 29-03-2009 05:30:58 5.1 C 61 % -1.79 C
3382 29-03-2009 05:42:58 5.1 C 63 % -1.35 C
3383 29-03-2009 05:54:58 5.2 C 62 % -1.47 C
3384 29-03-2009 06:06:58 5.2 C 61 % -1.69 C
3385 29-03-2009 06:18:58 5.2 C 61 % -1.69 C
3386 29-03-2009 06:30:58 5.1 C 62 % -1.57 C
3387 29-03-2009 06:42:58 5 C 62 % -1.66 C
3388 29-03-2009 06:54:58 4.8 C 66 % -1 C
3389 29-03-2009 07:06:58 4.6 C 67 % -0.99 C
3390 29-03-2009 07:18:58 4.6 C 68 % -0.78 C
3391 29-03-2009 07:30:58 4.7 C 68 % -0.69 C
3392 29-03-2009 07:42:58 4.5 C 68 % -0.88 C
3393 29-03-2009 07:54:58 4.4 C 68 % -0.98 C
3394 29-03-2009 08:06:58 4.7 C 68 % -0.69 C
3395 29-03-2009 08:18:59 5 C 66 % -0.81 C
3396 29-03-2009 08:30:59 5.1 C 65 % -0.92 C
3397 29-03-2009 08:42:59 5.1 C 65 % -0.92 C
3398 29-03-2009 08:54:59 5.2 C 65 % -0.83 C
3399 29-03-2009 09:06:59 5.4 C 64 % -0.85 C
3400 29-03-2009 09:18:59 5.5 C 65 % -0.54 C
Sensor: Nr:Datum:Temp:Feuchte:Taupunkt:
Aussen-T/F 3401 29-03-2009 09:30:56 5.5 C 65 % -0.54 C
3402 29-03-2009 09:42:56 5.6 C 66 % -0.24 C
3403 29-03-2009 09:54:56 5.1 C 73 % 0.67 C
3404 29-03-2009 10:06:56 5.3 C 76 % 1.42 C
3405 29-03-2009 10:18:01 5.4 C 77 % 1.7 C
3406 29-03-2009 10:30:01 5.9 C 77 % 2.19 C
3407 29-03-2009 10:42:02 6.3 C 73 % 1.83 C
3408 29-03-2009 10:54:01 6.4 C 70 % 1.34 C
3409 29-03-2009 11:06:02 6.2 C 69 % 0.95 C
3410 29-03-2009 11:18:01 6.2 C 69 % 0.95 C
3411 29-03-2009 11:30:01 6.5 C 67 % 0.83 C
3412 29-03-2009 11:42:01 6.5 C 66 % 0.62 C
3413 29-03-2009 11:54:01 6.7 C 66 % 0.81 C
3414 29-03-2009 12:06:01 6.9 C 65 % 0.79 C
3415 29-03-2009 12:18:00 7.6 C 63 % 1.02 C
3416 29-03-2009 12:30:00 8.4 C 60 % 1.1 C
3417 29-03-2009 12:42:01 8 C 59 % 0.49 C
3418 29-03-2009 12:54:00 8.1 C 60 % 0.82 C
3419 29-03-2009 13:06:00 8.9 C 57 % 0.86 C
3420 29-03-2009 13:18:00 7.8 C 58 % 0.07 C
3421 29-03-2009 13:30:00 7.8 C 62 % 0.99 C
3422 29-03-2009 13:42:00 8.5 C 58 % 0.72 C
3423 29-03-2009 13:54:00 8.8 C 57 % 0.76 C
3424 29-03-2009 14:06:00 9 C 52 % -0.31 C
3425 29-03-2009 14:18:00 7.9 C 59 % 0.4 C
Sensor: Nr:Datum:Temp:Feuchte:Taupunkt:
Aussen-T/F 3426 29-03-2009 14:30:00 6.7 C 67 % 1.02 C
3427 29-03-2009 14:42:59 6.6 C 72 % 1.92 C
3428 29-03-2009 14:54:00 6.9 C 75 % 2.78 C
3429 29-03-2009 15:06:59 8.3 C 75 % 4.14 C
3430 29-03-2009 15:18:59 9 C 69 % 3.63 C
3431 29-03-2009 15:30:58 8.4 C 62 % 1.55 C
3432 29-03-2009 15:42:58 9 C 62 % 2.12 C
3433 29-03-2009 15:54:59 8.1 C 56 % -0.13 C
3434 29-03-2009 16:06:58 7.4 C 58 % -0.31 C
3435 29-03-2009 16:18:58 7.7 C 56 % -0.51 C
3436 29-03-2009 16:30:58 8.1 C 55 % -0.38 C
3437 29-03-2009 16:42:58 8.3 C 52 % -0.96 C
3438 29-03-2009 16:54:58 8.4 C 49 % -1.68 C
3439 29-03-2009 17:06:58 9 C 47 % -1.69 C
3440 29-03-2009 17:18:57 9.5 C 47 % -1.23 C
3441 29-03-2009 17:30:58 9.8 C 44 % -1.86 C
3442 29-03-2009 17:42:58 9 C 45 % -2.28 C
3443 29-03-2009 17:54:57 8.5 C 45 % -2.73 C
3444 29-03-2009 18:06:58 8.2 C 48 % -2.14 C
3445 29-03-2009 18:18:57 8 C 51 % -1.5 C
3446 29-03-2009 18:30:57 8 C 53 % -0.98 C
3447 29-03-2009 18:42:57 7.8 C 55 % -0.66 C
3448 29-03-2009 18:54:57 7.5 C 59 % 0.02 C
3449 29-03-2009 19:06:57 7.3 C 61 % 0.29 C
3450 29-03-2009 19:18:56 7 C 62 % 0.23 C
Sensor: Nr:Datum:Temp:Feuchte:Taupunkt:
Aussen-T/F 3451 29-03-2009 19:30:56 6.3 C 71 % 1.44 C
3452 29-03-2009 19:42:56 6.1 C 75 % 2.01 C
3453 29-03-2009 19:54:56 6 C 78 % 2.46 C
3454 29-03-2009 20:06:56 5.9 C 81 % 2.9 C
3455 29-03-2009 20:18:56 5.7 C 82 % 2.87 C
3456 29-03-2009 20:30:56 5.5 C 83 % 2.85 C
3457 29-03-2009 20:42:56 5.4 C 84 % 2.92 C
3458 29-03-2009 20:54:56 5.3 C 84 % 2.82 C
3459 29-03-2009 21:06:55 5 C 84 % 2.53 C
3460 29-03-2009 21:18:56 4.8 C 85 % 2.5 C
3461 29-03-2009 21:30:55 4.7 C 85 % 2.4 C
3462 29-03-2009 21:42:55 4.5 C 85 % 2.2 C
3463 29-03-2009 21:54:55 4.5 C 86 % 2.37 C
3464 29-03-2009 22:06:55 4.6 C 86 % 2.47 C
3465 29-03-2009 22:18:55 4.6 C 86 % 2.47 C
3466 29-03-2009 22:30:55 4.4 C 85 % 2.11 C
3467 29-03-2009 22:42:55 4.3 C 85 % 2.01 C
3468 29-03-2009 22:54:55 4.3 C 84 % 1.84 C
3469 29-03-2009 23:06:55 4.3 C 83 % 1.67 C
3470 29-03-2009 23:18:54 4.3 C 82 % 1.51 C
3471 29-03-2009 23:31:02 4.1 C 81 % 1.14 C
3472 29-03-2009 23:43:02 3.8 C 82 % 1.02 C
3473 29-03-2009 23:55:02 3.6 C 82 % 0.82 C
3474 30-03-2009 00:07:02 3.5 C 82 % 0.72 C
3475 30-03-2009 00:19:02 3.3 C 82 % 0.53 C
Sensor: Nr:Datum:Temp:Feuchte:Taupunkt:
Aussen-T/F 3476 30-03-2009 00:31:02 3.1 C 82 % 0.33 C
3477 30-03-2009 00:43:02 3 C 83 % 0.4 C
3478 30-03-2009 00:55:02 3 C 83 % 0.4 C
3479 30-03-2009 01:07:02 2.7 C 84 % 0.27 C
3480 30-03-2009 01:19:02 2.5 C 84 % 0.08 C
3481 30-03-2009 01:31:02 2.3 C 85 % 0.04 C
3482 30-03-2009 01:43:02 2.1 C 85 % -0.15 C
3483 30-03-2009 01:55:02 2 C 85 % -0.25 C
3484 30-03-2009 02:07:03 2 C 86 % -0.09 C
3485 30-03-2009 02:19:03 1.9 C 87 % -0.03 C
3486 30-03-2009 02:31:03 1.8 C 87 % -0.13 C
3487 30-03-2009 02:43:03 1.7 C 87 % -0.23 C
3488 30-03-2009 02:55:03 1.8 C 87 % -0.13 C
3489 30-03-2009 03:07:03 1.5 C 88 % -0.27 C
3490 30-03-2009 03:19:03 1.5 C 87 % -0.42 C
3491 30-03-2009 03:31:03 1.4 C 88 % -0.36 C
3492 30-03-2009 03:43:03 1.3 C 88 % -0.46 C
3493 30-03-2009 03:55:03 1.2 C 88 % -0.56 C
3494 30-03-2009 04:07:03 1.2 C 88 % -0.56 C
3495 30-03-2009 04:19:03 1.2 C 88 % -0.56 C
3496 30-03-2009 04:31:03 1.1 C 88 % -0.66 C
3497 30-03-2009 04:43:03 1.2 C 88 % -0.56 C
3498 30-03-2009 04:55:03 1.3 C 88 % -0.46 C
3499 30-03-2009 05:07:03 1 C 88 % -0.76 C
3500 30-03-2009 05:19:03 1 C 88 % -0.76 C
Sensor: Nr:Datum:Temp:Feuchte:Taupunkt:
Aussen-T/F 3501 30-03-2009 05:31:03 0.8 C 89 % -0.8 C
3502 30-03-2009 05:43:03 0.7 C 89 % -0.9 C
3503 30-03-2009 05:55:03 0.7 C 89 % -0.9 C
3504 30-03-2009 06:07:04 0.6 C 89 % -1 C
3505 30-03-2009 06:19:04 0.4 C 89 % -1.2 C
3506 30-03-2009 06:31:04 0.3 C 89 % -1.29 C
3507 30-03-2009 06:43:04 0.3 C 90 % -1.14 C
3508 30-03-2009 06:55:04 0 C 89 % -1.59 C
3509 30-03-2009 07:07:01 -0.2 C 89 % -1.79 C
3510 30-03-2009 07:19:01 -0.2 C 89 % -1.79 C
3511 30-03-2009 07:31:01 -0.2 C 89 % -1.79 C
3512 30-03-2009 07:43:01 -0.2 C 90 % -1.64 C
3513 30-03-2009 07:55:01 -0.2 C 90 % -1.64 C
3514 30-03-2009 08:07:00 0 C 90 % -1.44 C
3515 30-03-2009 08:19:01 0.3 C 90 % -1.14 C
3516 30-03-2009 08:31:00 0.5 C 91 % -0.79 C
3517 30-03-2009 08:43:00 0.6 C 91 % -0.7 C
3518 30-03-2009 08:55:00 0.9 C 91 % -0.4 C
3519 30-03-2009 09:07:00 1.3 C 91 % 0 C
3520 30-03-2009 09:19:00 1.4 C 92 % 0.25 C
3521 30-03-2009 09:31:00 1.5 C 91 % 0.19 C
3522 30-03-2009 09:43:00 1.9 C 92 % 0.74 C
3523 30-03-2009 09:55:00 2.7 C 92 % 1.53 C
3524 30-03-2009 10:07:00 3.1 C 92 % 1.93 C
3525 30-03-2009 10:19:59 3.4 C 92 % 2.23 C
Sensor: Nr:Datum:Temp:Feuchte:Taupunkt:
Aussen-T/F 3526 30-03-2009 10:31:59 3.7 C 92 % 2.52 C
3527 30-03-2009 10:43:59 4.1 C 92 % 2.92 C
3528 30-03-2009 10:55:59 4.6 C 92 % 3.42 C
3529 30-03-2009 11:07:59 5.1 C 91 % 3.76 C
3530 30-03-2009 11:19:59 5.7 C 91 % 4.35 C
3531 30-03-2009 11:31:58 6.2 C 89 % 4.53 C
3532 30-03-2009 11:43:58 6.7 C 84 % 4.19 C
3533 30-03-2009 11:55:59 7 C 74 % 2.69 C
3534 30-03-2009 12:07:58 7.7 C 71 % 2.78 C
3535 30-03-2009 12:19:58 8.2 C 63 % 1.59 C
3536 30-03-2009 12:31:58 8.5 C 58 % 0.72 C
3537 30-03-2009 12:43:58 9.1 C 55 % 0.55 C
3538 30-03-2009 12:55:58 10.1 C 50 % 0.16 C
3539 30-03-2009 13:07:57 10.4 C 45 % -1 C
3540 30-03-2009 13:19:58 10 C 44 % -1.67 C
3541 30-03-2009 13:31:58 10.1 C 45 % -1.28 C
3542 30-03-2009 13:43:58 10.7 C 42 % -1.67 C
3543 30-03-2009 13:55:57 11.7 C 39 % -1.78 C
3544 30-03-2009 14:07:58 12.9 C 35 % -2.17 C
3545 30-03-2009 14:19:57 12.9 C 31 % -3.8 C
3546 30-03-2009 14:31:57 12.8 C 30 % -4.32 C
3547 30-03-2009 14:43:57 12.7 C 30 % -4.41 C
3548 30-03-2009 14:55:57 13.4 C 24 % -6.73 C
3549 30-03-2009 15:07:57 13.9 C 23 % -6.86 C
3550 30-03-2009 15:19:56 13.2 C 25 % -6.37 C
Sensor: Nr:Datum:Temp:Feuchte:Taupunkt:
Aussen-T/F 3551 30-03-2009 15:31:56 12.9 C 27 % -5.62 C
3552 30-03-2009 15:43:56 14.5 C 20 % -8.16 C
3553 30-03-2009 15:55:56 15.8 C 20 % -7.08 C
3554 30-03-2009 16:07:56 16.6 C 20 % -6.42 C
3555 30-03-2009 16:19:55 16.7 C 20 % -6.34 C
3556 30-03-2009 16:31:56 15.2 C 20 % -7.58 C
3557 30-03-2009 16:43:56 15 C 20 % -7.75 C
3558 30-03-2009 16:55:55 15.6 C 20 % -7.25 C
3559 30-03-2009 17:07:55 14.2 C 20 % -8.41 C
3560 30-03-2009 17:19:56 14.1 C 20 % -8.49 C
3561 30-03-2009 17:31:55 15.4 C 20 % -7.41 C
3562 30-03-2009 17:43:55 16.3 C 20 % -6.67 C
3563 30-03-2009 17:55:55 14.8 C 20 % -7.91 C
3564 30-03-2009 18:07:55 14.3 C 20 % -8.33 C
3565 30-03-2009 18:19:55 13.5 C 21 % -8.37 C
3566 30-03-2009 18:31:54 13.3 C 26 % -5.77 C
3567 30-03-2009 18:43:54 13.5 C 26 % -5.6 C
3568 30-03-2009 18:55:55 13.9 C 26 % -5.26 C
3569 30-03-2009 19:07:54 12.9 C 30 % -4.23 C
3570 30-03-2009 19:19:54 12.5 C 31 % -4.15 C
3571 30-03-2009 19:31:54 12.1 C 32 % -4.07 C
3572 30-03-2009 19:43:54 11.5 C 37 % -2.66 C
3573 30-03-2009 19:55:54 10.7 C 41 % -2 C
3574 30-03-2009 20:07:54 10.1 C 43 % -1.89 C
3575 30-03-2009 20:19:53 9.8 C 46 % -1.25 C
Sensor: Nr:Datum:Temp:Feuchte:Taupunkt:
Aussen-T/F 3576 30-03-2009 20:31:54 9.3 C 49 % -0.85 C
3577 30-03-2009 20:43:54 8.7 C 50 % -1.13 C
3578 30-03-2009 20:55:53 8.3 C 51 % -1.23 C
3579 30-03-2009 21:07:53 8 C 52 % -1.24 C
3580 30-03-2009 21:19:53 7.7 C 54 % -1 C
3581 30-03-2009 21:32:54 7.4 C 55 % -1.03 C
3582 30-03-2009 21:44:54 7.2 C 57 % -0.73 C
3583 30-03-2009 21:56:54 7 C 58 % -0.68 C
3584 30-03-2009 22:08:54 6.9 C 58 % -0.78 C
3585 30-03-2009 22:20:54 6.5 C 60 % -0.69 C
3586 30-03-2009 22:32:54 6.3 C 61 % -0.65 C
3587 30-03-2009 22:44:54 6.4 C 61 % -0.56 C
3588 30-03-2009 22:56:54 5.9 C 63 % -0.59 C
3589 30-03-2009 23:08:54 5.5 C 63 % -0.97 C
3590 30-03-2009 23:20:54 5.3 C 65 % -0.73 C
3591 30-03-2009 23:32:54 5.2 C 66 % -0.62 C
3592 30-03-2009 23:44:54 5.1 C 67 % -0.51 C
3593 30-03-2009 23:56:54 4.9 C 67 % -0.7 C
3594 31-03-2009 00:08:54 4.7 C 67 % -0.89 C
3595 31-03-2009 00:20:54 4.5 C 68 % -0.88 C
3596 31-03-2009 00:32:54 4.3 C 69 % -0.87 C
3597 31-03-2009 00:44:54 4 C 70 % -0.96 C
3598 31-03-2009 00:56:54 3.8 C 71 % -0.96 C
3599 31-03-2009 01:08:54 3.6 C 72 % -0.96 C
3600 31-03-2009 01:20:54 3.5 C 72 % -1.06 C
Sensor: Nr:Datum:Temp:Feuchte:Taupunkt:
Aussen-T/F 3601 31-03-2009 01:32:54 3.2 C 73 % -1.16 C
3602 31-03-2009 01:44:55 3.1 C 74 % -1.07 C
3603 31-03-2009 01:56:55 3 C 74 % -1.17 C
3604 31-03-2009 02:08:55 2.9 C 76 % -0.9 C
3605 31-03-2009 02:20:55 2.7 C 75 % -1.28 C
3606 31-03-2009 02:32:55 2.5 C 75 % -1.47 C
3607 31-03-2009 02:44:55 2.3 C 76 % -1.48 C
3608 31-03-2009 02:56:55 2.1 C 76 % -1.68 C
3609 31-03-2009 03:08:55 2.1 C 77 % -1.5 C
3610 31-03-2009 03:20:55 2 C 78 % -1.42 C
3611 31-03-2009 03:32:55 1.8 C 79 % -1.44 C
3612 31-03-2009 03:44:55 1.6 C 79 % -1.64 C
3613 31-03-2009 03:56:55 1.5 C 80 % -1.57 C
3614 31-03-2009 04:08:55 1.3 C 81 % -1.59 C
3615 31-03-2009 04:20:55 1.2 C 81 % -1.69 C
3616 31-03-2009 04:32:55 1 C 81 % -1.88 C
3617 31-03-2009 04:44:55 1 C 81 % -1.88 C
3618 31-03-2009 04:56:55 1 C 81 % -1.88 C
3619 31-03-2009 05:08:55 0.8 C 82 % -1.91 C
3620 31-03-2009 05:20:55 0.6 C 82 % -2.11 C
3621 31-03-2009 05:32:55 0.6 C 82 % -2.11 C
3622 31-03-2009 05:44:56 0.4 C 82 % -2.3 C
3623 31-03-2009 05:56:56 0.3 C 82 % -2.4 C
3624 31-03-2009 06:08:56 0.3 C 83 % -2.24 C
3625 31-03-2009 06:20:56 0.2 C 83 % -2.34 C
Sensor: Nr:Datum:Temp:Feuchte:Taupunkt:
Aussen-T/F 3626 31-03-2009 06:32:56 0 C 84 % -2.37 C
3627 31-03-2009 06:44:56 -0.2 C 83 % -2.73 C
3628 31-03-2009 06:56:56 -0.3 C 83 % -2.83 C
3629 31-03-2009 07:08:53 -0.3 C 84 % -2.67 C
3630 31-03-2009 07:20:54 -0.3 C 84 % -2.67 C
3631 31-03-2009 07:32:53 -0.5 C 84 % -2.86 C
3632 31-03-2009 07:44:53 -0.4 C 84 % -2.77 C
3633 31-03-2009 07:56:53 -0.3 C 84 % -2.67 C
3634 31-03-2009 08:08:53 -0.1 C 85 % -2.31 C
3635 31-03-2009 08:20:53 0 C 85 % -2.21 C
3636 31-03-2009 08:32:52 0.1 C 86 % -1.96 C
3637 31-03-2009 08:44:53 0.3 C 86 % -1.76 C
3638 31-03-2009 08:56:53 0.4 C 86 % -1.66 C
3639 31-03-2009 09:08:52 0.6 C 86 % -1.46 C
3640 31-03-2009 09:20:52 0.8 C 86 % -1.27 C
3641 31-03-2009 09:32:52 1.1 C 86 % -0.97 C
3642 31-03-2009 09:44:52 1.5 C 87 % -0.42 C
3643 31-03-2009 09:56:52 2.1 C 87 % 0.17 C
3644 31-03-2009 10:08:52 2.8 C 86 % 0.7 C
3645 31-03-2009 10:20:51 3.4 C 82 % 0.63 C
3646 31-03-2009 10:32:52 4.1 C 78 % 0.62 C
3647 31-03-2009 10:44:51 4.6 C 76 % 0.74 C
3648 31-03-2009 10:56:51 5.2 C 70 % 0.19 C
3649 31-03-2009 11:08:52 5.9 C 66 % 0.05 C
3650 31-03-2009 11:20:51 6.5 C 61 % -0.46 C
Sensor: Nr:Datum:Temp:Feuchte:Taupunkt:
Aussen-T/F 3651 31-03-2009 11:32:51 7.4 C 59 % -0.07 C
3652 31-03-2009 11:44:51 7.9 C 57 % -0.08 C
3653 31-03-2009 11:56:51 8.5 C 54 % -0.26 C
3654 31-03-2009 12:08:51 9.1 C 50 % -0.76 C
3655 31-03-2009 12:20:50 9.6 C 45 % -1.73 C
3656 31-03-2009 12:32:50 10.6 C 41 % -2.09 C
3657 31-03-2009 12:44:50 11 C 36 % -3.47 C
3658 31-03-2009 12:56:50 11.6 C 32 % -4.51 C
3659 31-03-2009 13:08:50 12.1 C 31 % -4.49 C
3660 31-03-2009 13:20:49 12.5 C 27 % -5.96 C
3661 31-03-2009 13:32:50 13.2 C 22 % -8.02 C
3662 31-03-2009 13:44:49 13.6 C 22 % -7.69 C
3663 31-03-2009 13:56:49 14.2 C 20 % -8.41 C
3664 31-03-2009 14:08:49 14.7 C 20 % -7.99 C
3665 31-03-2009 14:20:50 15.1 C 20 % -7.66 C
3666 31-03-2009 14:32:49 15.9 C 20 % -7 C
3667 31-03-2009 14:44:49 16 C 20 % -6.92 C
3668 31-03-2009 14:56:49 16.8 C 20 % -6.26 C
3669 31-03-2009 15:08:49 17.2 C 20 % -5.93 C
3670 31-03-2009 15:20:49 17.3 C 20 % -5.84 C
3671 31-03-2009 15:32:48 17.8 C 20 % -5.43 C
3672 31-03-2009 15:44:49 18.1 C 20 % -5.18 C
3673 31-03-2009 15:56:49 18.6 C 20 % -4.77 C
3674 31-03-2009 16:08:48 18.3 C 20 % -5.02 C
3675 31-03-2009 16:20:48 19 C 20 % -4.44 C
Sensor: Nr:Datum:Temp:Feuchte:Taupunkt:
Aussen-T/F 3676 31-03-2009 16:32:48 19.6 C 20 % -3.94 C
3677 31-03-2009 16:44:48 20 C 20 % -3.61 C
3678 31-03-2009 16:56:49 20.3 C 20 % -3.37 C
3679 31-03-2009 17:08:47 20.3 C 20 % -3.37 C
3680 31-03-2009 17:20:48 20.3 C 20 % -3.37 C
3681 31-03-2009 17:32:48 20 C 20 % -3.61 C
3682 31-03-2009 17:44:47 20.6 C 20 % -3.12 C
3683 31-03-2009 17:56:47 20.1 C 20 % -3.53 C
3684 31-03-2009 18:08:48 20 C 20 % -3.61 C
3685 31-03-2009 18:20:47 19.8 C 20 % -3.78 C
3686 31-03-2009 18:32:47 19.3 C 20 % -4.19 C
3687 31-03-2009 18:44:46 19.2 C 20 % -4.27 C
3688 31-03-2009 18:56:46 19 C 20 % -4.44 C
3689 31-03-2009 19:08:47 18.5 C 20 % -4.85 C
3690 31-03-2009 19:20:46 17.7 C 20 % -5.51 C
3691 31-03-2009 19:32:46 17 C 20 % -6.09 C
3692 31-03-2009 19:44:46 15.7 C 21 % -6.53 C
3693 31-03-2009 19:56:46 14.4 C 25 % -5.35 C
3694 31-03-2009 20:08:46 13.6 C 28 % -4.54 C
3695 31-03-2009 20:20:46 12.7 C 30 % -4.41 C
3696 31-03-2009 20:32:46 12.3 C 30 % -4.75 C
3697 31-03-2009 20:44:46 11.8 C 31 % -4.76 C
3698 31-03-2009 20:56:46 11.7 C 31 % -4.84 C
3699 31-03-2009 21:08:46 11.5 C 30 % -5.45 C
3700 31-03-2009 21:21:46 11.4 C 32 % -4.69 C
Sensor: Nr:Datum:Temp:Feuchte:Taupunkt:
Aussen-T/F 3701 31-03-2009 21:33:46 11.1 C 32 % -4.95 C
3702 31-03-2009 21:45:46 10.9 C 35 % -3.94 C
3703 31-03-2009 21:57:46 10.7 C 36 % -3.74 C
3704 31-03-2009 22:09:46 10.3 C 39 % -3.03 C
3705 31-03-2009 22:21:46 9.8 C 42 % -2.48 C
3706 31-03-2009 22:33:46 9.5 C 42 % -2.75 C
3707 31-03-2009 22:45:46 9.1 C 44 % -2.49 C
3708 31-03-2009 22:57:46 8.9 C 46 % -2.07 C
3709 31-03-2009 23:09:46 8.7 C 47 % -1.97 C
3710 31-03-2009 23:21:46 8.6 C 47 % -2.06 C
3711 31-03-2009 23:33:46 8.3 C 49 % -1.77 C
3712 31-03-2009 23:45:46 8.1 C 49 % -1.95 C
3713 31-03-2009 23:57:46 8.1 C 49 % -1.95 C
3714 01-04-2009 00:09:46 8 C 48 % -2.32 C
3715 01-04-2009 00:21:46 7.6 C 51 % -1.87 C
3716 01-04-2009 00:33:46 7.5 C 52 % -1.7 C
3717 01-04-2009 00:45:47 7.3 C 53 % -1.63 C
3718 01-04-2009 00:57:47 7.2 C 54 % -1.47 C
3719 01-04-2009 01:09:47 7 C 56 % -1.16 C
3720 01-04-2009 01:21:47 6.9 C 56 % -1.26 C
3721 01-04-2009 01:33:47 6.7 C 57 % -1.2 C
3722 01-04-2009 01:45:47 6.6 C 58 % -1.06 C
3723 01-04-2009 01:57:47 6.3 C 60 % -0.88 C
3724 01-04-2009 02:09:47 6.2 C 61 % -0.75 C
3725 01-04-2009 02:21:47 5.8 C 62 % -0.9 C
Sensor: Nr:Datum:Temp:Feuchte:Taupunkt:
Aussen-T/F 3726 01-04-2009 02:33:47 5.6 C 63 % -0.87 C
3727 01-04-2009 02:45:47 5.5 C 64 % -0.75 C
3728 01-04-2009 02:57:47 5.2 C 64 % -1.04 C
3729 01-04-2009 03:09:47 4.9 C 65 % -1.11 C
3730 01-04-2009 03:21:47 4.8 C 66 % -1 C
3731 01-04-2009 03:33:47 4.7 C 67 % -0.89 C
3732 01-04-2009 03:45:47 4.6 C 68 % -0.78 C
3733 01-04-2009 03:57:47 4.4 C 69 % -0.78 C
3734 01-04-2009 04:09:47 4 C 69 % -1.16 C
3735 01-04-2009 04:21:47 4.1 C 70 % -0.87 C
3736 01-04-2009 04:33:47 3.8 C 71 % -0.96 C
3737 01-04-2009 04:45:48 3.9 C 72 % -0.68 C
3738 01-04-2009 04:57:48 3.6 C 72 % -0.96 C
3739 01-04-2009 05:09:48 3.3 C 72 % -1.25 C
3740 01-04-2009 05:21:48 3.4 C 74 % -0.78 C
3741 01-04-2009 05:33:48 3.2 C 74 % -0.98 C
3742 01-04-2009 05:45:48 3.2 C 74 % -0.98 C
3743 01-04-2009 05:57:48 3.1 C 74 % -1.07 C
3744 01-04-2009 06:09:48 3.3 C 74 % -0.88 C
3745 01-04-2009 06:21:48 3.2 C 76 % -0.61 C
3746 01-04-2009 06:33:48 2.9 C 76 % -0.9 C
3747 01-04-2009 06:45:48 2.7 C 77 % -0.92 C
3748 01-04-2009 06:57:48 2.5 C 77 % -1.11 C
3749 01-04-2009 07:09:46 2.5 C 78 % -0.94 C
3750 01-04-2009 07:21:45 2.1 C 77 % -1.5 C
Sensor: Nr:Datum:Temp:Feuchte:Taupunkt:
Aussen-T/F 3751 01-04-2009 07:33:45 2.2 C 78 % -1.23 C
3752 01-04-2009 07:45:45 2.3 C 79 % -0.96 C
3753 01-04-2009 07:57:45 2.4 C 79 % -0.86 C
3754 01-04-2009 08:09:45 2.4 C 80 % -0.69 C
3755 01-04-2009 08:21:44 2.5 C 80 % -0.59 C
3756 01-04-2009 08:33:45 2.6 C 80 % -0.49 C
3757 01-04-2009 08:45:45 2.7 C 80 % -0.4 C
3758 01-04-2009 08:57:45 3 C 79 % -0.28 C
3759 01-04-2009 09:09:44 3.3 C 79 % 0.02 C
3760 01-04-2009 09:21:45 3.7 C 79 % 0.4 C
3761 01-04-2009 09:33:44 4.1 C 78 % 0.62 C
3762 01-04-2009 09:45:44 4.9 C 75 % 0.85 C
3763 01-04-2009 09:57:44 5.7 C 70 % 0.67 C
3764 01-04-2009 10:09:44 6.7 C 65 % 0.6 C
3765 01-04-2009 10:21:44 7.4 C 61 % 0.38 C
3766 01-04-2009 10:33:44 8.1 C 57 % 0.11 C
3767 01-04-2009 10:45:43 8.8 C 54 % 0.02 C
3768 01-04-2009 10:57:43 9.4 C 51 % -0.21 C
3769 01-04-2009 11:09:44 10.5 C 45 % -0.91 C
3770 01-04-2009 11:21:43 11.2 C 41 % -1.55 C
3771 01-04-2009 11:33:43 11.8 C 37 % -2.4 C
3772 01-04-2009 11:45:43 12.2 C 34 % -3.18 C
3773 01-04-2009 11:57:43 12.7 C 31 % -3.97 C
3774 01-04-2009 12:09:43 12.9 C 29 % -4.68 C
3775 01-04-2009 12:21:42 13.4 C 27 % -5.19 C
Sensor: Nr:Datum:Temp:Feuchte:Taupunkt:
Aussen-T/F 3776 01-04-2009 12:33:43 13.7 C 28 % -4.45 C
3777 01-04-2009 12:45:42 14.1 C 26 % -5.09 C
3778 01-04-2009 12:57:42 14.4 C 25 % -5.35 C
3779 01-04-2009 13:09:42 14.8 C 23 % -6.1 C
3780 01-04-2009 13:21:42 14.9 C 25 % -4.93 C
3781 01-04-2009 13:33:42 15.6 C 21 % -6.62 C
3782 01-04-2009 13:45:42 16 C 20 % -6.92 C
3783 01-04-2009 13:57:42 16.5 C 20 % -6.5 C
3784 01-04-2009 14:09:41 17.2 C 21 % -5.29 C
3785 01-04-2009 14:21:42 17.6 C 20 % -5.6 C
3786 01-04-2009 14:33:41 18.3 C 20 % -5.02 C
3787 01-04-2009 14:45:41 18.6 C 20 % -4.77 C
3788 01-04-2009 14:57:42 18.8 C 20 % -4.6 C
3789 01-04-2009 15:09:41 18.8 C 20 % -4.6 C
3790 01-04-2009 15:21:41 19.5 C 20 % -4.03 C
3791 01-04-2009 15:33:41 19.9 C 20 % -3.7 C
3792 01-04-2009 15:45:41 19.7 C 20 % -3.86 C
3793 01-04-2009 15:57:41 20.2 C 20 % -3.45 C
3794 01-04-2009 16:09:41 20.3 C 20 % -3.37 C
3795 01-04-2009 16:21:40 20.5 C 20 % -3.2 C
3796 01-04-2009 16:33:40 20.8 C 20 % -2.95 C
3797 01-04-2009 16:45:40 21.1 C 20 % -2.71 C
3798 01-04-2009 16:57:40 21.4 C 20 % -2.46 C
3799 01-04-2009 17:09:40 21.2 C 20 % -2.62 C
3800 01-04-2009 17:21:39 21.5 C 20 % -2.38 C
Sensor: Nr:Datum:Temp:Feuchte:Taupunkt:
Aussen-T/F 3801 01-04-2009 17:33:40 21.5 C 20 % -2.38 C
3802 01-04-2009 17:45:39 21.5 C 20 % -2.38 C
3803 01-04-2009 17:57:39 21.1 C 20 % -2.71 C
3804 01-04-2009 18:09:39 20.8 C 20 % -2.95 C
3805 01-04-2009 18:21:40 20.3 C 20 % -3.37 C
3806 01-04-2009 18:33:39 20.4 C 20 % -3.28 C
3807 01-04-2009 18:45:39 19.7 C 20 % -3.86 C
3808 01-04-2009 18:57:39 19.1 C 20 % -4.36 C
3809 01-04-2009 19:09:39 18.6 C 20 % -4.77 C
3810 01-04-2009 19:21:39 18.2 C 20 % -5.1 C
3811 01-04-2009 19:33:38 17.5 C 21 % -5.04 C
3812 01-04-2009 19:45:39 16.7 C 26 % -2.87 C
3813 01-04-2009 19:57:39 15.8 C 28 % -2.65 C
3814 01-04-2009 20:09:38 15.1 C 29 % -2.78 C
3815 01-04-2009 20:21:38 14.6 C 30 % -2.76 C
3816 01-04-2009 20:33:38 14.3 C 31 % -2.58 C
3817 01-04-2009 20:45:38 13.8 C 33 % -2.17 C
3818 01-04-2009 20:57:38 13.5 C 33 % -2.44 C
3819 01-04-2009 21:09:37 13.4 C 33 % -2.52 C
3820 01-04-2009 21:21:38 13.1 C 33 % -2.79 C
3821 01-04-2009 21:33:38 13 C 34 % -2.47 C
3822 01-04-2009 21:45:37 12.8 C 35 % -2.26 C
3823 01-04-2009 21:57:37 12.5 C 36 % -2.14 C
3824 01-04-2009 22:10:38 12.5 C 36 % -2.14 C
3825 01-04-2009 22:22:38 12.2 C 37 % -2.04 C
Sensor: Nr:Datum:Temp:Feuchte:Taupunkt:
Aussen-T/F 3826 01-04-2009 22:34:38 12.2 C 37 % -2.04 C
3827 01-04-2009 22:46:38 11.9 C 39 % -1.6 C
3828 01-04-2009 22:58:38 11.8 C 40 % -1.34 C
3829 01-04-2009 23:10:39 11.7 C 40 % -1.43 C
3830 01-04-2009 23:22:39 11.7 C 41 % -1.1 C
3831 01-04-2009 23:34:39 12 C 40 % -1.16 C
3832 01-04-2009 23:46:39 12.2 C 39 % -1.33 C
3833 01-04-2009 23:58:39 12.4 C 38 % -1.5 C
3834 02-04-2009 00:10:39 12.5 C 38 % -1.41 C
3835 02-04-2009 00:22:39 12.6 C 38 % -1.32 C
3836 02-04-2009 00:34:39 12.5 C 39 % -1.06 C
3837 02-04-2009 00:46:39 12.4 C 40 % -0.8 C
3838 02-04-2009 00:58:39 12.4 C 39 % -1.15 C
3839 02-04-2009 01:10:39 12 C 40 % -1.16 C
3840 02-04-2009 01:22:39 11.8 C 41 % -1.01 C
3841 02-04-2009 01:34:39 11.5 C 42 % -0.95 C
3842 02-04-2009 01:46:39 11.4 C 42 % -1.04 C
3843 02-04-2009 01:58:39 11.5 C 43 % -0.63 C
3844 02-04-2009 02:10:39 11.5 C 43 % -0.63 C
3845 02-04-2009 02:22:39 11.3 C 43 % -0.81 C
3846 02-04-2009 02:34:39 10.8 C 45 % -0.64 C
3847 02-04-2009 02:46:39 10.6 C 45 % -0.82 C
3848 02-04-2009 02:58:40 10.5 C 45 % -0.91 C
3849 02-04-2009 03:10:40 10.3 C 46 % -0.8 C
3850 02-04-2009 03:22:40 10.2 C 46 % -0.89 C
Sensor: Nr:Datum:Temp:Feuchte:Taupunkt:
Aussen-T/F 3851 02-04-2009 03:34:40 10.2 C 46 % -0.89 C
3852 02-04-2009 03:46:40 10.1 C 46 % -0.98 C
3853 02-04-2009 03:58:40 10 C 46 % -1.07 C
3854 02-04-2009 04:10:40 10 C 46 % -1.07 C
3855 02-04-2009 04:22:40 10 C 46 % -1.07 C
3856 02-04-2009 04:34:40 9.9 C 47 % -0.87 C
3857 02-04-2009 04:46:40 9.8 C 47 % -0.96 C
3858 02-04-2009 04:58:40 9.7 C 47 % -1.05 C
3859 02-04-2009 05:10:40 9.6 C 47 % -1.14 C
3860 02-04-2009 05:22:40 9.5 C 48 % -0.95 C
3861 02-04-2009 05:34:40 9.3 C 49 % -0.85 C
3862 02-04-2009 05:46:40 9.2 C 50 % -0.67 C
3863 02-04-2009 05:58:40 9.3 C 50 % -0.57 C
3864 02-04-2009 06:10:40 9.2 C 50 % -0.67 C
3865 02-04-2009 06:22:40 8.9 C 52 % -0.41 C
3866 02-04-2009 06:34:40 8.7 C 53 % -0.33 C
3867 02-04-2009 06:46:41 8.5 C 54 % -0.26 C
3868 02-04-2009 06:58:41 8.5 C 54 % -0.26 C
3869 02-04-2009 07:10:38 8.5 C 54 % -0.26 C
3870 02-04-2009 07:22:38 8.4 C 55 % -0.1 C
3871 02-04-2009 07:34:38 8.3 C 56 % 0.05 C
3872 02-04-2009 07:46:38 8.2 C 57 % 0.2 C
3873 02-04-2009 07:58:38 8.2 C 57 % 0.2 C
3874 02-04-2009 08:10:38 8.1 C 57 % 0.11 C
3875 02-04-2009 08:22:37 8.2 C 57 % 0.2 C
Sensor: Nr:Datum:Temp:Feuchte:Taupunkt:
Aussen-T/F 3876 02-04-2009 08:34:38 8.3 C 57 % 0.3 C
3877 02-04-2009 08:46:37 8.5 C 57 % 0.48 C
3878 02-04-2009 08:58:37 8.9 C 57 % 0.86 C
3879 02-04-2009 09:10:37 9.1 C 56 % 0.8 C
3880 02-04-2009 09:22:37 9.5 C 54 % 0.67 C
3881 02-04-2009 09:34:37 10.1 C 52 % 0.7 C
3882 02-04-2009 09:46:36 10.7 C 50 % 0.72 C
3883 02-04-2009 09:58:36 11.1 C 49 % 0.8 C
3884 02-04-2009 10:10:37 11.6 C 47 % 0.69 C
3885 02-04-2009 10:22:36 12.1 C 47 % 1.14 C
3886 02-04-2009 10:34:36 12.6 C 46 % 1.3 C
3887 02-04-2009 10:46:37 13.1 C 44 % 1.14 C
3888 02-04-2009 10:58:37 13.5 C 43 % 1.18 C
3889 02-04-2009 11:10:36 14 C 41 % 0.97 C
3890 02-04-2009 11:22:36 14.3 C 41 % 1.24 C
3891 02-04-2009 11:34:35 14.6 C 40 % 1.17 C
3892 02-04-2009 11:46:36 15.1 C 39 % 1.26 C
3893 02-04-2009 11:58:36 15.4 C 38 % 1.17 C
3894 02-04-2009 12:10:35 15.8 C